<?xml version="1.0" encoding="UTF-8" standalone="no" ?>
<gpx xmlns="http://www.topografix.com/GPX/1/1" xmlns:xsi="http://www.w3.org/2001/XMLSchema-instance" xsi:schemaLocation="http://www.topografix.com/GPX/1/1 http://www.topografix.com/GPX/1/1/gpx.xsd" version="1.1" creator="VisuGPX - https://www.visugpx.com">
  <metadata>
    <name>Col de Toussière</name>
    <desc><![CDATA[Jeudi 26 mai 2015, randonnée groupe B (R.S.P.G), avec Juju et bernard
(32 participants)]]></desc>
  </metadata>
  <trk>
    <name><![CDATA[2015 06 25 : Col de Toussières]]></name>
    <trkseg>
      <trkpt lat="44.63499" lon="5.65603">
        <ele>1166.22</ele>
        <time>2015-06-25T06:37:51Z</time>
      </trkpt>
      <trkpt lat="44.63499" lon="5.65603">
        <ele>1166.22</ele>
        <time>2015-06-25T06:37:52Z</time>
      </trkpt>
      <trkpt lat="44.63504" lon="5.65599">
        <ele>1167.18</ele>
        <time>2015-06-25T06:38:06Z</time>
      </trkpt>
      <trkpt lat="44.63498" lon="5.65585">
        <ele>1167.18</ele>
        <time>2015-06-25T06:38:20Z</time>
      </trkpt>
      <trkpt lat="44.63492" lon="5.65574">
        <ele>1167.66</ele>
        <time>2015-06-25T06:38:33Z</time>
      </trkpt>
      <trkpt lat="44.63486" lon="5.65562">
        <ele>1168.62</ele>
        <time>2015-06-25T06:38:46Z</time>
      </trkpt>
      <trkpt lat="44.63483" lon="5.6555">
        <ele>1169.1</ele>
        <time>2015-06-25T06:38:58Z</time>
      </trkpt>
      <trkpt lat="44.63483" lon="5.65527">
        <ele>1170.06</ele>
        <time>2015-06-25T06:39:13Z</time>
      </trkpt>
      <trkpt lat="44.63486" lon="5.65515">
        <ele>1171.5</ele>
        <time>2015-06-25T06:39:25Z</time>
      </trkpt>
      <trkpt lat="44.63488" lon="5.65506">
        <ele>1172.47</ele>
        <time>2015-06-25T06:39:37Z</time>
      </trkpt>
      <trkpt lat="44.63488" lon="5.65498">
        <ele>1172.95</ele>
        <time>2015-06-25T06:39:45Z</time>
      </trkpt>
      <trkpt lat="44.63488" lon="5.65489">
        <ele>1173.91</ele>
        <time>2015-06-25T06:39:52Z</time>
      </trkpt>
      <trkpt lat="44.63486" lon="5.65474">
        <ele>1174.87</ele>
        <time>2015-06-25T06:40:06Z</time>
      </trkpt>
      <trkpt lat="44.63486" lon="5.65469">
        <ele>1175.35</ele>
        <time>2015-06-25T06:40:17Z</time>
      </trkpt>
      <trkpt lat="44.63483" lon="5.65471">
        <ele>1175.35</ele>
        <time>2015-06-25T06:40:32Z</time>
      </trkpt>
      <trkpt lat="44.63483" lon="5.65472">
        <ele>1175.35</ele>
        <time>2015-06-25T06:40:43Z</time>
      </trkpt>
      <trkpt lat="44.63487" lon="5.65473">
        <ele>1174.87</ele>
        <time>2015-06-25T06:41:02Z</time>
      </trkpt>
      <trkpt lat="44.63488" lon="5.65471">
        <ele>1175.35</ele>
        <time>2015-06-25T06:41:22Z</time>
      </trkpt>
      <trkpt lat="44.63494" lon="5.65469">
        <ele>1175.83</ele>
        <time>2015-06-25T06:41:33Z</time>
      </trkpt>
      <trkpt lat="44.63497" lon="5.65468">
        <ele>1175.83</ele>
        <time>2015-06-25T06:41:36Z</time>
      </trkpt>
      <trkpt lat="44.6351" lon="5.65465">
        <ele>1177.27</ele>
        <time>2015-06-25T06:41:51Z</time>
      </trkpt>
      <trkpt lat="44.63518" lon="5.65461">
        <ele>1178.71</ele>
        <time>2015-06-25T06:42:03Z</time>
      </trkpt>
      <trkpt lat="44.63528" lon="5.65451">
        <ele>1180.64</ele>
        <time>2015-06-25T06:42:16Z</time>
      </trkpt>
      <trkpt lat="44.63531" lon="5.65444">
        <ele>1181.6</ele>
        <time>2015-06-25T06:42:31Z</time>
      </trkpt>
      <trkpt lat="44.63533" lon="5.65442">
        <ele>1181.6</ele>
        <time>2015-06-25T06:42:49Z</time>
      </trkpt>
      <trkpt lat="44.63533" lon="5.65442">
        <ele>1181.6</ele>
        <time>2015-06-25T06:43:06Z</time>
      </trkpt>
      <trkpt lat="44.63532" lon="5.65445">
        <ele>1181.6</ele>
        <time>2015-06-25T06:43:32Z</time>
      </trkpt>
      <trkpt lat="44.63533" lon="5.65439">
        <ele>1182.08</ele>
        <time>2015-06-25T06:43:51Z</time>
      </trkpt>
      <trkpt lat="44.63541" lon="5.65427">
        <ele>1184.48</ele>
        <time>2015-06-25T06:44:07Z</time>
      </trkpt>
      <trkpt lat="44.63549" lon="5.65414">
        <ele>1185.92</ele>
        <time>2015-06-25T06:44:23Z</time>
      </trkpt>
      <trkpt lat="44.63557" lon="5.654">
        <ele>1187.85</ele>
        <time>2015-06-25T06:44:38Z</time>
      </trkpt>
      <trkpt lat="44.63566" lon="5.65389">
        <ele>1189.77</ele>
        <time>2015-06-25T06:44:53Z</time>
      </trkpt>
      <trkpt lat="44.63568" lon="5.65388">
        <ele>1190.25</ele>
        <time>2015-06-25T06:44:56Z</time>
      </trkpt>
      <trkpt lat="44.63578" lon="5.65376">
        <ele>1191.69</ele>
        <time>2015-06-25T06:45:10Z</time>
      </trkpt>
      <trkpt lat="44.63586" lon="5.65367">
        <ele>1192.65</ele>
        <time>2015-06-25T06:45:23Z</time>
      </trkpt>
      <trkpt lat="44.63596" lon="5.65359">
        <ele>1194.09</ele>
        <time>2015-06-25T06:45:39Z</time>
      </trkpt>
      <trkpt lat="44.63599" lon="5.65357">
        <ele>1194.58</ele>
        <time>2015-06-25T06:45:44Z</time>
      </trkpt>
      <trkpt lat="44.63609" lon="5.65352">
        <ele>1196.02</ele>
        <time>2015-06-25T06:45:58Z</time>
      </trkpt>
      <trkpt lat="44.63618" lon="5.65347">
        <ele>1197.46</ele>
        <time>2015-06-25T06:46:11Z</time>
      </trkpt>
      <trkpt lat="44.63627" lon="5.6534">
        <ele>1198.9</ele>
        <time>2015-06-25T06:46:24Z</time>
      </trkpt>
      <trkpt lat="44.6363" lon="5.65336">
        <ele>1199.38</ele>
        <time>2015-06-25T06:46:30Z</time>
      </trkpt>
      <trkpt lat="44.63639" lon="5.65325">
        <ele>1201.3</ele>
        <time>2015-06-25T06:46:46Z</time>
      </trkpt>
      <trkpt lat="44.63649" lon="5.65317">
        <ele>1203.23</ele>
        <time>2015-06-25T06:47:01Z</time>
      </trkpt>
      <trkpt lat="44.63656" lon="5.65311">
        <ele>1204.67</ele>
        <time>2015-06-25T06:47:13Z</time>
      </trkpt>
      <trkpt lat="44.63665" lon="5.65302">
        <ele>1206.11</ele>
        <time>2015-06-25T06:47:27Z</time>
      </trkpt>
      <trkpt lat="44.63674" lon="5.65293">
        <ele>1207.55</ele>
        <time>2015-06-25T06:47:43Z</time>
      </trkpt>
      <trkpt lat="44.63682" lon="5.65283">
        <ele>1208.51</ele>
        <time>2015-06-25T06:47:56Z</time>
      </trkpt>
      <trkpt lat="44.63692" lon="5.65274">
        <ele>1209.96</ele>
        <time>2015-06-25T06:48:11Z</time>
      </trkpt>
      <trkpt lat="44.63701" lon="5.65264">
        <ele>1211.88</ele>
        <time>2015-06-25T06:48:27Z</time>
      </trkpt>
      <trkpt lat="44.63712" lon="5.65254">
        <ele>1213.8</ele>
        <time>2015-06-25T06:48:44Z</time>
      </trkpt>
      <trkpt lat="44.6372" lon="5.65247">
        <ele>1215.24</ele>
        <time>2015-06-25T06:48:58Z</time>
      </trkpt>
      <trkpt lat="44.63729" lon="5.65243">
        <ele>1216.69</ele>
        <time>2015-06-25T06:49:11Z</time>
      </trkpt>
      <trkpt lat="44.63739" lon="5.65236">
        <ele>1218.61</ele>
        <time>2015-06-25T06:49:27Z</time>
      </trkpt>
      <trkpt lat="44.63748" lon="5.65232">
        <ele>1220.05</ele>
        <time>2015-06-25T06:49:40Z</time>
      </trkpt>
      <trkpt lat="44.63758" lon="5.65232">
        <ele>1221.49</ele>
        <time>2015-06-25T06:49:54Z</time>
      </trkpt>
      <trkpt lat="44.63767" lon="5.65241">
        <ele>1222.93</ele>
        <time>2015-06-25T06:50:09Z</time>
      </trkpt>
      <trkpt lat="44.63775" lon="5.65246">
        <ele>1222.45</ele>
        <time>2015-06-25T06:50:17Z</time>
      </trkpt>
      <trkpt lat="44.63783" lon="5.65253">
        <ele>1223.42</ele>
        <time>2015-06-25T06:50:29Z</time>
      </trkpt>
      <trkpt lat="44.63797" lon="5.65255">
        <ele>1224.38</ele>
        <time>2015-06-25T06:50:41Z</time>
      </trkpt>
      <trkpt lat="44.63808" lon="5.6525">
        <ele>1225.82</ele>
        <time>2015-06-25T06:50:56Z</time>
      </trkpt>
      <trkpt lat="44.63815" lon="5.6524">
        <ele>1227.26</ele>
        <time>2015-06-25T06:51:12Z</time>
      </trkpt>
      <trkpt lat="44.63815" lon="5.65237">
        <ele>1227.74</ele>
        <time>2015-06-25T06:51:31Z</time>
      </trkpt>
      <trkpt lat="44.63815" lon="5.65247">
        <ele>1226.78</ele>
        <time>2015-06-25T06:51:43Z</time>
      </trkpt>
      <trkpt lat="44.63824" lon="5.65252">
        <ele>1227.26</ele>
        <time>2015-06-25T06:52:01Z</time>
      </trkpt>
      <trkpt lat="44.63839" lon="5.65249">
        <ele>1227.26</ele>
        <time>2015-06-25T06:52:25Z</time>
      </trkpt>
      <trkpt lat="44.63817" lon="5.65247">
        <ele>1226.3</ele>
        <time>2015-06-25T06:52:44Z</time>
      </trkpt>
      <trkpt lat="44.63815" lon="5.65237">
        <ele>1226.3</ele>
        <time>2015-06-25T06:53:02Z</time>
      </trkpt>
      <trkpt lat="44.63821" lon="5.65224">
        <ele>1228.22</ele>
        <time>2015-06-25T06:53:17Z</time>
      </trkpt>
      <trkpt lat="44.63825" lon="5.65217">
        <ele>1229.66</ele>
        <time>2015-06-25T06:53:25Z</time>
      </trkpt>
      <trkpt lat="44.63834" lon="5.65203">
        <ele>1232.07</ele>
        <time>2015-06-25T06:53:40Z</time>
      </trkpt>
      <trkpt lat="44.63841" lon="5.6519">
        <ele>1233.51</ele>
        <time>2015-06-25T06:53:54Z</time>
      </trkpt>
      <trkpt lat="44.63845" lon="5.65179">
        <ele>1234.95</ele>
        <time>2015-06-25T06:54:06Z</time>
      </trkpt>
      <trkpt lat="44.63851" lon="5.65168">
        <ele>1237.35</ele>
        <time>2015-06-25T06:54:21Z</time>
      </trkpt>
      <trkpt lat="44.63856" lon="5.65155">
        <ele>1238.8</ele>
        <time>2015-06-25T06:54:39Z</time>
      </trkpt>
      <trkpt lat="44.63865" lon="5.65144">
        <ele>1240.24</ele>
        <time>2015-06-25T06:54:54Z</time>
      </trkpt>
      <trkpt lat="44.63871" lon="5.65132">
        <ele>1242.16</ele>
        <time>2015-06-25T06:55:10Z</time>
      </trkpt>
      <trkpt lat="44.63879" lon="5.65122">
        <ele>1244.08</ele>
        <time>2015-06-25T06:55:25Z</time>
      </trkpt>
      <trkpt lat="44.63886" lon="5.65107">
        <ele>1246.49</ele>
        <time>2015-06-25T06:55:42Z</time>
      </trkpt>
      <trkpt lat="44.6389" lon="5.65092">
        <ele>1247.93</ele>
        <time>2015-06-25T06:55:57Z</time>
      </trkpt>
      <trkpt lat="44.63898" lon="5.65082">
        <ele>1249.85</ele>
        <time>2015-06-25T06:56:11Z</time>
      </trkpt>
      <trkpt lat="44.63907" lon="5.65072">
        <ele>1251.77</ele>
        <time>2015-06-25T06:56:28Z</time>
      </trkpt>
      <trkpt lat="44.63918" lon="5.65063">
        <ele>1253.22</ele>
        <time>2015-06-25T06:56:44Z</time>
      </trkpt>
      <trkpt lat="44.63922" lon="5.65056">
        <ele>1254.66</ele>
        <time>2015-06-25T06:56:58Z</time>
      </trkpt>
      <trkpt lat="44.63913" lon="5.65049">
        <ele>1253.7</ele>
        <time>2015-06-25T06:57:12Z</time>
      </trkpt>
      <trkpt lat="44.63917" lon="5.65036">
        <ele>1255.14</ele>
        <time>2015-06-25T06:57:26Z</time>
      </trkpt>
      <trkpt lat="44.63927" lon="5.65029">
        <ele>1256.58</ele>
        <time>2015-06-25T06:57:40Z</time>
      </trkpt>
      <trkpt lat="44.63935" lon="5.65022">
        <ele>1258.02</ele>
        <time>2015-06-25T06:57:52Z</time>
      </trkpt>
      <trkpt lat="44.63943" lon="5.65014">
        <ele>1259.94</ele>
        <time>2015-06-25T06:58:06Z</time>
      </trkpt>
      <trkpt lat="44.63952" lon="5.65006">
        <ele>1261.39</ele>
        <time>2015-06-25T06:58:21Z</time>
      </trkpt>
      <trkpt lat="44.63956" lon="5.65">
        <ele>1262.35</ele>
        <time>2015-06-25T06:58:33Z</time>
      </trkpt>
      <trkpt lat="44.63955" lon="5.64998">
        <ele>1262.35</ele>
        <time>2015-06-25T06:58:39Z</time>
      </trkpt>
      <trkpt lat="44.63951" lon="5.64984">
        <ele>1262.83</ele>
        <time>2015-06-25T06:58:50Z</time>
      </trkpt>
      <trkpt lat="44.6395" lon="5.64978">
        <ele>1262.35</ele>
        <time>2015-06-25T06:58:56Z</time>
      </trkpt>
      <trkpt lat="44.6395" lon="5.64967">
        <ele>1262.83</ele>
        <time>2015-06-25T06:59:08Z</time>
      </trkpt>
      <trkpt lat="44.63948" lon="5.64944">
        <ele>1262.83</ele>
        <time>2015-06-25T06:59:23Z</time>
      </trkpt>
      <trkpt lat="44.63943" lon="5.6493">
        <ele>1262.83</ele>
        <time>2015-06-25T06:59:34Z</time>
      </trkpt>
      <trkpt lat="44.63938" lon="5.6491">
        <ele>1262.35</ele>
        <time>2015-06-25T06:59:49Z</time>
      </trkpt>
      <trkpt lat="44.6393" lon="5.64895">
        <ele>1261.39</ele>
        <time>2015-06-25T07:00:04Z</time>
      </trkpt>
      <trkpt lat="44.63923" lon="5.6488">
        <ele>1260.43</ele>
        <time>2015-06-25T07:00:21Z</time>
      </trkpt>
      <trkpt lat="44.63921" lon="5.64873">
        <ele>1259.94</ele>
        <time>2015-06-25T07:00:34Z</time>
      </trkpt>
      <trkpt lat="44.63915" lon="5.64867">
        <ele>1259.94</ele>
        <time>2015-06-25T07:00:49Z</time>
      </trkpt>
      <trkpt lat="44.63911" lon="5.64859">
        <ele>1258.98</ele>
        <time>2015-06-25T07:01:03Z</time>
      </trkpt>
      <trkpt lat="44.63907" lon="5.64849">
        <ele>1257.06</ele>
        <time>2015-06-25T07:01:16Z</time>
      </trkpt>
      <trkpt lat="44.63906" lon="5.64838">
        <ele>1257.06</ele>
        <time>2015-06-25T07:01:28Z</time>
      </trkpt>
      <trkpt lat="44.63907" lon="5.64832">
        <ele>1257.54</ele>
        <time>2015-06-25T07:01:46Z</time>
      </trkpt>
      <trkpt lat="44.6391" lon="5.64824">
        <ele>1258.02</ele>
        <time>2015-06-25T07:02:02Z</time>
      </trkpt>
      <trkpt lat="44.63909" lon="5.64822">
        <ele>1257.54</ele>
        <time>2015-06-25T07:02:23Z</time>
      </trkpt>
      <trkpt lat="44.63911" lon="5.64817">
        <ele>1257.54</ele>
        <time>2015-06-25T07:02:39Z</time>
      </trkpt>
      <trkpt lat="44.63912" lon="5.64811">
        <ele>1257.06</ele>
        <time>2015-06-25T07:02:51Z</time>
      </trkpt>
      <trkpt lat="44.63915" lon="5.64803">
        <ele>1256.58</ele>
        <time>2015-06-25T07:03:02Z</time>
      </trkpt>
      <trkpt lat="44.6392" lon="5.64803">
        <ele>1257.06</ele>
        <time>2015-06-25T07:03:19Z</time>
      </trkpt>
      <trkpt lat="44.63923" lon="5.64802">
        <ele>1257.06</ele>
        <time>2015-06-25T07:03:31Z</time>
      </trkpt>
      <trkpt lat="44.63926" lon="5.64797">
        <ele>1258.98</ele>
        <time>2015-06-25T07:03:44Z</time>
      </trkpt>
      <trkpt lat="44.63925" lon="5.64799">
        <ele>1258.98</ele>
        <time>2015-06-25T07:03:56Z</time>
      </trkpt>
      <trkpt lat="44.63923" lon="5.648">
        <ele>1258.98</ele>
        <time>2015-06-25T07:04:01Z</time>
      </trkpt>
      <trkpt lat="44.63917" lon="5.64798">
        <ele>1258.02</ele>
        <time>2015-06-25T07:04:06Z</time>
      </trkpt>
      <trkpt lat="44.63912" lon="5.64787">
        <ele>1257.54</ele>
        <time>2015-06-25T07:04:18Z</time>
      </trkpt>
      <trkpt lat="44.63912" lon="5.64774">
        <ele>1258.02</ele>
        <time>2015-06-25T07:04:31Z</time>
      </trkpt>
      <trkpt lat="44.63915" lon="5.64761">
        <ele>1258.02</ele>
        <time>2015-06-25T07:04:46Z</time>
      </trkpt>
      <trkpt lat="44.63913" lon="5.64751">
        <ele>1257.06</ele>
        <time>2015-06-25T07:05:01Z</time>
      </trkpt>
      <trkpt lat="44.63908" lon="5.64746">
        <ele>1256.58</ele>
        <time>2015-06-25T07:05:13Z</time>
      </trkpt>
      <trkpt lat="44.63908" lon="5.64736">
        <ele>1254.18</ele>
        <time>2015-06-25T07:05:26Z</time>
      </trkpt>
      <trkpt lat="44.63908" lon="5.64724">
        <ele>1254.18</ele>
        <time>2015-06-25T07:05:38Z</time>
      </trkpt>
      <trkpt lat="44.63905" lon="5.64712">
        <ele>1253.22</ele>
        <time>2015-06-25T07:05:48Z</time>
      </trkpt>
      <trkpt lat="44.63899" lon="5.64699">
        <ele>1252.25</ele>
        <time>2015-06-25T07:06:02Z</time>
      </trkpt>
      <trkpt lat="44.63896" lon="5.64686">
        <ele>1252.74</ele>
        <time>2015-06-25T07:06:14Z</time>
      </trkpt>
      <trkpt lat="44.63893" lon="5.6467">
        <ele>1253.7</ele>
        <time>2015-06-25T07:06:29Z</time>
      </trkpt>
      <trkpt lat="44.63894" lon="5.64661">
        <ele>1253.22</ele>
        <time>2015-06-25T07:06:43Z</time>
      </trkpt>
      <trkpt lat="44.63892" lon="5.64649">
        <ele>1253.22</ele>
        <time>2015-06-25T07:06:57Z</time>
      </trkpt>
      <trkpt lat="44.63895" lon="5.64641">
        <ele>1255.14</ele>
        <time>2015-06-25T07:07:11Z</time>
      </trkpt>
      <trkpt lat="44.63899" lon="5.6463">
        <ele>1257.54</ele>
        <time>2015-06-25T07:07:27Z</time>
      </trkpt>
      <trkpt lat="44.63905" lon="5.64623">
        <ele>1259.46</ele>
        <time>2015-06-25T07:07:42Z</time>
      </trkpt>
      <trkpt lat="44.63909" lon="5.64608">
        <ele>1261.39</ele>
        <time>2015-06-25T07:08:00Z</time>
      </trkpt>
      <trkpt lat="44.63911" lon="5.64595">
        <ele>1263.79</ele>
        <time>2015-06-25T07:08:17Z</time>
      </trkpt>
      <trkpt lat="44.63912" lon="5.64584">
        <ele>1265.23</ele>
        <time>2015-06-25T07:08:32Z</time>
      </trkpt>
      <trkpt lat="44.63905" lon="5.64578">
        <ele>1268.12</ele>
        <time>2015-06-25T07:08:48Z</time>
      </trkpt>
      <trkpt lat="44.63904" lon="5.64571">
        <ele>1270.04</ele>
        <time>2015-06-25T07:09:06Z</time>
      </trkpt>
      <trkpt lat="44.63904" lon="5.64561">
        <ele>1272.92</ele>
        <time>2015-06-25T07:09:20Z</time>
      </trkpt>
      <trkpt lat="44.639" lon="5.64549">
        <ele>1276.29</ele>
        <time>2015-06-25T07:09:33Z</time>
      </trkpt>
      <trkpt lat="44.63893" lon="5.64541">
        <ele>1278.69</ele>
        <time>2015-06-25T07:09:50Z</time>
      </trkpt>
      <trkpt lat="44.63891" lon="5.64535">
        <ele>1280.61</ele>
        <time>2015-06-25T07:10:13Z</time>
      </trkpt>
      <trkpt lat="44.63884" lon="5.64532">
        <ele>1283.98</ele>
        <time>2015-06-25T07:10:33Z</time>
      </trkpt>
      <trkpt lat="44.63875" lon="5.64528">
        <ele>1285.9</ele>
        <time>2015-06-25T07:10:49Z</time>
      </trkpt>
      <trkpt lat="44.63864" lon="5.64528">
        <ele>1288.78</ele>
        <time>2015-06-25T07:11:06Z</time>
      </trkpt>
      <trkpt lat="44.63855" lon="5.64523">
        <ele>1291.19</ele>
        <time>2015-06-25T07:11:23Z</time>
      </trkpt>
      <trkpt lat="44.63845" lon="5.64512">
        <ele>1293.59</ele>
        <time>2015-06-25T07:11:42Z</time>
      </trkpt>
      <trkpt lat="44.63845" lon="5.64509">
        <ele>1296.96</ele>
        <time>2015-06-25T07:11:59Z</time>
      </trkpt>
      <trkpt lat="44.63849" lon="5.645">
        <ele>1298.4</ele>
        <time>2015-06-25T07:12:13Z</time>
      </trkpt>
      <trkpt lat="44.63853" lon="5.64494">
        <ele>1301.76</ele>
        <time>2015-06-25T07:12:31Z</time>
      </trkpt>
      <trkpt lat="44.63857" lon="5.64487">
        <ele>1304.17</ele>
        <time>2015-06-25T07:12:48Z</time>
      </trkpt>
      <trkpt lat="44.63863" lon="5.64485">
        <ele>1306.57</ele>
        <time>2015-06-25T07:13:05Z</time>
      </trkpt>
      <trkpt lat="44.63869" lon="5.64481">
        <ele>1309.45</ele>
        <time>2015-06-25T07:13:22Z</time>
      </trkpt>
      <trkpt lat="44.63875" lon="5.64475">
        <ele>1312.34</ele>
        <time>2015-06-25T07:13:40Z</time>
      </trkpt>
      <trkpt lat="44.63881" lon="5.64468">
        <ele>1314.74</ele>
        <time>2015-06-25T07:13:55Z</time>
      </trkpt>
      <trkpt lat="44.63888" lon="5.64463">
        <ele>1316.66</ele>
        <time>2015-06-25T07:14:10Z</time>
      </trkpt>
      <trkpt lat="44.63894" lon="5.64461">
        <ele>1320.03</ele>
        <time>2015-06-25T07:14:23Z</time>
      </trkpt>
      <trkpt lat="44.63901" lon="5.64456">
        <ele>1321.47</ele>
        <time>2015-06-25T07:14:40Z</time>
      </trkpt>
      <trkpt lat="44.6391" lon="5.64454">
        <ele>1324.35</ele>
        <time>2015-06-25T07:14:56Z</time>
      </trkpt>
      <trkpt lat="44.63918" lon="5.64449">
        <ele>1327.24</ele>
        <time>2015-06-25T07:15:12Z</time>
      </trkpt>
      <trkpt lat="44.63928" lon="5.64452">
        <ele>1328.68</ele>
        <time>2015-06-25T07:15:27Z</time>
      </trkpt>
      <trkpt lat="44.63935" lon="5.64455">
        <ele>1328.68</ele>
        <time>2015-06-25T07:15:50Z</time>
      </trkpt>
      <trkpt lat="44.63933" lon="5.64457">
        <ele>1328.2</ele>
        <time>2015-06-25T07:16:16Z</time>
      </trkpt>
      <trkpt lat="44.63933" lon="5.64454">
        <ele>1328.2</ele>
        <time>2015-06-25T07:16:40Z</time>
      </trkpt>
      <trkpt lat="44.63935" lon="5.64454">
        <ele>1328.68</ele>
        <time>2015-06-25T07:17:00Z</time>
      </trkpt>
      <trkpt lat="44.63932" lon="5.64461">
        <ele>1328.68</ele>
        <time>2015-06-25T07:17:28Z</time>
      </trkpt>
      <trkpt lat="44.63927" lon="5.64464">
        <ele>1329.16</ele>
        <time>2015-06-25T07:17:54Z</time>
      </trkpt>
      <trkpt lat="44.63928" lon="5.64461">
        <ele>1328.68</ele>
        <time>2015-06-25T07:18:19Z</time>
      </trkpt>
      <trkpt lat="44.63934" lon="5.64457">
        <ele>1330.12</ele>
        <time>2015-06-25T07:18:45Z</time>
      </trkpt>
      <trkpt lat="44.63945" lon="5.64457">
        <ele>1332.04</ele>
        <time>2015-06-25T07:18:58Z</time>
      </trkpt>
      <trkpt lat="44.6395" lon="5.64459">
        <ele>1334.45</ele>
        <time>2015-06-25T07:19:14Z</time>
      </trkpt>
      <trkpt lat="44.63958" lon="5.64462">
        <ele>1337.81</ele>
        <time>2015-06-25T07:19:31Z</time>
      </trkpt>
      <trkpt lat="44.63964" lon="5.64459">
        <ele>1340.22</ele>
        <time>2015-06-25T07:19:44Z</time>
      </trkpt>
      <trkpt lat="44.63969" lon="5.64448">
        <ele>1342.62</ele>
        <time>2015-06-25T07:19:59Z</time>
      </trkpt>
      <trkpt lat="44.63974" lon="5.64439">
        <ele>1344.54</ele>
        <time>2015-06-25T07:20:13Z</time>
      </trkpt>
      <trkpt lat="44.63977" lon="5.64431">
        <ele>1346.94</ele>
        <time>2015-06-25T07:20:27Z</time>
      </trkpt>
      <trkpt lat="44.6398" lon="5.64416">
        <ele>1348.87</ele>
        <time>2015-06-25T07:20:44Z</time>
      </trkpt>
      <trkpt lat="44.63984" lon="5.64407">
        <ele>1351.27</ele>
        <time>2015-06-25T07:20:59Z</time>
      </trkpt>
      <trkpt lat="44.63985" lon="5.64398">
        <ele>1353.67</ele>
        <time>2015-06-25T07:21:13Z</time>
      </trkpt>
      <trkpt lat="44.63987" lon="5.64387">
        <ele>1356.08</ele>
        <time>2015-06-25T07:21:27Z</time>
      </trkpt>
      <trkpt lat="44.63994" lon="5.64377">
        <ele>1358</ele>
        <time>2015-06-25T07:21:41Z</time>
      </trkpt>
      <trkpt lat="44.64003" lon="5.64365">
        <ele>1360.4</ele>
        <time>2015-06-25T07:22:00Z</time>
      </trkpt>
      <trkpt lat="44.64011" lon="5.6436">
        <ele>1362.81</ele>
        <time>2015-06-25T07:22:15Z</time>
      </trkpt>
      <trkpt lat="44.6402" lon="5.64362">
        <ele>1365.21</ele>
        <time>2015-06-25T07:22:33Z</time>
      </trkpt>
      <trkpt lat="44.64027" lon="5.64364">
        <ele>1367.13</ele>
        <time>2015-06-25T07:22:49Z</time>
      </trkpt>
      <trkpt lat="44.64032" lon="5.64372">
        <ele>1369.54</ele>
        <time>2015-06-25T07:23:05Z</time>
      </trkpt>
      <trkpt lat="44.64041" lon="5.64371">
        <ele>1372.42</ele>
        <time>2015-06-25T07:23:24Z</time>
      </trkpt>
      <trkpt lat="44.64047" lon="5.64368">
        <ele>1375.3</ele>
        <time>2015-06-25T07:23:39Z</time>
      </trkpt>
      <trkpt lat="44.64051" lon="5.64363">
        <ele>1377.71</ele>
        <time>2015-06-25T07:23:56Z</time>
      </trkpt>
      <trkpt lat="44.64058" lon="5.64353">
        <ele>1380.11</ele>
        <time>2015-06-25T07:24:12Z</time>
      </trkpt>
      <trkpt lat="44.64064" lon="5.64345">
        <ele>1381.55</ele>
        <time>2015-06-25T07:24:25Z</time>
      </trkpt>
      <trkpt lat="44.6406" lon="5.64336">
        <ele>1384.44</ele>
        <time>2015-06-25T07:24:44Z</time>
      </trkpt>
      <trkpt lat="44.64052" lon="5.64328">
        <ele>1386.84</ele>
        <time>2015-06-25T07:25:02Z</time>
      </trkpt>
      <trkpt lat="44.64056" lon="5.64318">
        <ele>1389.24</ele>
        <time>2015-06-25T07:25:18Z</time>
      </trkpt>
      <trkpt lat="44.64063" lon="5.64304">
        <ele>1391.17</ele>
        <time>2015-06-25T07:25:34Z</time>
      </trkpt>
      <trkpt lat="44.64069" lon="5.6429">
        <ele>1393.57</ele>
        <time>2015-06-25T07:25:51Z</time>
      </trkpt>
      <trkpt lat="44.64075" lon="5.64275">
        <ele>1395.97</ele>
        <time>2015-06-25T07:26:08Z</time>
      </trkpt>
      <trkpt lat="44.64076" lon="5.64258">
        <ele>1397.89</ele>
        <time>2015-06-25T07:26:24Z</time>
      </trkpt>
      <trkpt lat="44.64076" lon="5.64241">
        <ele>1399.82</ele>
        <time>2015-06-25T07:26:42Z</time>
      </trkpt>
      <trkpt lat="44.64075" lon="5.64227">
        <ele>1401.74</ele>
        <time>2015-06-25T07:27:00Z</time>
      </trkpt>
      <trkpt lat="44.64076" lon="5.64211">
        <ele>1403.18</ele>
        <time>2015-06-25T07:27:16Z</time>
      </trkpt>
      <trkpt lat="44.64075" lon="5.64198">
        <ele>1405.1</ele>
        <time>2015-06-25T07:27:29Z</time>
      </trkpt>
      <trkpt lat="44.64074" lon="5.64188">
        <ele>1406.55</ele>
        <time>2015-06-25T07:27:45Z</time>
      </trkpt>
      <trkpt lat="44.64076" lon="5.64175">
        <ele>1408.47</ele>
        <time>2015-06-25T07:28:02Z</time>
      </trkpt>
      <trkpt lat="44.64073" lon="5.64167">
        <ele>1410.87</ele>
        <time>2015-06-25T07:28:16Z</time>
      </trkpt>
      <trkpt lat="44.64075" lon="5.64154">
        <ele>1412.79</ele>
        <time>2015-06-25T07:28:31Z</time>
      </trkpt>
      <trkpt lat="44.64074" lon="5.64137">
        <ele>1414.72</ele>
        <time>2015-06-25T07:28:49Z</time>
      </trkpt>
      <trkpt lat="44.64078" lon="5.64132">
        <ele>1414.72</ele>
        <time>2015-06-25T07:29:07Z</time>
      </trkpt>
      <trkpt lat="44.64075" lon="5.64129">
        <ele>1414.72</ele>
        <time>2015-06-25T07:29:26Z</time>
      </trkpt>
      <trkpt lat="44.64076" lon="5.64125">
        <ele>1415.2</ele>
        <time>2015-06-25T07:29:50Z</time>
      </trkpt>
      <trkpt lat="44.64078" lon="5.64125">
        <ele>1415.2</ele>
        <time>2015-06-25T07:30:04Z</time>
      </trkpt>
      <trkpt lat="44.64075" lon="5.6413">
        <ele>1415.2</ele>
        <time>2015-06-25T07:30:32Z</time>
      </trkpt>
      <trkpt lat="44.64074" lon="5.64128">
        <ele>1415.2</ele>
        <time>2015-06-25T07:30:55Z</time>
      </trkpt>
      <trkpt lat="44.64074" lon="5.64132">
        <ele>1415.68</ele>
        <time>2015-06-25T07:31:28Z</time>
      </trkpt>
      <trkpt lat="44.64072" lon="5.64132">
        <ele>1415.68</ele>
        <time>2015-06-25T07:32:04Z</time>
      </trkpt>
      <trkpt lat="44.64075" lon="5.64132">
        <ele>1416.16</ele>
        <time>2015-06-25T07:32:40Z</time>
      </trkpt>
      <trkpt lat="44.6408" lon="5.64128">
        <ele>1416.16</ele>
        <time>2015-06-25T07:33:06Z</time>
      </trkpt>
      <trkpt lat="44.64081" lon="5.64129">
        <ele>1416.64</ele>
        <time>2015-06-25T07:33:31Z</time>
      </trkpt>
      <trkpt lat="44.6408" lon="5.64132">
        <ele>1416.64</ele>
        <time>2015-06-25T07:33:54Z</time>
      </trkpt>
      <trkpt lat="44.6408" lon="5.64131">
        <ele>1417.12</ele>
        <time>2015-06-25T07:34:20Z</time>
      </trkpt>
      <trkpt lat="44.64079" lon="5.64119">
        <ele>1417.12</ele>
        <time>2015-06-25T07:34:41Z</time>
      </trkpt>
      <trkpt lat="44.64084" lon="5.64119">
        <ele>1417.6</ele>
        <time>2015-06-25T07:35:01Z</time>
      </trkpt>
      <trkpt lat="44.64089" lon="5.64115">
        <ele>1418.08</ele>
        <time>2015-06-25T07:35:14Z</time>
      </trkpt>
      <trkpt lat="44.64099" lon="5.64111">
        <ele>1419.04</ele>
        <time>2015-06-25T07:35:34Z</time>
      </trkpt>
      <trkpt lat="44.64111" lon="5.64105">
        <ele>1420.49</ele>
        <time>2015-06-25T07:35:53Z</time>
      </trkpt>
      <trkpt lat="44.64121" lon="5.64099">
        <ele>1420.49</ele>
        <time>2015-06-25T07:36:11Z</time>
      </trkpt>
      <trkpt lat="44.64133" lon="5.64088">
        <ele>1421.45</ele>
        <time>2015-06-25T07:36:29Z</time>
      </trkpt>
      <trkpt lat="44.64141" lon="5.64078">
        <ele>1422.89</ele>
        <time>2015-06-25T07:36:48Z</time>
      </trkpt>
      <trkpt lat="44.64147" lon="5.6408">
        <ele>1426.25</ele>
        <time>2015-06-25T07:37:07Z</time>
      </trkpt>
      <trkpt lat="44.64153" lon="5.64083">
        <ele>1428.18</ele>
        <time>2015-06-25T07:37:22Z</time>
      </trkpt>
      <trkpt lat="44.64159" lon="5.64091">
        <ele>1431.06</ele>
        <time>2015-06-25T07:37:41Z</time>
      </trkpt>
      <trkpt lat="44.64167" lon="5.64091">
        <ele>1433.94</ele>
        <time>2015-06-25T07:37:58Z</time>
      </trkpt>
      <trkpt lat="44.64172" lon="5.64092">
        <ele>1436.83</ele>
        <time>2015-06-25T07:38:16Z</time>
      </trkpt>
      <trkpt lat="44.64179" lon="5.64093">
        <ele>1439.71</ele>
        <time>2015-06-25T07:38:34Z</time>
      </trkpt>
      <trkpt lat="44.64185" lon="5.64095">
        <ele>1442.6</ele>
        <time>2015-06-25T07:38:54Z</time>
      </trkpt>
      <trkpt lat="44.6419" lon="5.64102">
        <ele>1445.96</ele>
        <time>2015-06-25T07:39:14Z</time>
      </trkpt>
      <trkpt lat="44.64197" lon="5.64104">
        <ele>1448.84</ele>
        <time>2015-06-25T07:39:33Z</time>
      </trkpt>
      <trkpt lat="44.64202" lon="5.64108">
        <ele>1451.73</ele>
        <time>2015-06-25T07:39:52Z</time>
      </trkpt>
      <trkpt lat="44.64211" lon="5.64113">
        <ele>1454.61</ele>
        <time>2015-06-25T07:40:10Z</time>
      </trkpt>
      <trkpt lat="44.64219" lon="5.64112">
        <ele>1456.53</ele>
        <time>2015-06-25T07:40:24Z</time>
      </trkpt>
      <trkpt lat="44.64224" lon="5.64114">
        <ele>1458.94</ele>
        <time>2015-06-25T07:40:40Z</time>
      </trkpt>
      <trkpt lat="44.64231" lon="5.64116">
        <ele>1461.82</ele>
        <time>2015-06-25T07:41:00Z</time>
      </trkpt>
      <trkpt lat="44.64238" lon="5.64121">
        <ele>1464.23</ele>
        <time>2015-06-25T07:41:14Z</time>
      </trkpt>
      <trkpt lat="44.64247" lon="5.64122">
        <ele>1466.63</ele>
        <time>2015-06-25T07:41:33Z</time>
      </trkpt>
      <trkpt lat="44.64254" lon="5.6412">
        <ele>1469.51</ele>
        <time>2015-06-25T07:41:53Z</time>
      </trkpt>
      <trkpt lat="44.64263" lon="5.64126">
        <ele>1471.92</ele>
        <time>2015-06-25T07:42:10Z</time>
      </trkpt>
      <trkpt lat="44.64271" lon="5.64127">
        <ele>1475.28</ele>
        <time>2015-06-25T07:42:29Z</time>
      </trkpt>
      <trkpt lat="44.64272" lon="5.64125">
        <ele>1476.24</ele>
        <time>2015-06-25T07:42:51Z</time>
      </trkpt>
      <trkpt lat="44.6427" lon="5.64123">
        <ele>1476.72</ele>
        <time>2015-06-25T07:43:24Z</time>
      </trkpt>
      <trkpt lat="44.64269" lon="5.6412">
        <ele>1476.72</ele>
        <time>2015-06-25T07:43:58Z</time>
      </trkpt>
      <trkpt lat="44.64269" lon="5.64118">
        <ele>1477.68</ele>
        <time>2015-06-25T07:44:29Z</time>
      </trkpt>
      <trkpt lat="44.64273" lon="5.64121">
        <ele>1476.72</ele>
        <time>2015-06-25T07:44:58Z</time>
      </trkpt>
      <trkpt lat="44.64273" lon="5.64121">
        <ele>1477.2</ele>
        <time>2015-06-25T07:45:33Z</time>
      </trkpt>
      <trkpt lat="44.64284" lon="5.64121">
        <ele>1480.57</ele>
        <time>2015-06-25T07:45:53Z</time>
      </trkpt>
      <trkpt lat="44.64291" lon="5.64117">
        <ele>1483.45</ele>
        <time>2015-06-25T07:46:10Z</time>
      </trkpt>
      <trkpt lat="44.643" lon="5.64114">
        <ele>1487.78</ele>
        <time>2015-06-25T07:46:30Z</time>
      </trkpt>
      <trkpt lat="44.64304" lon="5.64108">
        <ele>1489.22</ele>
        <time>2015-06-25T07:46:47Z</time>
      </trkpt>
      <trkpt lat="44.64311" lon="5.64112">
        <ele>1492.1</ele>
        <time>2015-06-25T07:47:04Z</time>
      </trkpt>
      <trkpt lat="44.64315" lon="5.64106">
        <ele>1494.51</ele>
        <time>2015-06-25T07:47:22Z</time>
      </trkpt>
      <trkpt lat="44.64322" lon="5.64098">
        <ele>1497.39</ele>
        <time>2015-06-25T07:47:42Z</time>
      </trkpt>
      <trkpt lat="44.64326" lon="5.64091">
        <ele>1500.27</ele>
        <time>2015-06-25T07:48:01Z</time>
      </trkpt>
      <trkpt lat="44.64336" lon="5.64089">
        <ele>1503.16</ele>
        <time>2015-06-25T07:48:20Z</time>
      </trkpt>
      <trkpt lat="44.6434" lon="5.64086">
        <ele>1505.56</ele>
        <time>2015-06-25T07:48:41Z</time>
      </trkpt>
      <trkpt lat="44.64346" lon="5.64091">
        <ele>1508.45</ele>
        <time>2015-06-25T07:48:56Z</time>
      </trkpt>
      <trkpt lat="44.64353" lon="5.64093">
        <ele>1511.33</ele>
        <time>2015-06-25T07:49:14Z</time>
      </trkpt>
      <trkpt lat="44.64355" lon="5.64084">
        <ele>1514.21</ele>
        <time>2015-06-25T07:49:33Z</time>
      </trkpt>
      <trkpt lat="44.64356" lon="5.64076">
        <ele>1517.1</ele>
        <time>2015-06-25T07:49:51Z</time>
      </trkpt>
      <trkpt lat="44.64363" lon="5.64073">
        <ele>1519.98</ele>
        <time>2015-06-25T07:50:13Z</time>
      </trkpt>
      <trkpt lat="44.64369" lon="5.64076">
        <ele>1523.83</ele>
        <time>2015-06-25T07:50:32Z</time>
      </trkpt>
      <trkpt lat="44.64373" lon="5.64068">
        <ele>1524.79</ele>
        <time>2015-06-25T07:50:50Z</time>
      </trkpt>
      <trkpt lat="44.6438" lon="5.64065">
        <ele>1528.15</ele>
        <time>2015-06-25T07:51:09Z</time>
      </trkpt>
      <trkpt lat="44.64386" lon="5.64064">
        <ele>1531.04</ele>
        <time>2015-06-25T07:51:30Z</time>
      </trkpt>
      <trkpt lat="44.64391" lon="5.64059">
        <ele>1533.92</ele>
        <time>2015-06-25T07:51:48Z</time>
      </trkpt>
      <trkpt lat="44.64394" lon="5.64058">
        <ele>1536.32</ele>
        <time>2015-06-25T07:52:03Z</time>
      </trkpt>
      <trkpt lat="44.644" lon="5.64061">
        <ele>1538.25</ele>
        <time>2015-06-25T07:52:20Z</time>
      </trkpt>
      <trkpt lat="44.64403" lon="5.64058">
        <ele>1541.61</ele>
        <time>2015-06-25T07:52:33Z</time>
      </trkpt>
      <trkpt lat="44.64408" lon="5.64058">
        <ele>1542.57</ele>
        <time>2015-06-25T07:52:48Z</time>
      </trkpt>
      <trkpt lat="44.64411" lon="5.64059">
        <ele>1544.98</ele>
        <time>2015-06-25T07:53:02Z</time>
      </trkpt>
      <trkpt lat="44.64416" lon="5.64056">
        <ele>1547.38</ele>
        <time>2015-06-25T07:53:20Z</time>
      </trkpt>
      <trkpt lat="44.6442" lon="5.64054">
        <ele>1549.3</ele>
        <time>2015-06-25T07:53:39Z</time>
      </trkpt>
      <trkpt lat="44.64421" lon="5.64055">
        <ele>1550.74</ele>
        <time>2015-06-25T07:53:54Z</time>
      </trkpt>
      <trkpt lat="44.6442" lon="5.64057">
        <ele>1550.74</ele>
        <time>2015-06-25T07:54:13Z</time>
      </trkpt>
      <trkpt lat="44.64422" lon="5.64053">
        <ele>1550.74</ele>
        <time>2015-06-25T07:54:31Z</time>
      </trkpt>
      <trkpt lat="44.64421" lon="5.64052">
        <ele>1551.22</ele>
        <time>2015-06-25T07:54:50Z</time>
      </trkpt>
      <trkpt lat="44.64422" lon="5.64055">
        <ele>1551.22</ele>
        <time>2015-06-25T07:55:06Z</time>
      </trkpt>
      <trkpt lat="44.64421" lon="5.64055">
        <ele>1551.22</ele>
        <time>2015-06-25T07:55:39Z</time>
      </trkpt>
      <trkpt lat="44.6442" lon="5.64052">
        <ele>1551.71</ele>
        <time>2015-06-25T07:55:58Z</time>
      </trkpt>
      <trkpt lat="44.64419" lon="5.64051">
        <ele>1551.71</ele>
        <time>2015-06-25T07:56:21Z</time>
      </trkpt>
      <trkpt lat="44.64422" lon="5.64054">
        <ele>1551.71</ele>
        <time>2015-06-25T07:56:56Z</time>
      </trkpt>
      <trkpt lat="44.6442" lon="5.64051">
        <ele>1552.19</ele>
        <time>2015-06-25T07:57:25Z</time>
      </trkpt>
      <trkpt lat="44.64421" lon="5.6405">
        <ele>1552.19</ele>
        <time>2015-06-25T07:57:54Z</time>
      </trkpt>
      <trkpt lat="44.6442" lon="5.64052">
        <ele>1552.19</ele>
        <time>2015-06-25T07:58:22Z</time>
      </trkpt>
      <trkpt lat="44.64423" lon="5.64053">
        <ele>1552.67</ele>
        <time>2015-06-25T07:58:48Z</time>
      </trkpt>
      <trkpt lat="44.64427" lon="5.64051">
        <ele>1555.07</ele>
        <time>2015-06-25T07:59:03Z</time>
      </trkpt>
      <trkpt lat="44.64431" lon="5.64048">
        <ele>1556.99</ele>
        <time>2015-06-25T07:59:17Z</time>
      </trkpt>
      <trkpt lat="44.64434" lon="5.64047">
        <ele>1559.4</ele>
        <time>2015-06-25T07:59:32Z</time>
      </trkpt>
      <trkpt lat="44.64438" lon="5.64044">
        <ele>1561.8</ele>
        <time>2015-06-25T07:59:49Z</time>
      </trkpt>
      <trkpt lat="44.64443" lon="5.64044">
        <ele>1564.68</ele>
        <time>2015-06-25T08:00:04Z</time>
      </trkpt>
      <trkpt lat="44.64447" lon="5.6404">
        <ele>1567.09</ele>
        <time>2015-06-25T08:00:20Z</time>
      </trkpt>
      <trkpt lat="44.64452" lon="5.6404">
        <ele>1570.93</ele>
        <time>2015-06-25T08:00:37Z</time>
      </trkpt>
      <trkpt lat="44.64456" lon="5.6404">
        <ele>1571.89</ele>
        <time>2015-06-25T08:00:50Z</time>
      </trkpt>
      <trkpt lat="44.64459" lon="5.6404">
        <ele>1573.82</ele>
        <time>2015-06-25T08:01:05Z</time>
      </trkpt>
      <trkpt lat="44.64465" lon="5.64036">
        <ele>1576.22</ele>
        <time>2015-06-25T08:01:22Z</time>
      </trkpt>
      <trkpt lat="44.64469" lon="5.64038">
        <ele>1578.62</ele>
        <time>2015-06-25T08:01:37Z</time>
      </trkpt>
      <trkpt lat="44.64473" lon="5.64036">
        <ele>1581.03</ele>
        <time>2015-06-25T08:01:54Z</time>
      </trkpt>
      <trkpt lat="44.64478" lon="5.64033">
        <ele>1583.43</ele>
        <time>2015-06-25T08:02:08Z</time>
      </trkpt>
      <trkpt lat="44.64482" lon="5.6403">
        <ele>1585.83</ele>
        <time>2015-06-25T08:02:24Z</time>
      </trkpt>
      <trkpt lat="44.64487" lon="5.64029">
        <ele>1588.72</ele>
        <time>2015-06-25T08:02:43Z</time>
      </trkpt>
      <trkpt lat="44.64491" lon="5.6403">
        <ele>1591.12</ele>
        <time>2015-06-25T08:02:57Z</time>
      </trkpt>
      <trkpt lat="44.64497" lon="5.64028">
        <ele>1593.04</ele>
        <time>2015-06-25T08:03:12Z</time>
      </trkpt>
      <trkpt lat="44.64502" lon="5.64032">
        <ele>1595.93</ele>
        <time>2015-06-25T08:03:28Z</time>
      </trkpt>
      <trkpt lat="44.64507" lon="5.64031">
        <ele>1597.85</ele>
        <time>2015-06-25T08:03:42Z</time>
      </trkpt>
      <trkpt lat="44.64511" lon="5.64034">
        <ele>1599.29</ele>
        <time>2015-06-25T08:03:54Z</time>
      </trkpt>
      <trkpt lat="44.64516" lon="5.64031">
        <ele>1602.17</ele>
        <time>2015-06-25T08:04:11Z</time>
      </trkpt>
      <trkpt lat="44.64521" lon="5.6403">
        <ele>1604.58</ele>
        <time>2015-06-25T08:04:27Z</time>
      </trkpt>
      <trkpt lat="44.64527" lon="5.64029">
        <ele>1606.5</ele>
        <time>2015-06-25T08:04:43Z</time>
      </trkpt>
      <trkpt lat="44.64525" lon="5.64037">
        <ele>1607.94</ele>
        <time>2015-06-25T08:04:56Z</time>
      </trkpt>
      <trkpt lat="44.6453" lon="5.64038">
        <ele>1609.86</ele>
        <time>2015-06-25T08:05:08Z</time>
      </trkpt>
      <trkpt lat="44.64535" lon="5.64037">
        <ele>1611.79</ele>
        <time>2015-06-25T08:05:22Z</time>
      </trkpt>
      <trkpt lat="44.64538" lon="5.6404">
        <ele>1613.71</ele>
        <time>2015-06-25T08:05:35Z</time>
      </trkpt>
      <trkpt lat="44.64541" lon="5.64037">
        <ele>1616.11</ele>
        <time>2015-06-25T08:05:51Z</time>
      </trkpt>
      <trkpt lat="44.64547" lon="5.6404">
        <ele>1617.56</ele>
        <time>2015-06-25T08:06:06Z</time>
      </trkpt>
      <trkpt lat="44.64552" lon="5.6404">
        <ele>1620.92</ele>
        <time>2015-06-25T08:06:22Z</time>
      </trkpt>
      <trkpt lat="44.64555" lon="5.64041">
        <ele>1621.88</ele>
        <time>2015-06-25T08:06:34Z</time>
      </trkpt>
      <trkpt lat="44.64557" lon="5.64041">
        <ele>1623.8</ele>
        <time>2015-06-25T08:06:47Z</time>
      </trkpt>
      <trkpt lat="44.64558" lon="5.64041">
        <ele>1623.32</ele>
        <time>2015-06-25T08:07:00Z</time>
      </trkpt>
      <trkpt lat="44.64558" lon="5.64042">
        <ele>1623.32</ele>
        <time>2015-06-25T08:07:37Z</time>
      </trkpt>
      <trkpt lat="44.64558" lon="5.64041">
        <ele>1623.8</ele>
        <time>2015-06-25T08:07:51Z</time>
      </trkpt>
      <trkpt lat="44.6456" lon="5.64042">
        <ele>1624.28</ele>
        <time>2015-06-25T08:08:15Z</time>
      </trkpt>
      <trkpt lat="44.64558" lon="5.64042">
        <ele>1624.28</ele>
        <time>2015-06-25T08:08:43Z</time>
      </trkpt>
      <trkpt lat="44.64558" lon="5.64042">
        <ele>1623.32</ele>
        <time>2015-06-25T08:08:59Z</time>
      </trkpt>
      <trkpt lat="44.64559" lon="5.64042">
        <ele>1623.8</ele>
        <time>2015-06-25T08:09:28Z</time>
      </trkpt>
      <trkpt lat="44.64559" lon="5.64044">
        <ele>1623.8</ele>
        <time>2015-06-25T08:09:59Z</time>
      </trkpt>
      <trkpt lat="44.64559" lon="5.64043">
        <ele>1624.28</ele>
        <time>2015-06-25T08:10:31Z</time>
      </trkpt>
      <trkpt lat="44.64558" lon="5.64039">
        <ele>1624.28</ele>
        <time>2015-06-25T08:11:01Z</time>
      </trkpt>
      <trkpt lat="44.64559" lon="5.64038">
        <ele>1624.77</ele>
        <time>2015-06-25T08:11:35Z</time>
      </trkpt>
      <trkpt lat="44.64559" lon="5.64043">
        <ele>1624.77</ele>
        <time>2015-06-25T08:12:03Z</time>
      </trkpt>
      <trkpt lat="44.64558" lon="5.64043">
        <ele>1624.77</ele>
        <time>2015-06-25T08:12:35Z</time>
      </trkpt>
      <trkpt lat="44.64558" lon="5.64042">
        <ele>1624.77</ele>
        <time>2015-06-25T08:13:05Z</time>
      </trkpt>
      <trkpt lat="44.64559" lon="5.64041">
        <ele>1625.25</ele>
        <time>2015-06-25T08:13:32Z</time>
      </trkpt>
      <trkpt lat="44.64559" lon="5.6404">
        <ele>1625.25</ele>
        <time>2015-06-25T08:14:01Z</time>
      </trkpt>
      <trkpt lat="44.64558" lon="5.64041">
        <ele>1625.25</ele>
        <time>2015-06-25T08:14:30Z</time>
      </trkpt>
      <trkpt lat="44.64558" lon="5.64042">
        <ele>1625.25</ele>
        <time>2015-06-25T08:15:01Z</time>
      </trkpt>
      <trkpt lat="44.64558" lon="5.64041">
        <ele>1625.73</ele>
        <time>2015-06-25T08:15:36Z</time>
      </trkpt>
      <trkpt lat="44.64558" lon="5.64041">
        <ele>1625.73</ele>
        <time>2015-06-25T08:16:02Z</time>
      </trkpt>
      <trkpt lat="44.64558" lon="5.64042">
        <ele>1625.25</ele>
        <time>2015-06-25T08:16:35Z</time>
      </trkpt>
      <trkpt lat="44.64558" lon="5.64042">
        <ele>1625.73</ele>
        <time>2015-06-25T08:17:08Z</time>
      </trkpt>
      <trkpt lat="44.64558" lon="5.64042">
        <ele>1625.73</ele>
        <time>2015-06-25T08:17:37Z</time>
      </trkpt>
      <trkpt lat="44.64558" lon="5.64042">
        <ele>1625.73</ele>
        <time>2015-06-25T08:18:06Z</time>
      </trkpt>
      <trkpt lat="44.64558" lon="5.64041">
        <ele>1626.21</ele>
        <time>2015-06-25T08:18:22Z</time>
      </trkpt>
      <trkpt lat="44.64559" lon="5.6404">
        <ele>1626.21</ele>
        <time>2015-06-25T08:18:38Z</time>
      </trkpt>
      <trkpt lat="44.64559" lon="5.64043">
        <ele>1626.21</ele>
        <time>2015-06-25T08:19:04Z</time>
      </trkpt>
      <trkpt lat="44.6456" lon="5.64042">
        <ele>1626.21</ele>
        <time>2015-06-25T08:19:34Z</time>
      </trkpt>
      <trkpt lat="44.64561" lon="5.64044">
        <ele>1626.69</ele>
        <time>2015-06-25T08:19:59Z</time>
      </trkpt>
      <trkpt lat="44.64561" lon="5.64044">
        <ele>1627.65</ele>
        <time>2015-06-25T08:20:16Z</time>
      </trkpt>
      <trkpt lat="44.64562" lon="5.64046">
        <ele>1627.65</ele>
        <time>2015-06-25T08:20:38Z</time>
      </trkpt>
      <trkpt lat="44.64563" lon="5.64044">
        <ele>1628.61</ele>
        <time>2015-06-25T08:21:03Z</time>
      </trkpt>
      <trkpt lat="44.64565" lon="5.64045">
        <ele>1629.57</ele>
        <time>2015-06-25T08:21:18Z</time>
      </trkpt>
      <trkpt lat="44.64567" lon="5.64044">
        <ele>1630.53</ele>
        <time>2015-06-25T08:21:36Z</time>
      </trkpt>
      <trkpt lat="44.64569" lon="5.64045">
        <ele>1631.49</ele>
        <time>2015-06-25T08:21:58Z</time>
      </trkpt>
      <trkpt lat="44.64573" lon="5.64046">
        <ele>1633.42</ele>
        <time>2015-06-25T08:22:11Z</time>
      </trkpt>
      <trkpt lat="44.64578" lon="5.64047">
        <ele>1635.34</ele>
        <time>2015-06-25T08:22:26Z</time>
      </trkpt>
      <trkpt lat="44.64584" lon="5.64049">
        <ele>1638.22</ele>
        <time>2015-06-25T08:22:44Z</time>
      </trkpt>
      <trkpt lat="44.64589" lon="5.64048">
        <ele>1640.63</ele>
        <time>2015-06-25T08:23:00Z</time>
      </trkpt>
      <trkpt lat="44.64594" lon="5.6405">
        <ele>1643.03</ele>
        <time>2015-06-25T08:23:14Z</time>
      </trkpt>
      <trkpt lat="44.646" lon="5.6405">
        <ele>1645.43</ele>
        <time>2015-06-25T08:23:31Z</time>
      </trkpt>
      <trkpt lat="44.64606" lon="5.64049">
        <ele>1647.36</ele>
        <time>2015-06-25T08:23:45Z</time>
      </trkpt>
      <trkpt lat="44.64611" lon="5.64047">
        <ele>1649.28</ele>
        <time>2015-06-25T08:24:00Z</time>
      </trkpt>
      <trkpt lat="44.64616" lon="5.64043">
        <ele>1651.2</ele>
        <time>2015-06-25T08:24:15Z</time>
      </trkpt>
      <trkpt lat="44.6462" lon="5.64042">
        <ele>1652.64</ele>
        <time>2015-06-25T08:24:33Z</time>
      </trkpt>
      <trkpt lat="44.64624" lon="5.64042">
        <ele>1654.09</ele>
        <time>2015-06-25T08:24:45Z</time>
      </trkpt>
      <trkpt lat="44.64631" lon="5.64043">
        <ele>1656.97</ele>
        <time>2015-06-25T08:25:02Z</time>
      </trkpt>
      <trkpt lat="44.64638" lon="5.64043">
        <ele>1659.85</ele>
        <time>2015-06-25T08:25:17Z</time>
      </trkpt>
      <trkpt lat="44.64644" lon="5.64045">
        <ele>1662.26</ele>
        <time>2015-06-25T08:25:33Z</time>
      </trkpt>
      <trkpt lat="44.64649" lon="5.64045">
        <ele>1663.22</ele>
        <time>2015-06-25T08:25:45Z</time>
      </trkpt>
      <trkpt lat="44.64654" lon="5.64045">
        <ele>1665.14</ele>
        <time>2015-06-25T08:25:59Z</time>
      </trkpt>
      <trkpt lat="44.64659" lon="5.64044">
        <ele>1666.58</ele>
        <time>2015-06-25T08:26:11Z</time>
      </trkpt>
      <trkpt lat="44.64664" lon="5.64043">
        <ele>1668.51</ele>
        <time>2015-06-25T08:26:24Z</time>
      </trkpt>
      <trkpt lat="44.64669" lon="5.64041">
        <ele>1669.95</ele>
        <time>2015-06-25T08:26:40Z</time>
      </trkpt>
      <trkpt lat="44.64678" lon="5.64042">
        <ele>1672.83</ele>
        <time>2015-06-25T08:26:58Z</time>
      </trkpt>
      <trkpt lat="44.64684" lon="5.64039">
        <ele>1675.23</ele>
        <time>2015-06-25T08:27:11Z</time>
      </trkpt>
      <trkpt lat="44.64689" lon="5.6403">
        <ele>1677.64</ele>
        <time>2015-06-25T08:27:29Z</time>
      </trkpt>
      <trkpt lat="44.64695" lon="5.64029">
        <ele>1679.56</ele>
        <time>2015-06-25T08:27:45Z</time>
      </trkpt>
      <trkpt lat="44.64702" lon="5.64033">
        <ele>1681.48</ele>
        <time>2015-06-25T08:27:59Z</time>
      </trkpt>
      <trkpt lat="44.64706" lon="5.64033">
        <ele>1683.41</ele>
        <time>2015-06-25T08:28:09Z</time>
      </trkpt>
      <trkpt lat="44.64711" lon="5.64035">
        <ele>1685.33</ele>
        <time>2015-06-25T08:28:25Z</time>
      </trkpt>
      <trkpt lat="44.64715" lon="5.64036">
        <ele>1686.77</ele>
        <time>2015-06-25T08:28:36Z</time>
      </trkpt>
      <trkpt lat="44.6472" lon="5.64034">
        <ele>1689.17</ele>
        <time>2015-06-25T08:28:49Z</time>
      </trkpt>
      <trkpt lat="44.64724" lon="5.6404">
        <ele>1689.65</ele>
        <time>2015-06-25T08:29:03Z</time>
      </trkpt>
      <trkpt lat="44.64728" lon="5.64047">
        <ele>1691.1</ele>
        <time>2015-06-25T08:29:19Z</time>
      </trkpt>
      <trkpt lat="44.64726" lon="5.64043">
        <ele>1691.1</ele>
        <time>2015-06-25T08:29:39Z</time>
      </trkpt>
      <trkpt lat="44.6473" lon="5.64041">
        <ele>1692.54</ele>
        <time>2015-06-25T08:29:59Z</time>
      </trkpt>
      <trkpt lat="44.6473" lon="5.64042">
        <ele>1692.54</ele>
        <time>2015-06-25T08:30:14Z</time>
      </trkpt>
      <trkpt lat="44.6473" lon="5.64042">
        <ele>1693.02</ele>
        <time>2015-06-25T08:30:32Z</time>
      </trkpt>
      <trkpt lat="44.64727" lon="5.64039">
        <ele>1693.02</ele>
        <time>2015-06-25T08:30:56Z</time>
      </trkpt>
      <trkpt lat="44.64729" lon="5.64041">
        <ele>1693.02</ele>
        <time>2015-06-25T08:31:17Z</time>
      </trkpt>
      <trkpt lat="44.64727" lon="5.64039">
        <ele>1693.02</ele>
        <time>2015-06-25T08:31:39Z</time>
      </trkpt>
      <trkpt lat="44.64727" lon="5.64038">
        <ele>1693.02</ele>
        <time>2015-06-25T08:32:09Z</time>
      </trkpt>
      <trkpt lat="44.64726" lon="5.64036">
        <ele>1693.02</ele>
        <time>2015-06-25T08:32:44Z</time>
      </trkpt>
      <trkpt lat="44.64728" lon="5.64037">
        <ele>1693.02</ele>
        <time>2015-06-25T08:33:10Z</time>
      </trkpt>
      <trkpt lat="44.64731" lon="5.64041">
        <ele>1693.5</ele>
        <time>2015-06-25T08:33:32Z</time>
      </trkpt>
      <trkpt lat="44.64734" lon="5.64038">
        <ele>1695.42</ele>
        <time>2015-06-25T08:33:49Z</time>
      </trkpt>
      <trkpt lat="44.64737" lon="5.64036">
        <ele>1696.86</ele>
        <time>2015-06-25T08:34:03Z</time>
      </trkpt>
      <trkpt lat="44.64742" lon="5.64035">
        <ele>1698.79</ele>
        <time>2015-06-25T08:34:16Z</time>
      </trkpt>
      <trkpt lat="44.64745" lon="5.64039">
        <ele>1700.23</ele>
        <time>2015-06-25T08:34:31Z</time>
      </trkpt>
      <trkpt lat="44.64747" lon="5.6404">
        <ele>1701.19</ele>
        <time>2015-06-25T08:34:46Z</time>
      </trkpt>
      <trkpt lat="44.64749" lon="5.64038">
        <ele>1702.15</ele>
        <time>2015-06-25T08:35:00Z</time>
      </trkpt>
      <trkpt lat="44.64752" lon="5.64041">
        <ele>1704.55</ele>
        <time>2015-06-25T08:35:15Z</time>
      </trkpt>
      <trkpt lat="44.64759" lon="5.64043">
        <ele>1706.48</ele>
        <time>2015-06-25T08:35:31Z</time>
      </trkpt>
      <trkpt lat="44.64763" lon="5.64044">
        <ele>1708.88</ele>
        <time>2015-06-25T08:35:46Z</time>
      </trkpt>
      <trkpt lat="44.64768" lon="5.64043">
        <ele>1711.28</ele>
        <time>2015-06-25T08:36:00Z</time>
      </trkpt>
      <trkpt lat="44.64771" lon="5.64044">
        <ele>1713.69</ele>
        <time>2015-06-25T08:36:16Z</time>
      </trkpt>
      <trkpt lat="44.64774" lon="5.6404">
        <ele>1715.61</ele>
        <time>2015-06-25T08:36:30Z</time>
      </trkpt>
      <trkpt lat="44.64778" lon="5.64036">
        <ele>1718.01</ele>
        <time>2015-06-25T08:36:44Z</time>
      </trkpt>
      <trkpt lat="44.64781" lon="5.64036">
        <ele>1719.94</ele>
        <time>2015-06-25T08:36:59Z</time>
      </trkpt>
      <trkpt lat="44.64785" lon="5.64036">
        <ele>1721.86</ele>
        <time>2015-06-25T08:37:12Z</time>
      </trkpt>
      <trkpt lat="44.64788" lon="5.64038">
        <ele>1724.26</ele>
        <time>2015-06-25T08:37:27Z</time>
      </trkpt>
      <trkpt lat="44.64792" lon="5.6404">
        <ele>1726.18</ele>
        <time>2015-06-25T08:37:42Z</time>
      </trkpt>
      <trkpt lat="44.64795" lon="5.64039">
        <ele>1728.11</ele>
        <time>2015-06-25T08:37:58Z</time>
      </trkpt>
      <trkpt lat="44.64799" lon="5.64039">
        <ele>1730.03</ele>
        <time>2015-06-25T08:38:14Z</time>
      </trkpt>
      <trkpt lat="44.64802" lon="5.64041">
        <ele>1732.43</ele>
        <time>2015-06-25T08:38:27Z</time>
      </trkpt>
      <trkpt lat="44.64805" lon="5.64041">
        <ele>1733.88</ele>
        <time>2015-06-25T08:38:40Z</time>
      </trkpt>
      <trkpt lat="44.64806" lon="5.64044">
        <ele>1736.76</ele>
        <time>2015-06-25T08:38:54Z</time>
      </trkpt>
      <trkpt lat="44.64809" lon="5.64044">
        <ele>1737.72</ele>
        <time>2015-06-25T08:39:09Z</time>
      </trkpt>
      <trkpt lat="44.64812" lon="5.64046">
        <ele>1739.64</ele>
        <time>2015-06-25T08:39:24Z</time>
      </trkpt>
      <trkpt lat="44.64815" lon="5.64049">
        <ele>1741.08</ele>
        <time>2015-06-25T08:39:38Z</time>
      </trkpt>
      <trkpt lat="44.64816" lon="5.64047">
        <ele>1742.53</ele>
        <time>2015-06-25T08:39:54Z</time>
      </trkpt>
      <trkpt lat="44.6482" lon="5.6405">
        <ele>1744.93</ele>
        <time>2015-06-25T08:40:09Z</time>
      </trkpt>
      <trkpt lat="44.64823" lon="5.64053">
        <ele>1747.33</ele>
        <time>2015-06-25T08:40:24Z</time>
      </trkpt>
      <trkpt lat="44.64825" lon="5.64059">
        <ele>1748.29</ele>
        <time>2015-06-25T08:40:38Z</time>
      </trkpt>
      <trkpt lat="44.64827" lon="5.64055">
        <ele>1750.22</ele>
        <time>2015-06-25T08:40:51Z</time>
      </trkpt>
      <trkpt lat="44.6483" lon="5.64058">
        <ele>1751.66</ele>
        <time>2015-06-25T08:41:06Z</time>
      </trkpt>
      <trkpt lat="44.64832" lon="5.64062">
        <ele>1753.58</ele>
        <time>2015-06-25T08:41:20Z</time>
      </trkpt>
      <trkpt lat="44.64836" lon="5.64059">
        <ele>1755.5</ele>
        <time>2015-06-25T08:41:36Z</time>
      </trkpt>
      <trkpt lat="44.64838" lon="5.64061">
        <ele>1756.95</ele>
        <time>2015-06-25T08:41:52Z</time>
      </trkpt>
      <trkpt lat="44.6484" lon="5.64063">
        <ele>1758.39</ele>
        <time>2015-06-25T08:42:06Z</time>
      </trkpt>
      <trkpt lat="44.64842" lon="5.64065">
        <ele>1759.83</ele>
        <time>2015-06-25T08:42:31Z</time>
      </trkpt>
      <trkpt lat="44.64847" lon="5.64068">
        <ele>1763.2</ele>
        <time>2015-06-25T08:42:43Z</time>
      </trkpt>
      <trkpt lat="44.64848" lon="5.64071">
        <ele>1765.6</ele>
        <time>2015-06-25T08:42:57Z</time>
      </trkpt>
      <trkpt lat="44.64851" lon="5.64071">
        <ele>1766.56</ele>
        <time>2015-06-25T08:43:10Z</time>
      </trkpt>
      <trkpt lat="44.64854" lon="5.64072">
        <ele>1768.48</ele>
        <time>2015-06-25T08:43:25Z</time>
      </trkpt>
      <trkpt lat="44.64857" lon="5.64073">
        <ele>1769.92</ele>
        <time>2015-06-25T08:43:40Z</time>
      </trkpt>
      <trkpt lat="44.6486" lon="5.64076">
        <ele>1772.33</ele>
        <time>2015-06-25T08:43:58Z</time>
      </trkpt>
      <trkpt lat="44.64863" lon="5.64078">
        <ele>1773.77</ele>
        <time>2015-06-25T08:44:14Z</time>
      </trkpt>
      <trkpt lat="44.64866" lon="5.64079">
        <ele>1775.69</ele>
        <time>2015-06-25T08:44:29Z</time>
      </trkpt>
      <trkpt lat="44.64867" lon="5.64083">
        <ele>1777.13</ele>
        <time>2015-06-25T08:44:45Z</time>
      </trkpt>
      <trkpt lat="44.64869" lon="5.64087">
        <ele>1779.54</ele>
        <time>2015-06-25T08:45:00Z</time>
      </trkpt>
      <trkpt lat="44.64872" lon="5.64088">
        <ele>1781.46</ele>
        <time>2015-06-25T08:45:16Z</time>
      </trkpt>
      <trkpt lat="44.64874" lon="5.6409">
        <ele>1782.9</ele>
        <time>2015-06-25T08:45:30Z</time>
      </trkpt>
      <trkpt lat="44.64877" lon="5.64091">
        <ele>1784.34</ele>
        <time>2015-06-25T08:45:43Z</time>
      </trkpt>
      <trkpt lat="44.64881" lon="5.64096">
        <ele>1786.27</ele>
        <time>2015-06-25T08:45:57Z</time>
      </trkpt>
      <trkpt lat="44.64884" lon="5.64103">
        <ele>1789.15</ele>
        <time>2015-06-25T08:46:13Z</time>
      </trkpt>
      <trkpt lat="44.64889" lon="5.64105">
        <ele>1792.52</ele>
        <time>2015-06-25T08:46:26Z</time>
      </trkpt>
      <trkpt lat="44.64889" lon="5.64106">
        <ele>1793.48</ele>
        <time>2015-06-25T08:46:46Z</time>
      </trkpt>
      <trkpt lat="44.64892" lon="5.64108">
        <ele>1794.44</ele>
        <time>2015-06-25T08:47:03Z</time>
      </trkpt>
      <trkpt lat="44.64893" lon="5.64108">
        <ele>1794.44</ele>
        <time>2015-06-25T08:47:31Z</time>
      </trkpt>
      <trkpt lat="44.64893" lon="5.64106">
        <ele>1794.92</ele>
        <time>2015-06-25T08:48:00Z</time>
      </trkpt>
      <trkpt lat="44.64899" lon="5.64104">
        <ele>1797.32</ele>
        <time>2015-06-25T08:48:13Z</time>
      </trkpt>
      <trkpt lat="44.64901" lon="5.64111">
        <ele>1799.73</ele>
        <time>2015-06-25T08:48:29Z</time>
      </trkpt>
      <trkpt lat="44.64906" lon="5.6411">
        <ele>1801.17</ele>
        <time>2015-06-25T08:48:44Z</time>
      </trkpt>
      <trkpt lat="44.64907" lon="5.64116">
        <ele>1802.61</ele>
        <time>2015-06-25T08:48:58Z</time>
      </trkpt>
      <trkpt lat="44.64911" lon="5.64114">
        <ele>1804.53</ele>
        <time>2015-06-25T08:49:16Z</time>
      </trkpt>
      <trkpt lat="44.64914" lon="5.64114">
        <ele>1805.01</ele>
        <time>2015-06-25T08:49:30Z</time>
      </trkpt>
      <trkpt lat="44.64918" lon="5.64113">
        <ele>1806.94</ele>
        <time>2015-06-25T08:49:44Z</time>
      </trkpt>
      <trkpt lat="44.64922" lon="5.64117">
        <ele>1808.86</ele>
        <time>2015-06-25T08:50:01Z</time>
      </trkpt>
      <trkpt lat="44.64924" lon="5.64121">
        <ele>1811.74</ele>
        <time>2015-06-25T08:50:15Z</time>
      </trkpt>
      <trkpt lat="44.64929" lon="5.64125">
        <ele>1814.15</ele>
        <time>2015-06-25T08:50:31Z</time>
      </trkpt>
      <trkpt lat="44.64933" lon="5.64127">
        <ele>1816.55</ele>
        <time>2015-06-25T08:50:45Z</time>
      </trkpt>
      <trkpt lat="44.64936" lon="5.64128">
        <ele>1818.95</ele>
        <time>2015-06-25T08:50:58Z</time>
      </trkpt>
      <trkpt lat="44.64935" lon="5.64131">
        <ele>1819.43</ele>
        <time>2015-06-25T08:51:17Z</time>
      </trkpt>
      <trkpt lat="44.6494" lon="5.64134">
        <ele>1820.87</ele>
        <time>2015-06-25T08:51:35Z</time>
      </trkpt>
      <trkpt lat="44.64944" lon="5.64137">
        <ele>1823.28</ele>
        <time>2015-06-25T08:51:50Z</time>
      </trkpt>
      <trkpt lat="44.64948" lon="5.64138">
        <ele>1825.68</ele>
        <time>2015-06-25T08:52:07Z</time>
      </trkpt>
      <trkpt lat="44.64953" lon="5.6414">
        <ele>1827.6</ele>
        <time>2015-06-25T08:52:21Z</time>
      </trkpt>
      <trkpt lat="44.64956" lon="5.6414">
        <ele>1830.01</ele>
        <time>2015-06-25T08:52:37Z</time>
      </trkpt>
      <trkpt lat="44.64954" lon="5.64144">
        <ele>1830.49</ele>
        <time>2015-06-25T08:52:59Z</time>
      </trkpt>
      <trkpt lat="44.64962" lon="5.64144">
        <ele>1832.89</ele>
        <time>2015-06-25T08:53:15Z</time>
      </trkpt>
      <trkpt lat="44.64968" lon="5.64146">
        <ele>1835.29</ele>
        <time>2015-06-25T08:53:32Z</time>
      </trkpt>
      <trkpt lat="44.64968" lon="5.64148">
        <ele>1836.26</ele>
        <time>2015-06-25T08:53:48Z</time>
      </trkpt>
      <trkpt lat="44.64973" lon="5.64152">
        <ele>1838.18</ele>
        <time>2015-06-25T08:54:02Z</time>
      </trkpt>
      <trkpt lat="44.64979" lon="5.64157">
        <ele>1840.58</ele>
        <time>2015-06-25T08:54:16Z</time>
      </trkpt>
      <trkpt lat="44.64979" lon="5.6416">
        <ele>1841.54</ele>
        <time>2015-06-25T08:54:30Z</time>
      </trkpt>
      <trkpt lat="44.64986" lon="5.64157">
        <ele>1843.47</ele>
        <time>2015-06-25T08:54:43Z</time>
      </trkpt>
      <trkpt lat="44.6499" lon="5.64162">
        <ele>1845.39</ele>
        <time>2015-06-25T08:54:58Z</time>
      </trkpt>
      <trkpt lat="44.64997" lon="5.64167">
        <ele>1848.27</ele>
        <time>2015-06-25T08:55:14Z</time>
      </trkpt>
      <trkpt lat="44.65004" lon="5.6417">
        <ele>1849.71</ele>
        <time>2015-06-25T08:55:26Z</time>
      </trkpt>
      <trkpt lat="44.65013" lon="5.64174">
        <ele>1852.6</ele>
        <time>2015-06-25T08:55:42Z</time>
      </trkpt>
      <trkpt lat="44.65019" lon="5.64175">
        <ele>1855</ele>
        <time>2015-06-25T08:55:56Z</time>
      </trkpt>
      <trkpt lat="44.65028" lon="5.64176">
        <ele>1856.44</ele>
        <time>2015-06-25T08:56:08Z</time>
      </trkpt>
      <trkpt lat="44.65035" lon="5.64176">
        <ele>1857.4</ele>
        <time>2015-06-25T08:56:24Z</time>
      </trkpt>
      <trkpt lat="44.6503" lon="5.64175">
        <ele>1856.44</ele>
        <time>2015-06-25T08:56:47Z</time>
      </trkpt>
      <trkpt lat="44.65033" lon="5.64177">
        <ele>1856.92</ele>
        <time>2015-06-25T08:56:59Z</time>
      </trkpt>
      <trkpt lat="44.65035" lon="5.64176">
        <ele>1856.92</ele>
        <time>2015-06-25T08:57:11Z</time>
      </trkpt>
      <trkpt lat="44.65031" lon="5.64175">
        <ele>1857.4</ele>
        <time>2015-06-25T08:57:39Z</time>
      </trkpt>
      <trkpt lat="44.65033" lon="5.64175">
        <ele>1857.4</ele>
        <time>2015-06-25T08:57:57Z</time>
      </trkpt>
      <trkpt lat="44.65031" lon="5.64175">
        <ele>1856.92</ele>
        <time>2015-06-25T08:58:17Z</time>
      </trkpt>
      <trkpt lat="44.65029" lon="5.64176">
        <ele>1857.89</ele>
        <time>2015-06-25T08:58:34Z</time>
      </trkpt>
      <trkpt lat="44.65031" lon="5.64177">
        <ele>1857.89</ele>
        <time>2015-06-25T08:58:58Z</time>
      </trkpt>
      <trkpt lat="44.65032" lon="5.64177">
        <ele>1857.89</ele>
        <time>2015-06-25T08:59:16Z</time>
      </trkpt>
      <trkpt lat="44.6503" lon="5.64175">
        <ele>1856.92</ele>
        <time>2015-06-25T08:59:34Z</time>
      </trkpt>
      <trkpt lat="44.65029" lon="5.64175">
        <ele>1857.4</ele>
        <time>2015-06-25T08:59:54Z</time>
      </trkpt>
      <trkpt lat="44.6503" lon="5.64173">
        <ele>1857.4</ele>
        <time>2015-06-25T09:00:14Z</time>
      </trkpt>
      <trkpt lat="44.65032" lon="5.64174">
        <ele>1857.4</ele>
        <time>2015-06-25T09:00:34Z</time>
      </trkpt>
      <trkpt lat="44.65034" lon="5.64176">
        <ele>1857.89</ele>
        <time>2015-06-25T09:00:50Z</time>
      </trkpt>
      <trkpt lat="44.65034" lon="5.64175">
        <ele>1857.89</ele>
        <time>2015-06-25T09:01:11Z</time>
      </trkpt>
      <trkpt lat="44.65034" lon="5.64176">
        <ele>1857.4</ele>
        <time>2015-06-25T09:01:34Z</time>
      </trkpt>
      <trkpt lat="44.65034" lon="5.64174">
        <ele>1857.4</ele>
        <time>2015-06-25T09:01:57Z</time>
      </trkpt>
      <trkpt lat="44.65035" lon="5.64175">
        <ele>1857.89</ele>
        <time>2015-06-25T09:02:21Z</time>
      </trkpt>
      <trkpt lat="44.65034" lon="5.64176">
        <ele>1857.89</ele>
        <time>2015-06-25T09:02:43Z</time>
      </trkpt>
      <trkpt lat="44.65035" lon="5.64176">
        <ele>1857.89</ele>
        <time>2015-06-25T09:03:03Z</time>
      </trkpt>
      <trkpt lat="44.65036" lon="5.64179">
        <ele>1857.89</ele>
        <time>2015-06-25T09:03:17Z</time>
      </trkpt>
      <trkpt lat="44.65035" lon="5.64179">
        <ele>1857.4</ele>
        <time>2015-06-25T09:03:27Z</time>
      </trkpt>
      <trkpt lat="44.65036" lon="5.6418">
        <ele>1857.89</ele>
        <time>2015-06-25T09:03:51Z</time>
      </trkpt>
      <trkpt lat="44.65037" lon="5.64179">
        <ele>1857.89</ele>
        <time>2015-06-25T09:04:05Z</time>
      </trkpt>
      <trkpt lat="44.65036" lon="5.6418">
        <ele>1857.89</ele>
        <time>2015-06-25T09:04:29Z</time>
      </trkpt>
      <trkpt lat="44.65039" lon="5.64179">
        <ele>1858.37</ele>
        <time>2015-06-25T09:04:52Z</time>
      </trkpt>
      <trkpt lat="44.65041" lon="5.64182">
        <ele>1857.4</ele>
        <time>2015-06-25T09:05:15Z</time>
      </trkpt>
      <trkpt lat="44.65042" lon="5.64181">
        <ele>1857.4</ele>
        <time>2015-06-25T09:05:17Z</time>
      </trkpt>
      <trkpt lat="44.65051" lon="5.64175">
        <ele>1857.89</ele>
        <time>2015-06-25T09:05:25Z</time>
      </trkpt>
      <trkpt lat="44.65063" lon="5.64174">
        <ele>1859.33</ele>
        <time>2015-06-25T09:05:40Z</time>
      </trkpt>
      <trkpt lat="44.65073" lon="5.6417">
        <ele>1860.29</ele>
        <time>2015-06-25T09:05:52Z</time>
      </trkpt>
      <trkpt lat="44.65081" lon="5.64169">
        <ele>1860.77</ele>
        <time>2015-06-25T09:06:05Z</time>
      </trkpt>
      <trkpt lat="44.65085" lon="5.64168">
        <ele>1860.77</ele>
        <time>2015-06-25T09:06:09Z</time>
      </trkpt>
      <trkpt lat="44.65093" lon="5.64167">
        <ele>1860.77</ele>
        <time>2015-06-25T09:06:18Z</time>
      </trkpt>
      <trkpt lat="44.65096" lon="5.64167">
        <ele>1860.29</ele>
        <time>2015-06-25T09:06:20Z</time>
      </trkpt>
      <trkpt lat="44.65103" lon="5.64166">
        <ele>1859.81</ele>
        <time>2015-06-25T09:06:27Z</time>
      </trkpt>
      <trkpt lat="44.65116" lon="5.64164">
        <ele>1860.29</ele>
        <time>2015-06-25T09:06:40Z</time>
      </trkpt>
      <trkpt lat="44.65116" lon="5.64163">
        <ele>1860.29</ele>
        <time>2015-06-25T09:06:41Z</time>
      </trkpt>
      <trkpt lat="44.65128" lon="5.64164">
        <ele>1860.29</ele>
        <time>2015-06-25T09:06:54Z</time>
      </trkpt>
      <trkpt lat="44.65133" lon="5.64165">
        <ele>1860.29</ele>
        <time>2015-06-25T09:07:00Z</time>
      </trkpt>
      <trkpt lat="44.65143" lon="5.6417">
        <ele>1859.81</ele>
        <time>2015-06-25T09:07:11Z</time>
      </trkpt>
      <trkpt lat="44.65144" lon="5.6417">
        <ele>1859.33</ele>
        <time>2015-06-25T09:07:12Z</time>
      </trkpt>
      <trkpt lat="44.65165" lon="5.6417">
        <ele>1858.85</ele>
        <time>2015-06-25T09:07:31Z</time>
      </trkpt>
      <trkpt lat="44.65171" lon="5.64174">
        <ele>1857.89</ele>
        <time>2015-06-25T09:07:49Z</time>
      </trkpt>
      <trkpt lat="44.65167" lon="5.64177">
        <ele>1858.37</ele>
        <time>2015-06-25T09:08:18Z</time>
      </trkpt>
      <trkpt lat="44.65165" lon="5.64177">
        <ele>1858.37</ele>
        <time>2015-06-25T09:08:32Z</time>
      </trkpt>
      <trkpt lat="44.65164" lon="5.64176">
        <ele>1858.85</ele>
        <time>2015-06-25T09:08:52Z</time>
      </trkpt>
      <trkpt lat="44.65165" lon="5.64178">
        <ele>1858.85</ele>
        <time>2015-06-25T09:09:05Z</time>
      </trkpt>
      <trkpt lat="44.65162" lon="5.64178">
        <ele>1858.37</ele>
        <time>2015-06-25T09:09:24Z</time>
      </trkpt>
      <trkpt lat="44.65161" lon="5.64175">
        <ele>1858.85</ele>
        <time>2015-06-25T09:09:42Z</time>
      </trkpt>
      <trkpt lat="44.65159" lon="5.64174">
        <ele>1858.85</ele>
        <time>2015-06-25T09:09:53Z</time>
      </trkpt>
      <trkpt lat="44.65167" lon="5.64177">
        <ele>1858.85</ele>
        <time>2015-06-25T09:10:05Z</time>
      </trkpt>
      <trkpt lat="44.65171" lon="5.64178">
        <ele>1858.85</ele>
        <time>2015-06-25T09:10:16Z</time>
      </trkpt>
      <trkpt lat="44.65167" lon="5.64182">
        <ele>1858.37</ele>
        <time>2015-06-25T09:10:26Z</time>
      </trkpt>
      <trkpt lat="44.65166" lon="5.6419">
        <ele>1856.44</ele>
        <time>2015-06-25T09:10:39Z</time>
      </trkpt>
      <trkpt lat="44.65164" lon="5.642">
        <ele>1854.04</ele>
        <time>2015-06-25T09:10:52Z</time>
      </trkpt>
      <trkpt lat="44.65164" lon="5.64205">
        <ele>1852.12</ele>
        <time>2015-06-25T09:11:02Z</time>
      </trkpt>
      <trkpt lat="44.65166" lon="5.6421">
        <ele>1849.71</ele>
        <time>2015-06-25T09:11:15Z</time>
      </trkpt>
      <trkpt lat="44.65165" lon="5.64219">
        <ele>1846.83</ele>
        <time>2015-06-25T09:11:30Z</time>
      </trkpt>
      <trkpt lat="44.65165" lon="5.64226">
        <ele>1844.43</ele>
        <time>2015-06-25T09:11:43Z</time>
      </trkpt>
      <trkpt lat="44.65166" lon="5.64231">
        <ele>1842.98</ele>
        <time>2015-06-25T09:11:55Z</time>
      </trkpt>
      <trkpt lat="44.65165" lon="5.64239">
        <ele>1841.54</ele>
        <time>2015-06-25T09:12:07Z</time>
      </trkpt>
      <trkpt lat="44.65167" lon="5.64243">
        <ele>1839.62</ele>
        <time>2015-06-25T09:12:18Z</time>
      </trkpt>
      <trkpt lat="44.65169" lon="5.64251">
        <ele>1837.22</ele>
        <time>2015-06-25T09:12:33Z</time>
      </trkpt>
      <trkpt lat="44.65172" lon="5.6426">
        <ele>1834.81</ele>
        <time>2015-06-25T09:12:49Z</time>
      </trkpt>
      <trkpt lat="44.65171" lon="5.64265">
        <ele>1832.89</ele>
        <time>2015-06-25T09:13:03Z</time>
      </trkpt>
      <trkpt lat="44.65172" lon="5.64274">
        <ele>1830.97</ele>
        <time>2015-06-25T09:13:17Z</time>
      </trkpt>
      <trkpt lat="44.65175" lon="5.64285">
        <ele>1827.6</ele>
        <time>2015-06-25T09:13:32Z</time>
      </trkpt>
      <trkpt lat="44.65177" lon="5.64293">
        <ele>1825.2</ele>
        <time>2015-06-25T09:13:46Z</time>
      </trkpt>
      <trkpt lat="44.65178" lon="5.64299">
        <ele>1823.28</ele>
        <time>2015-06-25T09:13:59Z</time>
      </trkpt>
      <trkpt lat="44.65182" lon="5.64304">
        <ele>1820.87</ele>
        <time>2015-06-25T09:14:13Z</time>
      </trkpt>
      <trkpt lat="44.65184" lon="5.64312">
        <ele>1818.95</ele>
        <time>2015-06-25T09:14:25Z</time>
      </trkpt>
      <trkpt lat="44.65184" lon="5.64316">
        <ele>1817.51</ele>
        <time>2015-06-25T09:14:39Z</time>
      </trkpt>
      <trkpt lat="44.65188" lon="5.64324">
        <ele>1814.63</ele>
        <time>2015-06-25T09:14:54Z</time>
      </trkpt>
      <trkpt lat="44.65191" lon="5.64335">
        <ele>1811.74</ele>
        <time>2015-06-25T09:15:09Z</time>
      </trkpt>
      <trkpt lat="44.65196" lon="5.64337">
        <ele>1810.3</ele>
        <time>2015-06-25T09:15:25Z</time>
      </trkpt>
      <trkpt lat="44.65197" lon="5.64339">
        <ele>1809.82</ele>
        <time>2015-06-25T09:15:28Z</time>
      </trkpt>
      <trkpt lat="44.65203" lon="5.64352">
        <ele>1807.42</ele>
        <time>2015-06-25T09:15:43Z</time>
      </trkpt>
      <trkpt lat="44.65207" lon="5.64357">
        <ele>1805.97</ele>
        <time>2015-06-25T09:15:57Z</time>
      </trkpt>
      <trkpt lat="44.65206" lon="5.64365">
        <ele>1804.05</ele>
        <time>2015-06-25T09:16:11Z</time>
      </trkpt>
      <trkpt lat="44.6521" lon="5.64376">
        <ele>1801.17</ele>
        <time>2015-06-25T09:16:27Z</time>
      </trkpt>
      <trkpt lat="44.65214" lon="5.64383">
        <ele>1799.24</ele>
        <time>2015-06-25T09:16:45Z</time>
      </trkpt>
      <trkpt lat="44.6522" lon="5.64399">
        <ele>1796.84</ele>
        <time>2015-06-25T09:17:00Z</time>
      </trkpt>
      <trkpt lat="44.65222" lon="5.64414">
        <ele>1795.4</ele>
        <time>2015-06-25T09:17:15Z</time>
      </trkpt>
      <trkpt lat="44.65225" lon="5.64421">
        <ele>1795.4</ele>
        <time>2015-06-25T09:17:29Z</time>
      </trkpt>
      <trkpt lat="44.65229" lon="5.64437">
        <ele>1795.88</ele>
        <time>2015-06-25T09:17:43Z</time>
      </trkpt>
      <trkpt lat="44.65229" lon="5.6444">
        <ele>1795.88</ele>
        <time>2015-06-25T09:17:46Z</time>
      </trkpt>
      <trkpt lat="44.65235" lon="5.64454">
        <ele>1794.92</ele>
        <time>2015-06-25T09:18:02Z</time>
      </trkpt>
      <trkpt lat="44.65237" lon="5.64459">
        <ele>1794.44</ele>
        <time>2015-06-25T09:18:08Z</time>
      </trkpt>
      <trkpt lat="44.65241" lon="5.64464">
        <ele>1793.96</ele>
        <time>2015-06-25T09:18:14Z</time>
      </trkpt>
      <trkpt lat="44.65244" lon="5.64475">
        <ele>1794.44</ele>
        <time>2015-06-25T09:18:26Z</time>
      </trkpt>
      <trkpt lat="44.65244" lon="5.64484">
        <ele>1795.88</ele>
        <time>2015-06-25T09:18:37Z</time>
      </trkpt>
      <trkpt lat="44.65246" lon="5.64498">
        <ele>1797.8</ele>
        <time>2015-06-25T09:18:53Z</time>
      </trkpt>
      <trkpt lat="44.65248" lon="5.64506">
        <ele>1799.24</ele>
        <time>2015-06-25T09:19:06Z</time>
      </trkpt>
      <trkpt lat="44.6525" lon="5.6452">
        <ele>1801.17</ele>
        <time>2015-06-25T09:19:21Z</time>
      </trkpt>
      <trkpt lat="44.65251" lon="5.64518">
        <ele>1801.17</ele>
        <time>2015-06-25T09:19:37Z</time>
      </trkpt>
      <trkpt lat="44.65251" lon="5.64516">
        <ele>1801.17</ele>
        <time>2015-06-25T09:19:57Z</time>
      </trkpt>
      <trkpt lat="44.65246" lon="5.64522">
        <ele>1800.69</ele>
        <time>2015-06-25T09:20:12Z</time>
      </trkpt>
      <trkpt lat="44.65244" lon="5.64529">
        <ele>1799.73</ele>
        <time>2015-06-25T09:20:34Z</time>
      </trkpt>
      <trkpt lat="44.65244" lon="5.64539">
        <ele>1798.28</ele>
        <time>2015-06-25T09:20:47Z</time>
      </trkpt>
      <trkpt lat="44.65243" lon="5.64547">
        <ele>1797.8</ele>
        <time>2015-06-25T09:20:58Z</time>
      </trkpt>
      <trkpt lat="44.65243" lon="5.64562">
        <ele>1796.36</ele>
        <time>2015-06-25T09:21:11Z</time>
      </trkpt>
      <trkpt lat="44.65242" lon="5.64578">
        <ele>1797.8</ele>
        <time>2015-06-25T09:21:24Z</time>
      </trkpt>
      <trkpt lat="44.65242" lon="5.64579">
        <ele>1797.32</ele>
        <time>2015-06-25T09:21:25Z</time>
      </trkpt>
      <trkpt lat="44.6524" lon="5.64595">
        <ele>1798.28</ele>
        <time>2015-06-25T09:21:39Z</time>
      </trkpt>
      <trkpt lat="44.65238" lon="5.6461">
        <ele>1798.28</ele>
        <time>2015-06-25T09:21:51Z</time>
      </trkpt>
      <trkpt lat="44.65237" lon="5.64622">
        <ele>1798.28</ele>
        <time>2015-06-25T09:22:04Z</time>
      </trkpt>
      <trkpt lat="44.65237" lon="5.64623">
        <ele>1797.8</ele>
        <time>2015-06-25T09:22:05Z</time>
      </trkpt>
      <trkpt lat="44.65238" lon="5.64634">
        <ele>1799.24</ele>
        <time>2015-06-25T09:22:18Z</time>
      </trkpt>
      <trkpt lat="44.65239" lon="5.64642">
        <ele>1801.65</ele>
        <time>2015-06-25T09:22:33Z</time>
      </trkpt>
      <trkpt lat="44.65237" lon="5.64645">
        <ele>1802.61</ele>
        <time>2015-06-25T09:22:49Z</time>
      </trkpt>
      <trkpt lat="44.65236" lon="5.64653">
        <ele>1804.53</ele>
        <time>2015-06-25T09:23:02Z</time>
      </trkpt>
      <trkpt lat="44.65234" lon="5.6466">
        <ele>1806.94</ele>
        <time>2015-06-25T09:23:15Z</time>
      </trkpt>
      <trkpt lat="44.65232" lon="5.64668">
        <ele>1809.34</ele>
        <time>2015-06-25T09:23:30Z</time>
      </trkpt>
      <trkpt lat="44.65231" lon="5.64676">
        <ele>1811.26</ele>
        <time>2015-06-25T09:23:43Z</time>
      </trkpt>
      <trkpt lat="44.6523" lon="5.6468">
        <ele>1812.7</ele>
        <time>2015-06-25T09:24:00Z</time>
      </trkpt>
      <trkpt lat="44.65227" lon="5.64685">
        <ele>1814.15</ele>
        <time>2015-06-25T09:24:18Z</time>
      </trkpt>
      <trkpt lat="44.65225" lon="5.64693">
        <ele>1816.55</ele>
        <time>2015-06-25T09:24:33Z</time>
      </trkpt>
      <trkpt lat="44.65223" lon="5.64701">
        <ele>1818.47</ele>
        <time>2015-06-25T09:24:46Z</time>
      </trkpt>
      <trkpt lat="44.65223" lon="5.64706">
        <ele>1820.87</ele>
        <time>2015-06-25T09:24:59Z</time>
      </trkpt>
      <trkpt lat="44.65225" lon="5.64711">
        <ele>1823.28</ele>
        <time>2015-06-25T09:25:14Z</time>
      </trkpt>
      <trkpt lat="44.65223" lon="5.64717">
        <ele>1825.2</ele>
        <time>2015-06-25T09:25:28Z</time>
      </trkpt>
      <trkpt lat="44.65222" lon="5.64723">
        <ele>1827.12</ele>
        <time>2015-06-25T09:25:41Z</time>
      </trkpt>
      <trkpt lat="44.65224" lon="5.64728">
        <ele>1829.53</ele>
        <time>2015-06-25T09:25:54Z</time>
      </trkpt>
      <trkpt lat="44.65227" lon="5.64733">
        <ele>1831.93</ele>
        <time>2015-06-25T09:26:08Z</time>
      </trkpt>
      <trkpt lat="44.65235" lon="5.64736">
        <ele>1834.81</ele>
        <time>2015-06-25T09:26:26Z</time>
      </trkpt>
      <trkpt lat="44.65234" lon="5.64742">
        <ele>1836.26</ele>
        <time>2015-06-25T09:26:44Z</time>
      </trkpt>
      <trkpt lat="44.65231" lon="5.64748">
        <ele>1837.7</ele>
        <time>2015-06-25T09:27:05Z</time>
      </trkpt>
      <trkpt lat="44.65236" lon="5.64754">
        <ele>1841.06</ele>
        <time>2015-06-25T09:27:21Z</time>
      </trkpt>
      <trkpt lat="44.65231" lon="5.64764">
        <ele>1841.54</ele>
        <time>2015-06-25T09:27:36Z</time>
      </trkpt>
      <trkpt lat="44.65236" lon="5.64769">
        <ele>1843.95</ele>
        <time>2015-06-25T09:27:50Z</time>
      </trkpt>
      <trkpt lat="44.65231" lon="5.6478">
        <ele>1846.35</ele>
        <time>2015-06-25T09:28:04Z</time>
      </trkpt>
      <trkpt lat="44.6523" lon="5.64788">
        <ele>1847.79</ele>
        <time>2015-06-25T09:28:17Z</time>
      </trkpt>
      <trkpt lat="44.65237" lon="5.64789">
        <ele>1849.71</ele>
        <time>2015-06-25T09:28:31Z</time>
      </trkpt>
      <trkpt lat="44.65234" lon="5.64798">
        <ele>1851.64</ele>
        <time>2015-06-25T09:28:45Z</time>
      </trkpt>
      <trkpt lat="44.65237" lon="5.64804">
        <ele>1853.56</ele>
        <time>2015-06-25T09:28:57Z</time>
      </trkpt>
      <trkpt lat="44.65237" lon="5.64816">
        <ele>1855.96</ele>
        <time>2015-06-25T09:29:10Z</time>
      </trkpt>
      <trkpt lat="44.65236" lon="5.6482">
        <ele>1856.44</ele>
        <time>2015-06-25T09:29:26Z</time>
      </trkpt>
      <trkpt lat="44.65237" lon="5.6482">
        <ele>1856.44</ele>
        <time>2015-06-25T09:29:30Z</time>
      </trkpt>
      <trkpt lat="44.65236" lon="5.64828">
        <ele>1856.92</ele>
        <time>2015-06-25T09:29:45Z</time>
      </trkpt>
      <trkpt lat="44.65235" lon="5.64826">
        <ele>1855.96</ele>
        <time>2015-06-25T09:30:02Z</time>
      </trkpt>
      <trkpt lat="44.65236" lon="5.64825">
        <ele>1855.96</ele>
        <time>2015-06-25T09:30:25Z</time>
      </trkpt>
      <trkpt lat="44.65235" lon="5.64826">
        <ele>1855.96</ele>
        <time>2015-06-25T09:30:56Z</time>
      </trkpt>
      <trkpt lat="44.65231" lon="5.64821">
        <ele>1855.96</ele>
        <time>2015-06-25T09:31:26Z</time>
      </trkpt>
      <trkpt lat="44.65231" lon="5.64827">
        <ele>1855.48</ele>
        <time>2015-06-25T09:31:49Z</time>
      </trkpt>
      <trkpt lat="44.65237" lon="5.64837">
        <ele>1855.96</ele>
        <time>2015-06-25T09:32:15Z</time>
      </trkpt>
      <trkpt lat="44.65238" lon="5.64827">
        <ele>1856.92</ele>
        <time>2015-06-25T09:32:35Z</time>
      </trkpt>
      <trkpt lat="44.65245" lon="5.64826">
        <ele>1858.85</ele>
        <time>2015-06-25T09:32:49Z</time>
      </trkpt>
      <trkpt lat="44.65245" lon="5.64824">
        <ele>1859.33</ele>
        <time>2015-06-25T09:33:03Z</time>
      </trkpt>
      <trkpt lat="44.65249" lon="5.64824">
        <ele>1860.29</ele>
        <time>2015-06-25T09:33:19Z</time>
      </trkpt>
      <trkpt lat="44.65253" lon="5.6483">
        <ele>1860.77</ele>
        <time>2015-06-25T09:33:32Z</time>
      </trkpt>
      <trkpt lat="44.65251" lon="5.6483">
        <ele>1860.77</ele>
        <time>2015-06-25T09:33:52Z</time>
      </trkpt>
      <trkpt lat="44.65252" lon="5.64832">
        <ele>1860.29</ele>
        <time>2015-06-25T09:34:14Z</time>
      </trkpt>
      <trkpt lat="44.65251" lon="5.64832">
        <ele>1860.29</ele>
        <time>2015-06-25T09:34:41Z</time>
      </trkpt>
      <trkpt lat="44.65251" lon="5.64832">
        <ele>1860.29</ele>
        <time>2015-06-25T09:35:05Z</time>
      </trkpt>
      <trkpt lat="44.65251" lon="5.64834">
        <ele>1860.29</ele>
        <time>2015-06-25T09:35:22Z</time>
      </trkpt>
      <trkpt lat="44.65251" lon="5.64834">
        <ele>1859.81</ele>
        <time>2015-06-25T09:35:48Z</time>
      </trkpt>
      <trkpt lat="44.65251" lon="5.64833">
        <ele>1860.29</ele>
        <time>2015-06-25T09:36:15Z</time>
      </trkpt>
      <trkpt lat="44.6525" lon="5.64834">
        <ele>1860.29</ele>
        <time>2015-06-25T09:36:36Z</time>
      </trkpt>
      <trkpt lat="44.6525" lon="5.64832">
        <ele>1860.29</ele>
        <time>2015-06-25T09:37:03Z</time>
      </trkpt>
      <trkpt lat="44.65255" lon="5.64833">
        <ele>1860.29</ele>
        <time>2015-06-25T09:37:20Z</time>
      </trkpt>
      <trkpt lat="44.65256" lon="5.64831">
        <ele>1860.29</ele>
        <time>2015-06-25T09:37:44Z</time>
      </trkpt>
      <trkpt lat="44.65256" lon="5.64838">
        <ele>1859.81</ele>
        <time>2015-06-25T09:38:06Z</time>
      </trkpt>
      <trkpt lat="44.65261" lon="5.64846">
        <ele>1859.33</ele>
        <time>2015-06-25T09:38:13Z</time>
      </trkpt>
      <trkpt lat="44.6527" lon="5.64857">
        <ele>1860.77</ele>
        <time>2015-06-25T09:38:25Z</time>
      </trkpt>
      <trkpt lat="44.65274" lon="5.64865">
        <ele>1862.21</ele>
        <time>2015-06-25T09:38:33Z</time>
      </trkpt>
      <trkpt lat="44.65283" lon="5.64879">
        <ele>1862.69</ele>
        <time>2015-06-25T09:38:48Z</time>
      </trkpt>
      <trkpt lat="44.65291" lon="5.64894">
        <ele>1863.17</ele>
        <time>2015-06-25T09:39:04Z</time>
      </trkpt>
      <trkpt lat="44.65297" lon="5.64902">
        <ele>1865.09</ele>
        <time>2015-06-25T09:39:20Z</time>
      </trkpt>
      <trkpt lat="44.65303" lon="5.64913">
        <ele>1866.54</ele>
        <time>2015-06-25T09:39:35Z</time>
      </trkpt>
      <trkpt lat="44.65309" lon="5.64916">
        <ele>1867.98</ele>
        <time>2015-06-25T09:39:49Z</time>
      </trkpt>
      <trkpt lat="44.65318" lon="5.64919">
        <ele>1870.86</ele>
        <time>2015-06-25T09:40:05Z</time>
      </trkpt>
      <trkpt lat="44.65327" lon="5.64922">
        <ele>1872.3</ele>
        <time>2015-06-25T09:40:18Z</time>
      </trkpt>
      <trkpt lat="44.65334" lon="5.64936">
        <ele>1873.75</ele>
        <time>2015-06-25T09:40:32Z</time>
      </trkpt>
      <trkpt lat="44.6534" lon="5.64946">
        <ele>1876.63</ele>
        <time>2015-06-25T09:40:46Z</time>
      </trkpt>
      <trkpt lat="44.65341" lon="5.64953">
        <ele>1877.11</ele>
        <time>2015-06-25T09:41:01Z</time>
      </trkpt>
      <trkpt lat="44.65344" lon="5.64965">
        <ele>1879.51</ele>
        <time>2015-06-25T09:41:18Z</time>
      </trkpt>
      <trkpt lat="44.65348" lon="5.64976">
        <ele>1881.44</ele>
        <time>2015-06-25T09:41:35Z</time>
      </trkpt>
      <trkpt lat="44.65351" lon="5.64984">
        <ele>1883.84</ele>
        <time>2015-06-25T09:41:50Z</time>
      </trkpt>
      <trkpt lat="44.65356" lon="5.64993">
        <ele>1885.76</ele>
        <time>2015-06-25T09:42:05Z</time>
      </trkpt>
      <trkpt lat="44.65367" lon="5.65005">
        <ele>1886.24</ele>
        <time>2015-06-25T09:42:19Z</time>
      </trkpt>
      <trkpt lat="44.65367" lon="5.65006">
        <ele>1886.24</ele>
        <time>2015-06-25T09:42:20Z</time>
      </trkpt>
      <trkpt lat="44.65373" lon="5.65014">
        <ele>1885.76</ele>
        <time>2015-06-25T09:42:33Z</time>
      </trkpt>
      <trkpt lat="44.65372" lon="5.65015">
        <ele>1886.24</ele>
        <time>2015-06-25T09:42:49Z</time>
      </trkpt>
      <trkpt lat="44.65377" lon="5.65012">
        <ele>1886.24</ele>
        <time>2015-06-25T09:43:10Z</time>
      </trkpt>
      <trkpt lat="44.65377" lon="5.65011">
        <ele>1887.69</ele>
        <time>2015-06-25T09:43:30Z</time>
      </trkpt>
      <trkpt lat="44.65379" lon="5.65008">
        <ele>1886.72</ele>
        <time>2015-06-25T09:43:53Z</time>
      </trkpt>
      <trkpt lat="44.65378" lon="5.65013">
        <ele>1886.72</ele>
        <time>2015-06-25T09:44:08Z</time>
      </trkpt>
      <trkpt lat="44.65378" lon="5.65014">
        <ele>1886.72</ele>
        <time>2015-06-25T09:44:30Z</time>
      </trkpt>
      <trkpt lat="44.65379" lon="5.65017">
        <ele>1886.24</ele>
        <time>2015-06-25T09:44:51Z</time>
      </trkpt>
      <trkpt lat="44.6538" lon="5.65018">
        <ele>1885.76</ele>
        <time>2015-06-25T09:45:01Z</time>
      </trkpt>
      <trkpt lat="44.65391" lon="5.65018">
        <ele>1884.32</ele>
        <time>2015-06-25T09:45:14Z</time>
      </trkpt>
      <trkpt lat="44.65392" lon="5.6502">
        <ele>1884.8</ele>
        <time>2015-06-25T09:45:16Z</time>
      </trkpt>
      <trkpt lat="44.65404" lon="5.65032">
        <ele>1883.84</ele>
        <time>2015-06-25T09:45:32Z</time>
      </trkpt>
      <trkpt lat="44.65415" lon="5.6504">
        <ele>1883.84</ele>
        <time>2015-06-25T09:45:46Z</time>
      </trkpt>
      <trkpt lat="44.65426" lon="5.65045">
        <ele>1883.36</ele>
        <time>2015-06-25T09:45:58Z</time>
      </trkpt>
      <trkpt lat="44.65433" lon="5.65052">
        <ele>1884.32</ele>
        <time>2015-06-25T09:46:09Z</time>
      </trkpt>
      <trkpt lat="44.65441" lon="5.65059">
        <ele>1885.76</ele>
        <time>2015-06-25T09:46:23Z</time>
      </trkpt>
      <trkpt lat="44.65452" lon="5.65065">
        <ele>1888.17</ele>
        <time>2015-06-25T09:46:38Z</time>
      </trkpt>
      <trkpt lat="44.65454" lon="5.65075">
        <ele>1889.61</ele>
        <time>2015-06-25T09:46:49Z</time>
      </trkpt>
      <trkpt lat="44.65455" lon="5.65087">
        <ele>1890.57</ele>
        <time>2015-06-25T09:47:03Z</time>
      </trkpt>
      <trkpt lat="44.65465" lon="5.65098">
        <ele>1890.09</ele>
        <time>2015-06-25T09:47:19Z</time>
      </trkpt>
      <trkpt lat="44.65471" lon="5.65112">
        <ele>1890.57</ele>
        <time>2015-06-25T09:47:33Z</time>
      </trkpt>
      <trkpt lat="44.6547" lon="5.65116">
        <ele>1890.09</ele>
        <time>2015-06-25T09:47:47Z</time>
      </trkpt>
      <trkpt lat="44.65472" lon="5.65119">
        <ele>1890.09</ele>
        <time>2015-06-25T09:48:12Z</time>
      </trkpt>
      <trkpt lat="44.65473" lon="5.65117">
        <ele>1890.09</ele>
        <time>2015-06-25T09:48:34Z</time>
      </trkpt>
      <trkpt lat="44.65474" lon="5.65115">
        <ele>1890.09</ele>
        <time>2015-06-25T09:48:55Z</time>
      </trkpt>
      <trkpt lat="44.65469" lon="5.65116">
        <ele>1890.09</ele>
        <time>2015-06-25T09:49:10Z</time>
      </trkpt>
      <trkpt lat="44.6547" lon="5.65118">
        <ele>1891.05</ele>
        <time>2015-06-25T09:49:33Z</time>
      </trkpt>
      <trkpt lat="44.65473" lon="5.65116">
        <ele>1890.09</ele>
        <time>2015-06-25T09:49:55Z</time>
      </trkpt>
      <trkpt lat="44.65473" lon="5.65109">
        <ele>1891.05</ele>
        <time>2015-06-25T09:50:14Z</time>
      </trkpt>
      <trkpt lat="44.65471" lon="5.65102">
        <ele>1891.05</ele>
        <time>2015-06-25T09:50:27Z</time>
      </trkpt>
      <trkpt lat="44.6547" lon="5.65101">
        <ele>1891.53</ele>
        <time>2015-06-25T09:50:30Z</time>
      </trkpt>
      <trkpt lat="44.65469" lon="5.651">
        <ele>1891.05</ele>
        <time>2015-06-25T09:50:45Z</time>
      </trkpt>
      <trkpt lat="44.65474" lon="5.6511">
        <ele>1891.05</ele>
        <time>2015-06-25T09:50:59Z</time>
      </trkpt>
      <trkpt lat="44.65473" lon="5.65107">
        <ele>1891.05</ele>
        <time>2015-06-25T09:51:17Z</time>
      </trkpt>
      <trkpt lat="44.65475" lon="5.65107">
        <ele>1891.05</ele>
        <time>2015-06-25T09:51:35Z</time>
      </trkpt>
      <trkpt lat="44.65474" lon="5.65107">
        <ele>1891.05</ele>
        <time>2015-06-25T09:51:42Z</time>
      </trkpt>
      <trkpt lat="44.65472" lon="5.6511">
        <ele>1890.09</ele>
        <time>2015-06-25T09:51:56Z</time>
      </trkpt>
      <trkpt lat="44.65471" lon="5.6511">
        <ele>1890.57</ele>
        <time>2015-06-25T09:52:28Z</time>
      </trkpt>
      <trkpt lat="44.6547" lon="5.65109">
        <ele>1890.09</ele>
        <time>2015-06-25T09:53:02Z</time>
      </trkpt>
      <trkpt lat="44.65471" lon="5.65112">
        <ele>1890.57</ele>
        <time>2015-06-25T09:53:31Z</time>
      </trkpt>
      <trkpt lat="44.65472" lon="5.65112">
        <ele>1890.57</ele>
        <time>2015-06-25T09:54:05Z</time>
      </trkpt>
      <trkpt lat="44.65472" lon="5.65111">
        <ele>1890.09</ele>
        <time>2015-06-25T09:54:40Z</time>
      </trkpt>
      <trkpt lat="44.65472" lon="5.65111">
        <ele>1890.09</ele>
        <time>2015-06-25T09:55:09Z</time>
      </trkpt>
      <trkpt lat="44.65472" lon="5.65111">
        <ele>1890.57</ele>
        <time>2015-06-25T09:55:40Z</time>
      </trkpt>
      <trkpt lat="44.65471" lon="5.65111">
        <ele>1890.57</ele>
        <time>2015-06-25T09:56:17Z</time>
      </trkpt>
      <trkpt lat="44.65471" lon="5.6511">
        <ele>1891.05</ele>
        <time>2015-06-25T09:56:57Z</time>
      </trkpt>
      <trkpt lat="44.6547" lon="5.6511">
        <ele>1891.05</ele>
        <time>2015-06-25T09:57:29Z</time>
      </trkpt>
      <trkpt lat="44.65469" lon="5.65109">
        <ele>1891.05</ele>
        <time>2015-06-25T09:58:15Z</time>
      </trkpt>
      <trkpt lat="44.65471" lon="5.6511">
        <ele>1891.05</ele>
        <time>2015-06-25T09:58:41Z</time>
      </trkpt>
      <trkpt lat="44.65471" lon="5.65109">
        <ele>1891.05</ele>
        <time>2015-06-25T09:59:20Z</time>
      </trkpt>
      <trkpt lat="44.6547" lon="5.6511">
        <ele>1891.05</ele>
        <time>2015-06-25T09:59:43Z</time>
      </trkpt>
      <trkpt lat="44.65471" lon="5.6511">
        <ele>1891.05</ele>
        <time>2015-06-25T10:00:15Z</time>
      </trkpt>
      <trkpt lat="44.65471" lon="5.65109">
        <ele>1891.53</ele>
        <time>2015-06-25T10:00:53Z</time>
      </trkpt>
      <trkpt lat="44.65471" lon="5.65109">
        <ele>1891.53</ele>
        <time>2015-06-25T10:01:31Z</time>
      </trkpt>
      <trkpt lat="44.65471" lon="5.6511">
        <ele>1891.53</ele>
        <time>2015-06-25T10:02:11Z</time>
      </trkpt>
      <trkpt lat="44.65471" lon="5.6511">
        <ele>1892.01</ele>
        <time>2015-06-25T10:02:33Z</time>
      </trkpt>
      <trkpt lat="44.65471" lon="5.6511">
        <ele>1892.01</ele>
        <time>2015-06-25T10:02:59Z</time>
      </trkpt>
      <trkpt lat="44.65471" lon="5.6511">
        <ele>1892.01</ele>
        <time>2015-06-25T10:03:30Z</time>
      </trkpt>
      <trkpt lat="44.65471" lon="5.6511">
        <ele>1892.01</ele>
        <time>2015-06-25T10:04:05Z</time>
      </trkpt>
      <trkpt lat="44.65471" lon="5.65109">
        <ele>1892.01</ele>
        <time>2015-06-25T10:04:29Z</time>
      </trkpt>
      <trkpt lat="44.65471" lon="5.65112">
        <ele>1892.01</ele>
        <time>2015-06-25T10:04:52Z</time>
      </trkpt>
      <trkpt lat="44.65471" lon="5.65113">
        <ele>1892.49</ele>
        <time>2015-06-25T10:05:22Z</time>
      </trkpt>
      <trkpt lat="44.6547" lon="5.65116">
        <ele>1892.49</ele>
        <time>2015-06-25T10:06:01Z</time>
      </trkpt>
      <trkpt lat="44.65472" lon="5.65114">
        <ele>1892.49</ele>
        <time>2015-06-25T10:06:43Z</time>
      </trkpt>
      <trkpt lat="44.65472" lon="5.65114">
        <ele>1892.49</ele>
        <time>2015-06-25T10:07:23Z</time>
      </trkpt>
      <trkpt lat="44.65473" lon="5.65112">
        <ele>1892.49</ele>
        <time>2015-06-25T10:08:04Z</time>
      </trkpt>
      <trkpt lat="44.65473" lon="5.6511">
        <ele>1892.49</ele>
        <time>2015-06-25T10:08:47Z</time>
      </trkpt>
      <trkpt lat="44.65474" lon="5.6511">
        <ele>1892.97</ele>
        <time>2015-06-25T10:09:24Z</time>
      </trkpt>
      <trkpt lat="44.65473" lon="5.6511">
        <ele>1892.97</ele>
        <time>2015-06-25T10:10:12Z</time>
      </trkpt>
      <trkpt lat="44.65473" lon="5.6511">
        <ele>1892.01</ele>
        <time>2015-06-25T10:10:59Z</time>
      </trkpt>
      <trkpt lat="44.65473" lon="5.65109">
        <ele>1892.01</ele>
        <time>2015-06-25T10:11:35Z</time>
      </trkpt>
      <trkpt lat="44.65474" lon="5.6511">
        <ele>1892.01</ele>
        <time>2015-06-25T10:12:21Z</time>
      </trkpt>
      <trkpt lat="44.65472" lon="5.65112">
        <ele>1891.53</ele>
        <time>2015-06-25T10:13:05Z</time>
      </trkpt>
      <trkpt lat="44.65472" lon="5.65111">
        <ele>1892.01</ele>
        <time>2015-06-25T10:13:49Z</time>
      </trkpt>
      <trkpt lat="44.65473" lon="5.65111">
        <ele>1891.53</ele>
        <time>2015-06-25T10:14:31Z</time>
      </trkpt>
      <trkpt lat="44.65473" lon="5.6511">
        <ele>1892.49</ele>
        <time>2015-06-25T10:15:15Z</time>
      </trkpt>
      <trkpt lat="44.65473" lon="5.6511">
        <ele>1891.53</ele>
        <time>2015-06-25T10:15:56Z</time>
      </trkpt>
      <trkpt lat="44.65473" lon="5.6511">
        <ele>1891.53</ele>
        <time>2015-06-25T10:16:31Z</time>
      </trkpt>
      <trkpt lat="44.65472" lon="5.65109">
        <ele>1891.53</ele>
        <time>2015-06-25T10:16:56Z</time>
      </trkpt>
      <trkpt lat="44.65472" lon="5.65109">
        <ele>1892.01</ele>
        <time>2015-06-25T10:17:25Z</time>
      </trkpt>
      <trkpt lat="44.65472" lon="5.65109">
        <ele>1892.49</ele>
        <time>2015-06-25T10:17:54Z</time>
      </trkpt>
      <trkpt lat="44.65472" lon="5.65109">
        <ele>1892.49</ele>
        <time>2015-06-25T10:18:28Z</time>
      </trkpt>
      <trkpt lat="44.65472" lon="5.65108">
        <ele>1892.49</ele>
        <time>2015-06-25T10:18:57Z</time>
      </trkpt>
      <trkpt lat="44.65471" lon="5.65108">
        <ele>1892.01</ele>
        <time>2015-06-25T10:19:34Z</time>
      </trkpt>
      <trkpt lat="44.65472" lon="5.65108">
        <ele>1892.49</ele>
        <time>2015-06-25T10:20:10Z</time>
      </trkpt>
      <trkpt lat="44.65472" lon="5.65109">
        <ele>1892.49</ele>
        <time>2015-06-25T10:20:47Z</time>
      </trkpt>
      <trkpt lat="44.65471" lon="5.65108">
        <ele>1892.01</ele>
        <time>2015-06-25T10:21:16Z</time>
      </trkpt>
      <trkpt lat="44.65471" lon="5.65107">
        <ele>1892.01</ele>
        <time>2015-06-25T10:21:50Z</time>
      </trkpt>
      <trkpt lat="44.65471" lon="5.65109">
        <ele>1892.01</ele>
        <time>2015-06-25T10:22:26Z</time>
      </trkpt>
      <trkpt lat="44.65472" lon="5.65108">
        <ele>1892.01</ele>
        <time>2015-06-25T10:22:56Z</time>
      </trkpt>
      <trkpt lat="44.65471" lon="5.65108">
        <ele>1891.53</ele>
        <time>2015-06-25T10:23:34Z</time>
      </trkpt>
      <trkpt lat="44.65471" lon="5.65108">
        <ele>1891.53</ele>
        <time>2015-06-25T10:24:07Z</time>
      </trkpt>
      <trkpt lat="44.65471" lon="5.65107">
        <ele>1892.01</ele>
        <time>2015-06-25T10:24:44Z</time>
      </trkpt>
      <trkpt lat="44.65471" lon="5.65107">
        <ele>1891.53</ele>
        <time>2015-06-25T10:25:11Z</time>
      </trkpt>
      <trkpt lat="44.65472" lon="5.65108">
        <ele>1892.49</ele>
        <time>2015-06-25T10:25:49Z</time>
      </trkpt>
      <trkpt lat="44.65471" lon="5.65108">
        <ele>1892.01</ele>
        <time>2015-06-25T10:26:21Z</time>
      </trkpt>
      <trkpt lat="44.6547" lon="5.65108">
        <ele>1892.49</ele>
        <time>2015-06-25T10:26:49Z</time>
      </trkpt>
      <trkpt lat="44.6547" lon="5.65107">
        <ele>1892.49</ele>
        <time>2015-06-25T10:27:12Z</time>
      </trkpt>
      <trkpt lat="44.65471" lon="5.65108">
        <ele>1892.49</ele>
        <time>2015-06-25T10:27:41Z</time>
      </trkpt>
      <trkpt lat="44.6547" lon="5.65109">
        <ele>1892.49</ele>
        <time>2015-06-25T10:28:13Z</time>
      </trkpt>
      <trkpt lat="44.65471" lon="5.65108">
        <ele>1892.97</ele>
        <time>2015-06-25T10:28:42Z</time>
      </trkpt>
      <trkpt lat="44.65471" lon="5.65108">
        <ele>1892.49</ele>
        <time>2015-06-25T10:29:20Z</time>
      </trkpt>
      <trkpt lat="44.65471" lon="5.65108">
        <ele>1892.49</ele>
        <time>2015-06-25T10:30:02Z</time>
      </trkpt>
      <trkpt lat="44.65472" lon="5.65107">
        <ele>1892.49</ele>
        <time>2015-06-25T10:30:46Z</time>
      </trkpt>
      <trkpt lat="44.65472" lon="5.65107">
        <ele>1892.49</ele>
        <time>2015-06-25T10:31:27Z</time>
      </trkpt>
      <trkpt lat="44.6547" lon="5.65107">
        <ele>1892.01</ele>
        <time>2015-06-25T10:32:03Z</time>
      </trkpt>
      <trkpt lat="44.65469" lon="5.65106">
        <ele>1892.01</ele>
        <time>2015-06-25T10:32:40Z</time>
      </trkpt>
      <trkpt lat="44.65471" lon="5.65108">
        <ele>1892.97</ele>
        <time>2015-06-25T10:33:23Z</time>
      </trkpt>
      <trkpt lat="44.65471" lon="5.65107">
        <ele>1892.49</ele>
        <time>2015-06-25T10:33:54Z</time>
      </trkpt>
      <trkpt lat="44.65471" lon="5.65107">
        <ele>1892.01</ele>
        <time>2015-06-25T10:34:35Z</time>
      </trkpt>
      <trkpt lat="44.65469" lon="5.65107">
        <ele>1892.01</ele>
        <time>2015-06-25T10:35:19Z</time>
      </trkpt>
      <trkpt lat="44.65471" lon="5.65107">
        <ele>1892.49</ele>
        <time>2015-06-25T10:36:06Z</time>
      </trkpt>
      <trkpt lat="44.65472" lon="5.65107">
        <ele>1892.49</ele>
        <time>2015-06-25T10:36:50Z</time>
      </trkpt>
      <trkpt lat="44.65472" lon="5.65107">
        <ele>1892.49</ele>
        <time>2015-06-25T10:37:29Z</time>
      </trkpt>
      <trkpt lat="44.65472" lon="5.65108">
        <ele>1892.49</ele>
        <time>2015-06-25T10:38:17Z</time>
      </trkpt>
      <trkpt lat="44.65474" lon="5.65107">
        <ele>1892.49</ele>
        <time>2015-06-25T10:38:59Z</time>
      </trkpt>
      <trkpt lat="44.65473" lon="5.65107">
        <ele>1892.01</ele>
        <time>2015-06-25T10:39:41Z</time>
      </trkpt>
      <trkpt lat="44.65473" lon="5.65108">
        <ele>1892.01</ele>
        <time>2015-06-25T10:40:21Z</time>
      </trkpt>
      <trkpt lat="44.65471" lon="5.65107">
        <ele>1892.01</ele>
        <time>2015-06-25T10:40:54Z</time>
      </trkpt>
      <trkpt lat="44.65472" lon="5.65107">
        <ele>1891.53</ele>
        <time>2015-06-25T10:41:30Z</time>
      </trkpt>
      <trkpt lat="44.65472" lon="5.65107">
        <ele>1892.49</ele>
        <time>2015-06-25T10:42:09Z</time>
      </trkpt>
      <trkpt lat="44.65472" lon="5.65108">
        <ele>1892.49</ele>
        <time>2015-06-25T10:42:49Z</time>
      </trkpt>
      <trkpt lat="44.65472" lon="5.65108">
        <ele>1891.53</ele>
        <time>2015-06-25T10:43:28Z</time>
      </trkpt>
      <trkpt lat="44.65472" lon="5.65108">
        <ele>1892.01</ele>
        <time>2015-06-25T10:44:05Z</time>
      </trkpt>
      <trkpt lat="44.65471" lon="5.65108">
        <ele>1891.53</ele>
        <time>2015-06-25T10:44:40Z</time>
      </trkpt>
      <trkpt lat="44.65472" lon="5.65108">
        <ele>1892.01</ele>
        <time>2015-06-25T10:45:18Z</time>
      </trkpt>
      <trkpt lat="44.65471" lon="5.65108">
        <ele>1892.01</ele>
        <time>2015-06-25T10:46:03Z</time>
      </trkpt>
      <trkpt lat="44.65471" lon="5.65107">
        <ele>1892.49</ele>
        <time>2015-06-25T10:46:49Z</time>
      </trkpt>
      <trkpt lat="44.65471" lon="5.65108">
        <ele>1892.97</ele>
        <time>2015-06-25T10:47:28Z</time>
      </trkpt>
      <trkpt lat="44.65472" lon="5.65108">
        <ele>1893.45</ele>
        <time>2015-06-25T10:48:07Z</time>
      </trkpt>
      <trkpt lat="44.65471" lon="5.65108">
        <ele>1892.97</ele>
        <time>2015-06-25T10:48:40Z</time>
      </trkpt>
      <trkpt lat="44.65471" lon="5.65108">
        <ele>1892.97</ele>
        <time>2015-06-25T10:49:15Z</time>
      </trkpt>
      <trkpt lat="44.65471" lon="5.65108">
        <ele>1893.45</ele>
        <time>2015-06-25T10:49:54Z</time>
      </trkpt>
      <trkpt lat="44.65471" lon="5.65108">
        <ele>1893.45</ele>
        <time>2015-06-25T10:50:37Z</time>
      </trkpt>
      <trkpt lat="44.65472" lon="5.65108">
        <ele>1893.45</ele>
        <time>2015-06-25T10:51:13Z</time>
      </trkpt>
      <trkpt lat="44.65472" lon="5.65108">
        <ele>1893.45</ele>
        <time>2015-06-25T10:51:53Z</time>
      </trkpt>
      <trkpt lat="44.65472" lon="5.65108">
        <ele>1893.45</ele>
        <time>2015-06-25T10:52:31Z</time>
      </trkpt>
      <trkpt lat="44.65472" lon="5.65108">
        <ele>1893.45</ele>
        <time>2015-06-25T10:53:06Z</time>
      </trkpt>
      <trkpt lat="44.65471" lon="5.65108">
        <ele>1893.45</ele>
        <time>2015-06-25T10:53:42Z</time>
      </trkpt>
      <trkpt lat="44.65472" lon="5.65108">
        <ele>1893.45</ele>
        <time>2015-06-25T10:54:16Z</time>
      </trkpt>
      <trkpt lat="44.65471" lon="5.65108">
        <ele>1893.93</ele>
        <time>2015-06-25T10:54:49Z</time>
      </trkpt>
      <trkpt lat="44.65472" lon="5.65108">
        <ele>1893.93</ele>
        <time>2015-06-25T10:55:31Z</time>
      </trkpt>
      <trkpt lat="44.65472" lon="5.65108">
        <ele>1893.93</ele>
        <time>2015-06-25T10:56:16Z</time>
      </trkpt>
      <trkpt lat="44.65472" lon="5.65108">
        <ele>1894.42</ele>
        <time>2015-06-25T10:56:59Z</time>
      </trkpt>
      <trkpt lat="44.65471" lon="5.65109">
        <ele>1894.42</ele>
        <time>2015-06-25T10:57:35Z</time>
      </trkpt>
      <trkpt lat="44.65472" lon="5.65109">
        <ele>1894.42</ele>
        <time>2015-06-25T10:58:12Z</time>
      </trkpt>
      <trkpt lat="44.65472" lon="5.65108">
        <ele>1894.42</ele>
        <time>2015-06-25T10:58:42Z</time>
      </trkpt>
      <trkpt lat="44.65472" lon="5.65108">
        <ele>1894.42</ele>
        <time>2015-06-25T10:59:20Z</time>
      </trkpt>
      <trkpt lat="44.65471" lon="5.65109">
        <ele>1894.42</ele>
        <time>2015-06-25T10:59:53Z</time>
      </trkpt>
      <trkpt lat="44.6547" lon="5.65108">
        <ele>1894.9</ele>
        <time>2015-06-25T11:00:21Z</time>
      </trkpt>
      <trkpt lat="44.65471" lon="5.65109">
        <ele>1894.9</ele>
        <time>2015-06-25T11:01:01Z</time>
      </trkpt>
      <trkpt lat="44.65472" lon="5.65108">
        <ele>1895.38</ele>
        <time>2015-06-25T11:01:27Z</time>
      </trkpt>
      <trkpt lat="44.65474" lon="5.65112">
        <ele>1895.86</ele>
        <time>2015-06-25T11:02:03Z</time>
      </trkpt>
      <trkpt lat="44.65473" lon="5.65114">
        <ele>1895.86</ele>
        <time>2015-06-25T11:02:48Z</time>
      </trkpt>
      <trkpt lat="44.65472" lon="5.65112">
        <ele>1896.82</ele>
        <time>2015-06-25T11:03:23Z</time>
      </trkpt>
      <trkpt lat="44.65474" lon="5.65116">
        <ele>1896.82</ele>
        <time>2015-06-25T11:04:03Z</time>
      </trkpt>
      <trkpt lat="44.65474" lon="5.65114">
        <ele>1896.34</ele>
        <time>2015-06-25T11:04:39Z</time>
      </trkpt>
      <trkpt lat="44.65473" lon="5.65114">
        <ele>1896.34</ele>
        <time>2015-06-25T11:05:16Z</time>
      </trkpt>
      <trkpt lat="44.65473" lon="5.65114">
        <ele>1896.34</ele>
        <time>2015-06-25T11:06:05Z</time>
      </trkpt>
      <trkpt lat="44.65473" lon="5.65114">
        <ele>1896.34</ele>
        <time>2015-06-25T11:06:44Z</time>
      </trkpt>
      <trkpt lat="44.65473" lon="5.65114">
        <ele>1896.34</ele>
        <time>2015-06-25T11:07:29Z</time>
      </trkpt>
      <trkpt lat="44.65474" lon="5.65113">
        <ele>1896.34</ele>
        <time>2015-06-25T11:08:00Z</time>
      </trkpt>
      <trkpt lat="44.65474" lon="5.65113">
        <ele>1897.3</ele>
        <time>2015-06-25T11:08:37Z</time>
      </trkpt>
      <trkpt lat="44.65474" lon="5.65112">
        <ele>1896.82</ele>
        <time>2015-06-25T11:09:19Z</time>
      </trkpt>
      <trkpt lat="44.65475" lon="5.65112">
        <ele>1896.82</ele>
        <time>2015-06-25T11:09:59Z</time>
      </trkpt>
      <trkpt lat="44.65475" lon="5.65112">
        <ele>1896.34</ele>
        <time>2015-06-25T11:10:39Z</time>
      </trkpt>
      <trkpt lat="44.65475" lon="5.65112">
        <ele>1896.82</ele>
        <time>2015-06-25T11:11:21Z</time>
      </trkpt>
      <trkpt lat="44.65475" lon="5.65112">
        <ele>1896.34</ele>
        <time>2015-06-25T11:12:04Z</time>
      </trkpt>
      <trkpt lat="44.65475" lon="5.65112">
        <ele>1895.86</ele>
        <time>2015-06-25T11:12:42Z</time>
      </trkpt>
      <trkpt lat="44.65476" lon="5.65111">
        <ele>1895.86</ele>
        <time>2015-06-25T11:13:27Z</time>
      </trkpt>
      <trkpt lat="44.65475" lon="5.65112">
        <ele>1895.86</ele>
        <time>2015-06-25T11:14:01Z</time>
      </trkpt>
      <trkpt lat="44.65475" lon="5.65111">
        <ele>1895.86</ele>
        <time>2015-06-25T11:14:41Z</time>
      </trkpt>
      <trkpt lat="44.65474" lon="5.65112">
        <ele>1896.34</ele>
        <time>2015-06-25T11:15:17Z</time>
      </trkpt>
      <trkpt lat="44.65474" lon="5.65112">
        <ele>1895.86</ele>
        <time>2015-06-25T11:15:58Z</time>
      </trkpt>
      <trkpt lat="44.65475" lon="5.65111">
        <ele>1895.86</ele>
        <time>2015-06-25T11:16:32Z</time>
      </trkpt>
      <trkpt lat="44.65475" lon="5.65112">
        <ele>1895.86</ele>
        <time>2015-06-25T11:17:11Z</time>
      </trkpt>
      <trkpt lat="44.65476" lon="5.65112">
        <ele>1895.86</ele>
        <time>2015-06-25T11:17:46Z</time>
      </trkpt>
      <trkpt lat="44.65473" lon="5.65108">
        <ele>1895.86</ele>
        <time>2015-06-25T11:18:26Z</time>
      </trkpt>
      <trkpt lat="44.65472" lon="5.65108">
        <ele>1895.86</ele>
        <time>2015-06-25T11:19:10Z</time>
      </trkpt>
      <trkpt lat="44.65472" lon="5.65109">
        <ele>1896.82</ele>
        <time>2015-06-25T11:19:44Z</time>
      </trkpt>
      <trkpt lat="44.65471" lon="5.65111">
        <ele>1897.3</ele>
        <time>2015-06-25T11:19:59Z</time>
      </trkpt>
      <trkpt lat="44.65472" lon="5.6511">
        <ele>1897.3</ele>
        <time>2015-06-25T11:20:22Z</time>
      </trkpt>
      <trkpt lat="44.65471" lon="5.65108">
        <ele>1897.78</ele>
        <time>2015-06-25T11:20:46Z</time>
      </trkpt>
      <trkpt lat="44.6547" lon="5.65111">
        <ele>1896.34</ele>
        <time>2015-06-25T11:21:02Z</time>
      </trkpt>
      <trkpt lat="44.65472" lon="5.65108">
        <ele>1896.82</ele>
        <time>2015-06-25T11:21:20Z</time>
      </trkpt>
      <trkpt lat="44.65475" lon="5.65111">
        <ele>1897.3</ele>
        <time>2015-06-25T11:21:37Z</time>
      </trkpt>
      <trkpt lat="44.65478" lon="5.65108">
        <ele>1897.78</ele>
        <time>2015-06-25T11:21:51Z</time>
      </trkpt>
      <trkpt lat="44.65478" lon="5.65109">
        <ele>1897.78</ele>
        <time>2015-06-25T11:22:11Z</time>
      </trkpt>
      <trkpt lat="44.65474" lon="5.65107">
        <ele>1897.78</ele>
        <time>2015-06-25T11:22:43Z</time>
      </trkpt>
      <trkpt lat="44.65475" lon="5.65107">
        <ele>1897.3</ele>
        <time>2015-06-25T11:23:07Z</time>
      </trkpt>
      <trkpt lat="44.65476" lon="5.65105">
        <ele>1897.3</ele>
        <time>2015-06-25T11:23:34Z</time>
      </trkpt>
      <trkpt lat="44.65477" lon="5.65108">
        <ele>1897.3</ele>
        <time>2015-06-25T11:23:58Z</time>
      </trkpt>
      <trkpt lat="44.65474" lon="5.65109">
        <ele>1896.82</ele>
        <time>2015-06-25T11:24:17Z</time>
      </trkpt>
      <trkpt lat="44.65473" lon="5.65107">
        <ele>1896.82</ele>
        <time>2015-06-25T11:24:47Z</time>
      </trkpt>
      <trkpt lat="44.65474" lon="5.65109">
        <ele>1897.3</ele>
        <time>2015-06-25T11:25:20Z</time>
      </trkpt>
      <trkpt lat="44.65471" lon="5.65111">
        <ele>1897.3</ele>
        <time>2015-06-25T11:25:40Z</time>
      </trkpt>
      <trkpt lat="44.6547" lon="5.65108">
        <ele>1896.82</ele>
        <time>2015-06-25T11:26:03Z</time>
      </trkpt>
      <trkpt lat="44.65473" lon="5.65109">
        <ele>1896.82</ele>
        <time>2015-06-25T11:26:27Z</time>
      </trkpt>
      <trkpt lat="44.65465" lon="5.65101">
        <ele>1896.34</ele>
        <time>2015-06-25T11:26:41Z</time>
      </trkpt>
      <trkpt lat="44.65465" lon="5.651">
        <ele>1896.82</ele>
        <time>2015-06-25T11:26:58Z</time>
      </trkpt>
      <trkpt lat="44.65466" lon="5.65102">
        <ele>1896.82</ele>
        <time>2015-06-25T11:27:14Z</time>
      </trkpt>
      <trkpt lat="44.65466" lon="5.65104">
        <ele>1896.34</ele>
        <time>2015-06-25T11:27:30Z</time>
      </trkpt>
      <trkpt lat="44.65467" lon="5.65101">
        <ele>1896.34</ele>
        <time>2015-06-25T11:27:56Z</time>
      </trkpt>
      <trkpt lat="44.65468" lon="5.65101">
        <ele>1896.82</ele>
        <time>2015-06-25T11:28:18Z</time>
      </trkpt>
      <trkpt lat="44.65468" lon="5.65104">
        <ele>1896.82</ele>
        <time>2015-06-25T11:28:42Z</time>
      </trkpt>
      <trkpt lat="44.65467" lon="5.65103">
        <ele>1896.34</ele>
        <time>2015-06-25T11:29:05Z</time>
      </trkpt>
      <trkpt lat="44.65467" lon="5.65104">
        <ele>1896.34</ele>
        <time>2015-06-25T11:29:36Z</time>
      </trkpt>
      <trkpt lat="44.65468" lon="5.65103">
        <ele>1896.34</ele>
        <time>2015-06-25T11:30:00Z</time>
      </trkpt>
      <trkpt lat="44.6547" lon="5.65111">
        <ele>1895.38</ele>
        <time>2015-06-25T11:30:26Z</time>
      </trkpt>
      <trkpt lat="44.65467" lon="5.65117">
        <ele>1894.9</ele>
        <time>2015-06-25T11:30:42Z</time>
      </trkpt>
      <trkpt lat="44.65467" lon="5.65119">
        <ele>1894.9</ele>
        <time>2015-06-25T11:30:44Z</time>
      </trkpt>
      <trkpt lat="44.65466" lon="5.65122">
        <ele>1893.93</ele>
        <time>2015-06-25T11:30:57Z</time>
      </trkpt>
      <trkpt lat="44.65463" lon="5.65136">
        <ele>1892.49</ele>
        <time>2015-06-25T11:31:11Z</time>
      </trkpt>
      <trkpt lat="44.65463" lon="5.65145">
        <ele>1891.53</ele>
        <time>2015-06-25T11:31:21Z</time>
      </trkpt>
      <trkpt lat="44.65465" lon="5.65151">
        <ele>1891.05</ele>
        <time>2015-06-25T11:31:33Z</time>
      </trkpt>
      <trkpt lat="44.65463" lon="5.6516">
        <ele>1889.61</ele>
        <time>2015-06-25T11:31:45Z</time>
      </trkpt>
      <trkpt lat="44.65463" lon="5.65168">
        <ele>1887.69</ele>
        <time>2015-06-25T11:31:59Z</time>
      </trkpt>
      <trkpt lat="44.65461" lon="5.65176">
        <ele>1886.24</ele>
        <time>2015-06-25T11:32:15Z</time>
      </trkpt>
      <trkpt lat="44.6546" lon="5.65185">
        <ele>1884.32</ele>
        <time>2015-06-25T11:32:30Z</time>
      </trkpt>
      <trkpt lat="44.65459" lon="5.65192">
        <ele>1882.88</ele>
        <time>2015-06-25T11:32:40Z</time>
      </trkpt>
      <trkpt lat="44.65456" lon="5.652">
        <ele>1880</ele>
        <time>2015-06-25T11:32:55Z</time>
      </trkpt>
      <trkpt lat="44.65452" lon="5.65204">
        <ele>1877.59</ele>
        <time>2015-06-25T11:33:08Z</time>
      </trkpt>
      <trkpt lat="44.65445" lon="5.65208">
        <ele>1875.67</ele>
        <time>2015-06-25T11:33:22Z</time>
      </trkpt>
      <trkpt lat="44.65438" lon="5.65214">
        <ele>1873.27</ele>
        <time>2015-06-25T11:33:37Z</time>
      </trkpt>
      <trkpt lat="44.65436" lon="5.65221">
        <ele>1871.82</ele>
        <time>2015-06-25T11:33:51Z</time>
      </trkpt>
      <trkpt lat="44.65434" lon="5.65232">
        <ele>1868.46</ele>
        <time>2015-06-25T11:34:03Z</time>
      </trkpt>
      <trkpt lat="44.65434" lon="5.65232">
        <ele>1868.46</ele>
        <time>2015-06-25T11:34:04Z</time>
      </trkpt>
      <trkpt lat="44.65433" lon="5.65241">
        <ele>1866.06</ele>
        <time>2015-06-25T11:34:16Z</time>
      </trkpt>
      <trkpt lat="44.65431" lon="5.65249">
        <ele>1864.13</ele>
        <time>2015-06-25T11:34:29Z</time>
      </trkpt>
      <trkpt lat="44.6543" lon="5.65259">
        <ele>1861.73</ele>
        <time>2015-06-25T11:34:43Z</time>
      </trkpt>
      <trkpt lat="44.65428" lon="5.65269">
        <ele>1858.85</ele>
        <time>2015-06-25T11:34:57Z</time>
      </trkpt>
      <trkpt lat="44.65428" lon="5.65278">
        <ele>1856.44</ele>
        <time>2015-06-25T11:35:10Z</time>
      </trkpt>
      <trkpt lat="44.65425" lon="5.65285">
        <ele>1854.04</ele>
        <time>2015-06-25T11:35:24Z</time>
      </trkpt>
      <trkpt lat="44.65421" lon="5.65296">
        <ele>1851.16</ele>
        <time>2015-06-25T11:35:38Z</time>
      </trkpt>
      <trkpt lat="44.65417" lon="5.65303">
        <ele>1848.27</ele>
        <time>2015-06-25T11:35:51Z</time>
      </trkpt>
      <trkpt lat="44.65413" lon="5.65306">
        <ele>1844.91</ele>
        <time>2015-06-25T11:36:03Z</time>
      </trkpt>
      <trkpt lat="44.6541" lon="5.65306">
        <ele>1843.95</ele>
        <time>2015-06-25T11:36:07Z</time>
      </trkpt>
      <trkpt lat="44.65408" lon="5.65306">
        <ele>1841.54</ele>
        <time>2015-06-25T11:36:20Z</time>
      </trkpt>
      <trkpt lat="44.65408" lon="5.6531">
        <ele>1841.54</ele>
        <time>2015-06-25T11:36:27Z</time>
      </trkpt>
      <trkpt lat="44.65406" lon="5.65316">
        <ele>1840.58</ele>
        <time>2015-06-25T11:36:31Z</time>
      </trkpt>
      <trkpt lat="44.65408" lon="5.65336">
        <ele>1837.7</ele>
        <time>2015-06-25T11:36:45Z</time>
      </trkpt>
      <trkpt lat="44.65406" lon="5.6534">
        <ele>1837.22</ele>
        <time>2015-06-25T11:36:48Z</time>
      </trkpt>
      <trkpt lat="44.65406" lon="5.65348">
        <ele>1835.77</ele>
        <time>2015-06-25T11:36:55Z</time>
      </trkpt>
      <trkpt lat="44.65404" lon="5.65353">
        <ele>1834.81</ele>
        <time>2015-06-25T11:36:59Z</time>
      </trkpt>
      <trkpt lat="44.65405" lon="5.65358">
        <ele>1834.33</ele>
        <time>2015-06-25T11:37:02Z</time>
      </trkpt>
      <trkpt lat="44.65406" lon="5.65359">
        <ele>1833.85</ele>
        <time>2015-06-25T11:37:04Z</time>
      </trkpt>
      <trkpt lat="44.65407" lon="5.65366">
        <ele>1832.89</ele>
        <time>2015-06-25T11:37:09Z</time>
      </trkpt>
      <trkpt lat="44.65405" lon="5.65371">
        <ele>1832.41</ele>
        <time>2015-06-25T11:37:13Z</time>
      </trkpt>
      <trkpt lat="44.65399" lon="5.65382">
        <ele>1830.49</ele>
        <time>2015-06-25T11:37:26Z</time>
      </trkpt>
      <trkpt lat="44.65394" lon="5.65391">
        <ele>1829.05</ele>
        <time>2015-06-25T11:37:38Z</time>
      </trkpt>
      <trkpt lat="44.65392" lon="5.654">
        <ele>1826.64</ele>
        <time>2015-06-25T11:37:50Z</time>
      </trkpt>
      <trkpt lat="44.65391" lon="5.65408">
        <ele>1824.24</ele>
        <time>2015-06-25T11:38:02Z</time>
      </trkpt>
      <trkpt lat="44.65388" lon="5.65415">
        <ele>1822.32</ele>
        <time>2015-06-25T11:38:16Z</time>
      </trkpt>
      <trkpt lat="44.65387" lon="5.65421">
        <ele>1819.91</ele>
        <time>2015-06-25T11:38:28Z</time>
      </trkpt>
      <trkpt lat="44.65383" lon="5.65427">
        <ele>1817.03</ele>
        <time>2015-06-25T11:38:43Z</time>
      </trkpt>
      <trkpt lat="44.65379" lon="5.65436">
        <ele>1814.15</ele>
        <time>2015-06-25T11:38:58Z</time>
      </trkpt>
      <trkpt lat="44.65376" lon="5.65442">
        <ele>1812.22</ele>
        <time>2015-06-25T11:39:11Z</time>
      </trkpt>
      <trkpt lat="44.65375" lon="5.65447">
        <ele>1809.82</ele>
        <time>2015-06-25T11:39:25Z</time>
      </trkpt>
      <trkpt lat="44.65368" lon="5.65454">
        <ele>1806.94</ele>
        <time>2015-06-25T11:39:39Z</time>
      </trkpt>
      <trkpt lat="44.65361" lon="5.65456">
        <ele>1804.05</ele>
        <time>2015-06-25T11:39:52Z</time>
      </trkpt>
      <trkpt lat="44.65355" lon="5.65461">
        <ele>1801.65</ele>
        <time>2015-06-25T11:40:05Z</time>
      </trkpt>
      <trkpt lat="44.65349" lon="5.65467">
        <ele>1799.24</ele>
        <time>2015-06-25T11:40:19Z</time>
      </trkpt>
      <trkpt lat="44.65346" lon="5.65469">
        <ele>1798.28</ele>
        <time>2015-06-25T11:40:24Z</time>
      </trkpt>
      <trkpt lat="44.65334" lon="5.65479">
        <ele>1796.36</ele>
        <time>2015-06-25T11:40:38Z</time>
      </trkpt>
      <trkpt lat="44.65326" lon="5.65482">
        <ele>1794.44</ele>
        <time>2015-06-25T11:40:51Z</time>
      </trkpt>
      <trkpt lat="44.65323" lon="5.65483">
        <ele>1793.96</ele>
        <time>2015-06-25T11:40:55Z</time>
      </trkpt>
      <trkpt lat="44.65315" lon="5.65485">
        <ele>1792.03</ele>
        <time>2015-06-25T11:41:09Z</time>
      </trkpt>
      <trkpt lat="44.65305" lon="5.65489">
        <ele>1790.11</ele>
        <time>2015-06-25T11:41:22Z</time>
      </trkpt>
      <trkpt lat="44.653" lon="5.6549">
        <ele>1790.11</ele>
        <time>2015-06-25T11:41:39Z</time>
      </trkpt>
      <trkpt lat="44.65297" lon="5.65491">
        <ele>1790.11</ele>
        <time>2015-06-25T11:42:01Z</time>
      </trkpt>
      <trkpt lat="44.65287" lon="5.65492">
        <ele>1790.59</ele>
        <time>2015-06-25T11:42:16Z</time>
      </trkpt>
      <trkpt lat="44.65276" lon="5.65494">
        <ele>1789.15</ele>
        <time>2015-06-25T11:42:30Z</time>
      </trkpt>
      <trkpt lat="44.65273" lon="5.65494">
        <ele>1788.67</ele>
        <time>2015-06-25T11:42:33Z</time>
      </trkpt>
      <trkpt lat="44.65262" lon="5.65499">
        <ele>1787.71</ele>
        <time>2015-06-25T11:42:47Z</time>
      </trkpt>
      <trkpt lat="44.65257" lon="5.65502">
        <ele>1786.27</ele>
        <time>2015-06-25T11:42:53Z</time>
      </trkpt>
      <trkpt lat="44.65248" lon="5.65504">
        <ele>1783.86</ele>
        <time>2015-06-25T11:43:08Z</time>
      </trkpt>
      <trkpt lat="44.65247" lon="5.65505">
        <ele>1783.86</ele>
        <time>2015-06-25T11:43:23Z</time>
      </trkpt>
      <trkpt lat="44.65246" lon="5.65505">
        <ele>1783.86</ele>
        <time>2015-06-25T11:43:43Z</time>
      </trkpt>
      <trkpt lat="44.65244" lon="5.65507">
        <ele>1783.38</ele>
        <time>2015-06-25T11:43:59Z</time>
      </trkpt>
      <trkpt lat="44.65245" lon="5.65506">
        <ele>1783.38</ele>
        <time>2015-06-25T11:44:26Z</time>
      </trkpt>
      <trkpt lat="44.65241" lon="5.65508">
        <ele>1781.94</ele>
        <time>2015-06-25T11:44:44Z</time>
      </trkpt>
      <trkpt lat="44.6524" lon="5.65508">
        <ele>1781.94</ele>
        <time>2015-06-25T11:44:45Z</time>
      </trkpt>
      <trkpt lat="44.65227" lon="5.65518">
        <ele>1779.06</ele>
        <time>2015-06-25T11:45:01Z</time>
      </trkpt>
      <trkpt lat="44.65223" lon="5.65528">
        <ele>1776.65</ele>
        <time>2015-06-25T11:45:14Z</time>
      </trkpt>
      <trkpt lat="44.65222" lon="5.6553">
        <ele>1776.17</ele>
        <time>2015-06-25T11:45:16Z</time>
      </trkpt>
      <trkpt lat="44.6522" lon="5.65531">
        <ele>1774.73</ele>
        <time>2015-06-25T11:45:32Z</time>
      </trkpt>
      <trkpt lat="44.65223" lon="5.65531">
        <ele>1774.73</ele>
        <time>2015-06-25T11:45:51Z</time>
      </trkpt>
      <trkpt lat="44.65222" lon="5.6553">
        <ele>1774.73</ele>
        <time>2015-06-25T11:46:12Z</time>
      </trkpt>
      <trkpt lat="44.65221" lon="5.65531">
        <ele>1774.73</ele>
        <time>2015-06-25T11:46:34Z</time>
      </trkpt>
      <trkpt lat="44.65222" lon="5.65531">
        <ele>1774.73</ele>
        <time>2015-06-25T11:47:01Z</time>
      </trkpt>
      <trkpt lat="44.65216" lon="5.6554">
        <ele>1772.33</ele>
        <time>2015-06-25T11:47:17Z</time>
      </trkpt>
      <trkpt lat="44.65211" lon="5.65551">
        <ele>1769.44</ele>
        <time>2015-06-25T11:47:29Z</time>
      </trkpt>
      <trkpt lat="44.65207" lon="5.65559">
        <ele>1767.52</ele>
        <time>2015-06-25T11:47:43Z</time>
      </trkpt>
      <trkpt lat="44.65202" lon="5.65563">
        <ele>1765.6</ele>
        <time>2015-06-25T11:48:01Z</time>
      </trkpt>
      <trkpt lat="44.65198" lon="5.65567">
        <ele>1764.64</ele>
        <time>2015-06-25T11:48:15Z</time>
      </trkpt>
      <trkpt lat="44.65189" lon="5.65576">
        <ele>1762.71</ele>
        <time>2015-06-25T11:48:29Z</time>
      </trkpt>
      <trkpt lat="44.65189" lon="5.65576">
        <ele>1762.71</ele>
        <time>2015-06-25T11:48:30Z</time>
      </trkpt>
      <trkpt lat="44.6518" lon="5.65585">
        <ele>1760.79</ele>
        <time>2015-06-25T11:48:44Z</time>
      </trkpt>
      <trkpt lat="44.65174" lon="5.65591">
        <ele>1760.79</ele>
        <time>2015-06-25T11:48:56Z</time>
      </trkpt>
      <trkpt lat="44.65173" lon="5.65596">
        <ele>1758.87</ele>
        <time>2015-06-25T11:49:07Z</time>
      </trkpt>
      <trkpt lat="44.65163" lon="5.65595">
        <ele>1755.5</ele>
        <time>2015-06-25T11:49:21Z</time>
      </trkpt>
      <trkpt lat="44.65158" lon="5.65598">
        <ele>1755.02</ele>
        <time>2015-06-25T11:49:33Z</time>
      </trkpt>
      <trkpt lat="44.65156" lon="5.65608">
        <ele>1752.62</ele>
        <time>2015-06-25T11:49:47Z</time>
      </trkpt>
      <trkpt lat="44.65155" lon="5.65614">
        <ele>1751.66</ele>
        <time>2015-06-25T11:49:53Z</time>
      </trkpt>
      <trkpt lat="44.65153" lon="5.65623">
        <ele>1749.74</ele>
        <time>2015-06-25T11:50:02Z</time>
      </trkpt>
      <trkpt lat="44.65148" lon="5.65637">
        <ele>1747.81</ele>
        <time>2015-06-25T11:50:17Z</time>
      </trkpt>
      <trkpt lat="44.65146" lon="5.6565">
        <ele>1745.89</ele>
        <time>2015-06-25T11:50:32Z</time>
      </trkpt>
      <trkpt lat="44.65144" lon="5.65656">
        <ele>1744.93</ele>
        <time>2015-06-25T11:50:45Z</time>
      </trkpt>
      <trkpt lat="44.65143" lon="5.65667">
        <ele>1743.49</ele>
        <time>2015-06-25T11:50:54Z</time>
      </trkpt>
      <trkpt lat="44.6514" lon="5.65674">
        <ele>1743.01</ele>
        <time>2015-06-25T11:51:09Z</time>
      </trkpt>
      <trkpt lat="44.65138" lon="5.6568">
        <ele>1742.05</ele>
        <time>2015-06-25T11:51:15Z</time>
      </trkpt>
      <trkpt lat="44.65137" lon="5.65682">
        <ele>1741.57</ele>
        <time>2015-06-25T11:51:27Z</time>
      </trkpt>
      <trkpt lat="44.65141" lon="5.65686">
        <ele>1741.08</ele>
        <time>2015-06-25T11:51:44Z</time>
      </trkpt>
      <trkpt lat="44.65135" lon="5.65694">
        <ele>1739.64</ele>
        <time>2015-06-25T11:52:01Z</time>
      </trkpt>
      <trkpt lat="44.65133" lon="5.65697">
        <ele>1739.64</ele>
        <time>2015-06-25T11:52:04Z</time>
      </trkpt>
      <trkpt lat="44.65131" lon="5.65702">
        <ele>1738.68</ele>
        <time>2015-06-25T11:52:09Z</time>
      </trkpt>
      <trkpt lat="44.65129" lon="5.65705">
        <ele>1738.68</ele>
        <time>2015-06-25T11:52:12Z</time>
      </trkpt>
      <trkpt lat="44.65129" lon="5.65719">
        <ele>1736.76</ele>
        <time>2015-06-25T11:52:24Z</time>
      </trkpt>
      <trkpt lat="44.65125" lon="5.65728">
        <ele>1734.84</ele>
        <time>2015-06-25T11:52:35Z</time>
      </trkpt>
      <trkpt lat="44.65123" lon="5.6574">
        <ele>1732.43</ele>
        <time>2015-06-25T11:52:48Z</time>
      </trkpt>
      <trkpt lat="44.65119" lon="5.65751">
        <ele>1730.03</ele>
        <time>2015-06-25T11:53:01Z</time>
      </trkpt>
      <trkpt lat="44.65116" lon="5.65764">
        <ele>1727.63</ele>
        <time>2015-06-25T11:53:14Z</time>
      </trkpt>
      <trkpt lat="44.65114" lon="5.65769">
        <ele>1726.67</ele>
        <time>2015-06-25T11:53:19Z</time>
      </trkpt>
      <trkpt lat="44.65114" lon="5.65771">
        <ele>1726.67</ele>
        <time>2015-06-25T11:53:21Z</time>
      </trkpt>
      <trkpt lat="44.65108" lon="5.65785">
        <ele>1723.78</ele>
        <time>2015-06-25T11:53:35Z</time>
      </trkpt>
      <trkpt lat="44.65105" lon="5.65787">
        <ele>1722.82</ele>
        <time>2015-06-25T11:53:49Z</time>
      </trkpt>
      <trkpt lat="44.65106" lon="5.65787">
        <ele>1723.3</ele>
        <time>2015-06-25T11:54:10Z</time>
      </trkpt>
      <trkpt lat="44.65105" lon="5.65788">
        <ele>1722.34</ele>
        <time>2015-06-25T11:54:38Z</time>
      </trkpt>
      <trkpt lat="44.65106" lon="5.65788">
        <ele>1722.82</ele>
        <time>2015-06-25T11:54:55Z</time>
      </trkpt>
      <trkpt lat="44.65106" lon="5.65788">
        <ele>1722.82</ele>
        <time>2015-06-25T11:55:20Z</time>
      </trkpt>
      <trkpt lat="44.65105" lon="5.65789">
        <ele>1722.82</ele>
        <time>2015-06-25T11:55:39Z</time>
      </trkpt>
      <trkpt lat="44.65106" lon="5.65789">
        <ele>1722.34</ele>
        <time>2015-06-25T11:55:55Z</time>
      </trkpt>
      <trkpt lat="44.65106" lon="5.65788">
        <ele>1722.34</ele>
        <time>2015-06-25T11:56:24Z</time>
      </trkpt>
      <trkpt lat="44.65106" lon="5.65788">
        <ele>1721.86</ele>
        <time>2015-06-25T11:56:50Z</time>
      </trkpt>
      <trkpt lat="44.65106" lon="5.65786">
        <ele>1721.86</ele>
        <time>2015-06-25T11:57:16Z</time>
      </trkpt>
      <trkpt lat="44.65106" lon="5.6579">
        <ele>1721.86</ele>
        <time>2015-06-25T11:57:42Z</time>
      </trkpt>
      <trkpt lat="44.65107" lon="5.65789">
        <ele>1721.86</ele>
        <time>2015-06-25T11:58:07Z</time>
      </trkpt>
      <trkpt lat="44.65106" lon="5.6579">
        <ele>1721.86</ele>
        <time>2015-06-25T11:58:33Z</time>
      </trkpt>
      <trkpt lat="44.65105" lon="5.6579">
        <ele>1721.38</ele>
        <time>2015-06-25T11:58:53Z</time>
      </trkpt>
      <trkpt lat="44.65105" lon="5.6579">
        <ele>1720.9</ele>
        <time>2015-06-25T11:59:15Z</time>
      </trkpt>
      <trkpt lat="44.65107" lon="5.6579">
        <ele>1720.9</ele>
        <time>2015-06-25T11:59:39Z</time>
      </trkpt>
      <trkpt lat="44.65107" lon="5.65791">
        <ele>1721.38</ele>
        <time>2015-06-25T12:00:04Z</time>
      </trkpt>
      <trkpt lat="44.65105" lon="5.65788">
        <ele>1721.86</ele>
        <time>2015-06-25T12:00:27Z</time>
      </trkpt>
      <trkpt lat="44.65105" lon="5.6579">
        <ele>1721.86</ele>
        <time>2015-06-25T12:00:45Z</time>
      </trkpt>
      <trkpt lat="44.65106" lon="5.65789">
        <ele>1721.38</ele>
        <time>2015-06-25T12:01:08Z</time>
      </trkpt>
      <trkpt lat="44.65106" lon="5.65788">
        <ele>1720.9</ele>
        <time>2015-06-25T12:01:27Z</time>
      </trkpt>
      <trkpt lat="44.65106" lon="5.65793">
        <ele>1719.94</ele>
        <time>2015-06-25T12:01:43Z</time>
      </trkpt>
      <trkpt lat="44.65105" lon="5.65792">
        <ele>1720.42</ele>
        <time>2015-06-25T12:01:59Z</time>
      </trkpt>
      <trkpt lat="44.65106" lon="5.65787">
        <ele>1720.42</ele>
        <time>2015-06-25T12:02:15Z</time>
      </trkpt>
      <trkpt lat="44.65102" lon="5.65796">
        <ele>1719.94</ele>
        <time>2015-06-25T12:02:34Z</time>
      </trkpt>
      <trkpt lat="44.65099" lon="5.65804">
        <ele>1718.97</ele>
        <time>2015-06-25T12:02:49Z</time>
      </trkpt>
      <trkpt lat="44.65096" lon="5.65816">
        <ele>1718.01</ele>
        <time>2015-06-25T12:03:01Z</time>
      </trkpt>
      <trkpt lat="44.65091" lon="5.65832">
        <ele>1716.57</ele>
        <time>2015-06-25T12:03:16Z</time>
      </trkpt>
      <trkpt lat="44.65084" lon="5.65844">
        <ele>1715.13</ele>
        <time>2015-06-25T12:03:29Z</time>
      </trkpt>
      <trkpt lat="44.65083" lon="5.65846">
        <ele>1715.13</ele>
        <time>2015-06-25T12:03:31Z</time>
      </trkpt>
      <trkpt lat="44.65081" lon="5.65858">
        <ele>1713.21</ele>
        <time>2015-06-25T12:03:42Z</time>
      </trkpt>
      <trkpt lat="44.65073" lon="5.65865">
        <ele>1710.8</ele>
        <time>2015-06-25T12:03:55Z</time>
      </trkpt>
      <trkpt lat="44.65067" lon="5.65866">
        <ele>1708.88</ele>
        <time>2015-06-25T12:04:08Z</time>
      </trkpt>
      <trkpt lat="44.65063" lon="5.65868">
        <ele>1707.92</ele>
        <time>2015-06-25T12:04:23Z</time>
      </trkpt>
      <trkpt lat="44.65066" lon="5.65867">
        <ele>1707.44</ele>
        <time>2015-06-25T12:04:42Z</time>
      </trkpt>
      <trkpt lat="44.65065" lon="5.65869">
        <ele>1707.44</ele>
        <time>2015-06-25T12:05:09Z</time>
      </trkpt>
      <trkpt lat="44.65062" lon="5.65874">
        <ele>1706.48</ele>
        <time>2015-06-25T12:05:27Z</time>
      </trkpt>
      <trkpt lat="44.65055" lon="5.65883">
        <ele>1703.59</ele>
        <time>2015-06-25T12:05:41Z</time>
      </trkpt>
      <trkpt lat="44.65052" lon="5.65887">
        <ele>1701.67</ele>
        <time>2015-06-25T12:05:52Z</time>
      </trkpt>
      <trkpt lat="44.65048" lon="5.65893">
        <ele>1699.27</ele>
        <time>2015-06-25T12:06:03Z</time>
      </trkpt>
      <trkpt lat="44.65044" lon="5.65904">
        <ele>1696.38</ele>
        <time>2015-06-25T12:06:16Z</time>
      </trkpt>
      <trkpt lat="44.65039" lon="5.65914">
        <ele>1693.02</ele>
        <time>2015-06-25T12:06:28Z</time>
      </trkpt>
      <trkpt lat="44.65033" lon="5.65908">
        <ele>1690.62</ele>
        <time>2015-06-25T12:06:41Z</time>
      </trkpt>
      <trkpt lat="44.65032" lon="5.65907">
        <ele>1690.62</ele>
        <time>2015-06-25T12:06:42Z</time>
      </trkpt>
      <trkpt lat="44.65027" lon="5.65904">
        <ele>1689.17</ele>
        <time>2015-06-25T12:06:50Z</time>
      </trkpt>
      <trkpt lat="44.65025" lon="5.65902">
        <ele>1688.69</ele>
        <time>2015-06-25T12:06:53Z</time>
      </trkpt>
      <trkpt lat="44.65015" lon="5.65892">
        <ele>1686.29</ele>
        <time>2015-06-25T12:07:07Z</time>
      </trkpt>
      <trkpt lat="44.65008" lon="5.65886">
        <ele>1683.41</ele>
        <time>2015-06-25T12:07:21Z</time>
      </trkpt>
      <trkpt lat="44.64999" lon="5.65886">
        <ele>1681</ele>
        <time>2015-06-25T12:07:34Z</time>
      </trkpt>
      <trkpt lat="44.64992" lon="5.65885">
        <ele>1678.6</ele>
        <time>2015-06-25T12:07:45Z</time>
      </trkpt>
      <trkpt lat="44.64983" lon="5.65883">
        <ele>1675.72</ele>
        <time>2015-06-25T12:08:00Z</time>
      </trkpt>
      <trkpt lat="44.64978" lon="5.65884">
        <ele>1674.27</ele>
        <time>2015-06-25T12:08:15Z</time>
      </trkpt>
      <trkpt lat="44.64973" lon="5.65875">
        <ele>1671.87</ele>
        <time>2015-06-25T12:08:28Z</time>
      </trkpt>
      <trkpt lat="44.64972" lon="5.65876">
        <ele>1671.87</ele>
        <time>2015-06-25T12:08:35Z</time>
      </trkpt>
      <trkpt lat="44.64964" lon="5.65891">
        <ele>1670.43</ele>
        <time>2015-06-25T12:08:48Z</time>
      </trkpt>
      <trkpt lat="44.64959" lon="5.65905">
        <ele>1668.51</ele>
        <time>2015-06-25T12:09:03Z</time>
      </trkpt>
      <trkpt lat="44.6496" lon="5.65908">
        <ele>1668.51</ele>
        <time>2015-06-25T12:09:15Z</time>
      </trkpt>
      <trkpt lat="44.64966" lon="5.65928">
        <ele>1665.14</ele>
        <time>2015-06-25T12:09:30Z</time>
      </trkpt>
      <trkpt lat="44.64968" lon="5.6594">
        <ele>1663.7</ele>
        <time>2015-06-25T12:09:45Z</time>
      </trkpt>
      <trkpt lat="44.64967" lon="5.65932">
        <ele>1663.7</ele>
        <time>2015-06-25T12:09:57Z</time>
      </trkpt>
      <trkpt lat="44.64967" lon="5.65929">
        <ele>1663.7</ele>
        <time>2015-06-25T12:09:59Z</time>
      </trkpt>
      <trkpt lat="44.64964" lon="5.65915">
        <ele>1666.1</ele>
        <time>2015-06-25T12:10:14Z</time>
      </trkpt>
      <trkpt lat="44.64958" lon="5.65906">
        <ele>1666.58</ele>
        <time>2015-06-25T12:10:29Z</time>
      </trkpt>
      <trkpt lat="44.64956" lon="5.65906">
        <ele>1667.06</ele>
        <time>2015-06-25T12:10:31Z</time>
      </trkpt>
      <trkpt lat="44.64949" lon="5.65902">
        <ele>1665.62</ele>
        <time>2015-06-25T12:10:43Z</time>
      </trkpt>
      <trkpt lat="44.64938" lon="5.65904">
        <ele>1663.22</ele>
        <time>2015-06-25T12:10:59Z</time>
      </trkpt>
      <trkpt lat="44.64927" lon="5.65907">
        <ele>1660.81</ele>
        <time>2015-06-25T12:11:13Z</time>
      </trkpt>
      <trkpt lat="44.64918" lon="5.65908">
        <ele>1658.89</ele>
        <time>2015-06-25T12:11:26Z</time>
      </trkpt>
      <trkpt lat="44.64914" lon="5.65908">
        <ele>1658.41</ele>
        <time>2015-06-25T12:11:30Z</time>
      </trkpt>
      <trkpt lat="44.64903" lon="5.65908">
        <ele>1656.97</ele>
        <time>2015-06-25T12:11:42Z</time>
      </trkpt>
      <trkpt lat="44.64892" lon="5.6591">
        <ele>1656.01</ele>
        <time>2015-06-25T12:11:52Z</time>
      </trkpt>
      <trkpt lat="44.64889" lon="5.65909">
        <ele>1656.01</ele>
        <time>2015-06-25T12:11:55Z</time>
      </trkpt>
      <trkpt lat="44.64883" lon="5.65912">
        <ele>1655.05</ele>
        <time>2015-06-25T12:12:05Z</time>
      </trkpt>
      <trkpt lat="44.64878" lon="5.65914">
        <ele>1655.53</ele>
        <time>2015-06-25T12:12:11Z</time>
      </trkpt>
      <trkpt lat="44.64872" lon="5.65915">
        <ele>1656.49</ele>
        <time>2015-06-25T12:12:25Z</time>
      </trkpt>
      <trkpt lat="44.64868" lon="5.65917">
        <ele>1656.01</ele>
        <time>2015-06-25T12:12:40Z</time>
      </trkpt>
      <trkpt lat="44.6486" lon="5.65917">
        <ele>1655.53</ele>
        <time>2015-06-25T12:12:55Z</time>
      </trkpt>
      <trkpt lat="44.64857" lon="5.65918">
        <ele>1654.57</ele>
        <time>2015-06-25T12:13:00Z</time>
      </trkpt>
      <trkpt lat="44.64846" lon="5.65923">
        <ele>1653.6</ele>
        <time>2015-06-25T12:13:17Z</time>
      </trkpt>
      <trkpt lat="44.64844" lon="5.65923">
        <ele>1653.6</ele>
        <time>2015-06-25T12:13:20Z</time>
      </trkpt>
      <trkpt lat="44.64832" lon="5.6592">
        <ele>1653.12</ele>
        <time>2015-06-25T12:13:34Z</time>
      </trkpt>
      <trkpt lat="44.64827" lon="5.65917">
        <ele>1652.16</ele>
        <time>2015-06-25T12:13:43Z</time>
      </trkpt>
      <trkpt lat="44.64817" lon="5.65916">
        <ele>1651.2</ele>
        <time>2015-06-25T12:13:55Z</time>
      </trkpt>
      <trkpt lat="44.64811" lon="5.65914">
        <ele>1650.72</ele>
        <time>2015-06-25T12:14:03Z</time>
      </trkpt>
      <trkpt lat="44.64808" lon="5.65912">
        <ele>1650.24</ele>
        <time>2015-06-25T12:14:08Z</time>
      </trkpt>
      <trkpt lat="44.64795" lon="5.65911">
        <ele>1648.8</ele>
        <time>2015-06-25T12:14:22Z</time>
      </trkpt>
      <trkpt lat="44.64779" lon="5.65909">
        <ele>1647.36</ele>
        <time>2015-06-25T12:14:39Z</time>
      </trkpt>
      <trkpt lat="44.64768" lon="5.65909">
        <ele>1646.88</ele>
        <time>2015-06-25T12:14:51Z</time>
      </trkpt>
      <trkpt lat="44.64761" lon="5.6591">
        <ele>1647.36</ele>
        <time>2015-06-25T12:14:57Z</time>
      </trkpt>
      <trkpt lat="44.64751" lon="5.65909">
        <ele>1644.47</ele>
        <time>2015-06-25T12:15:10Z</time>
      </trkpt>
      <trkpt lat="44.64741" lon="5.6591">
        <ele>1642.07</ele>
        <time>2015-06-25T12:15:23Z</time>
      </trkpt>
      <trkpt lat="44.6474" lon="5.6591">
        <ele>1642.07</ele>
        <time>2015-06-25T12:15:24Z</time>
      </trkpt>
      <trkpt lat="44.64727" lon="5.65911">
        <ele>1643.03</ele>
        <time>2015-06-25T12:15:39Z</time>
      </trkpt>
      <trkpt lat="44.64717" lon="5.65913">
        <ele>1643.03</ele>
        <time>2015-06-25T12:15:53Z</time>
      </trkpt>
      <trkpt lat="44.64706" lon="5.65914">
        <ele>1641.59</ele>
        <time>2015-06-25T12:16:08Z</time>
      </trkpt>
      <trkpt lat="44.64699" lon="5.65916">
        <ele>1640.15</ele>
        <time>2015-06-25T12:16:20Z</time>
      </trkpt>
      <trkpt lat="44.64695" lon="5.65916">
        <ele>1638.7</ele>
        <time>2015-06-25T12:16:27Z</time>
      </trkpt>
      <trkpt lat="44.64686" lon="5.65915">
        <ele>1636.78</ele>
        <time>2015-06-25T12:16:37Z</time>
      </trkpt>
      <trkpt lat="44.64677" lon="5.65919">
        <ele>1635.82</ele>
        <time>2015-06-25T12:16:50Z</time>
      </trkpt>
      <trkpt lat="44.64669" lon="5.65916">
        <ele>1632.94</ele>
        <time>2015-06-25T12:17:04Z</time>
      </trkpt>
      <trkpt lat="44.64666" lon="5.65917">
        <ele>1631.01</ele>
        <time>2015-06-25T12:17:11Z</time>
      </trkpt>
      <trkpt lat="44.64658" lon="5.65915">
        <ele>1628.13</ele>
        <time>2015-06-25T12:17:24Z</time>
      </trkpt>
      <trkpt lat="44.64655" lon="5.65916">
        <ele>1627.17</ele>
        <time>2015-06-25T12:17:27Z</time>
      </trkpt>
      <trkpt lat="44.64654" lon="5.65917">
        <ele>1627.17</ele>
        <time>2015-06-25T12:17:29Z</time>
      </trkpt>
      <trkpt lat="44.6465" lon="5.65919">
        <ele>1626.69</ele>
        <time>2015-06-25T12:17:33Z</time>
      </trkpt>
      <trkpt lat="44.64637" lon="5.65919">
        <ele>1624.28</ele>
        <time>2015-06-25T12:17:48Z</time>
      </trkpt>
      <trkpt lat="44.64624" lon="5.65923">
        <ele>1621.88</ele>
        <time>2015-06-25T12:18:03Z</time>
      </trkpt>
      <trkpt lat="44.64613" lon="5.65924">
        <ele>1620.44</ele>
        <time>2015-06-25T12:18:15Z</time>
      </trkpt>
      <trkpt lat="44.64614" lon="5.65919">
        <ele>1618.04</ele>
        <time>2015-06-25T12:18:31Z</time>
      </trkpt>
      <trkpt lat="44.6461" lon="5.65919">
        <ele>1617.07</ele>
        <time>2015-06-25T12:18:40Z</time>
      </trkpt>
      <trkpt lat="44.64605" lon="5.65921">
        <ele>1616.11</ele>
        <time>2015-06-25T12:18:54Z</time>
      </trkpt>
      <trkpt lat="44.64601" lon="5.65922">
        <ele>1616.11</ele>
        <time>2015-06-25T12:19:14Z</time>
      </trkpt>
      <trkpt lat="44.64596" lon="5.65921">
        <ele>1615.15</ele>
        <time>2015-06-25T12:19:27Z</time>
      </trkpt>
      <trkpt lat="44.64591" lon="5.65923">
        <ele>1612.27</ele>
        <time>2015-06-25T12:19:40Z</time>
      </trkpt>
      <trkpt lat="44.64587" lon="5.65924">
        <ele>1611.31</ele>
        <time>2015-06-25T12:19:47Z</time>
      </trkpt>
      <trkpt lat="44.64576" lon="5.65927">
        <ele>1608.9</ele>
        <time>2015-06-25T12:20:02Z</time>
      </trkpt>
      <trkpt lat="44.64568" lon="5.65928">
        <ele>1607.94</ele>
        <time>2015-06-25T12:20:17Z</time>
      </trkpt>
      <trkpt lat="44.64565" lon="5.65927">
        <ele>1606.5</ele>
        <time>2015-06-25T12:20:28Z</time>
      </trkpt>
      <trkpt lat="44.64557" lon="5.65925">
        <ele>1604.58</ele>
        <time>2015-06-25T12:20:39Z</time>
      </trkpt>
      <trkpt lat="44.64554" lon="5.65927">
        <ele>1603.62</ele>
        <time>2015-06-25T12:20:44Z</time>
      </trkpt>
      <trkpt lat="44.64547" lon="5.65929">
        <ele>1602.17</ele>
        <time>2015-06-25T12:20:55Z</time>
      </trkpt>
      <trkpt lat="44.64538" lon="5.65931">
        <ele>1600.25</ele>
        <time>2015-06-25T12:21:08Z</time>
      </trkpt>
      <trkpt lat="44.64532" lon="5.6593">
        <ele>1599.29</ele>
        <time>2015-06-25T12:21:21Z</time>
      </trkpt>
      <trkpt lat="44.64523" lon="5.65933">
        <ele>1597.37</ele>
        <time>2015-06-25T12:21:35Z</time>
      </trkpt>
      <trkpt lat="44.64517" lon="5.65938">
        <ele>1595.45</ele>
        <time>2015-06-25T12:21:49Z</time>
      </trkpt>
      <trkpt lat="44.6451" lon="5.65941">
        <ele>1593.52</ele>
        <time>2015-06-25T12:22:02Z</time>
      </trkpt>
      <trkpt lat="44.64505" lon="5.65944">
        <ele>1592.56</ele>
        <time>2015-06-25T12:22:15Z</time>
      </trkpt>
      <trkpt lat="44.64505" lon="5.65943">
        <ele>1592.08</ele>
        <time>2015-06-25T12:22:40Z</time>
      </trkpt>
      <trkpt lat="44.64505" lon="5.65944">
        <ele>1592.08</ele>
        <time>2015-06-25T12:23:10Z</time>
      </trkpt>
      <trkpt lat="44.64504" lon="5.65939">
        <ele>1591.6</ele>
        <time>2015-06-25T12:23:29Z</time>
      </trkpt>
      <trkpt lat="44.64505" lon="5.65938">
        <ele>1591.6</ele>
        <time>2015-06-25T12:23:54Z</time>
      </trkpt>
      <trkpt lat="44.64505" lon="5.65938">
        <ele>1591.6</ele>
        <time>2015-06-25T12:24:25Z</time>
      </trkpt>
      <trkpt lat="44.64504" lon="5.6594">
        <ele>1591.6</ele>
        <time>2015-06-25T12:24:51Z</time>
      </trkpt>
      <trkpt lat="44.64503" lon="5.65943">
        <ele>1591.12</ele>
        <time>2015-06-25T12:25:15Z</time>
      </trkpt>
      <trkpt lat="44.64502" lon="5.65944">
        <ele>1591.12</ele>
        <time>2015-06-25T12:26:02Z</time>
      </trkpt>
      <trkpt lat="44.64503" lon="5.65943">
        <ele>1591.12</ele>
        <time>2015-06-25T12:26:47Z</time>
      </trkpt>
      <trkpt lat="44.64505" lon="5.65942">
        <ele>1592.56</ele>
        <time>2015-06-25T12:27:24Z</time>
      </trkpt>
      <trkpt lat="44.64505" lon="5.65941">
        <ele>1592.08</ele>
        <time>2015-06-25T12:27:41Z</time>
      </trkpt>
      <trkpt lat="44.64503" lon="5.65942">
        <ele>1591.6</ele>
        <time>2015-06-25T12:27:49Z</time>
      </trkpt>
      <trkpt lat="44.64496" lon="5.65947">
        <ele>1589.68</ele>
        <time>2015-06-25T12:28:02Z</time>
      </trkpt>
      <trkpt lat="44.64491" lon="5.6595">
        <ele>1588.24</ele>
        <time>2015-06-25T12:28:15Z</time>
      </trkpt>
      <trkpt lat="44.64482" lon="5.65951">
        <ele>1585.83</ele>
        <time>2015-06-25T12:28:28Z</time>
      </trkpt>
      <trkpt lat="44.64477" lon="5.65953">
        <ele>1585.35</ele>
        <time>2015-06-25T12:28:40Z</time>
      </trkpt>
      <trkpt lat="44.64475" lon="5.65953">
        <ele>1584.39</ele>
        <time>2015-06-25T12:28:47Z</time>
      </trkpt>
      <trkpt lat="44.64472" lon="5.65952">
        <ele>1583.91</ele>
        <time>2015-06-25T12:28:50Z</time>
      </trkpt>
      <trkpt lat="44.64468" lon="5.65953">
        <ele>1583.91</ele>
        <time>2015-06-25T12:28:55Z</time>
      </trkpt>
      <trkpt lat="44.64456" lon="5.65955">
        <ele>1582.47</ele>
        <time>2015-06-25T12:29:08Z</time>
      </trkpt>
      <trkpt lat="44.64443" lon="5.65952">
        <ele>1583.91</ele>
        <time>2015-06-25T12:29:24Z</time>
      </trkpt>
      <trkpt lat="44.6443" lon="5.65952">
        <ele>1582.95</ele>
        <time>2015-06-25T12:29:37Z</time>
      </trkpt>
      <trkpt lat="44.6442" lon="5.65955">
        <ele>1581.99</ele>
        <time>2015-06-25T12:29:48Z</time>
      </trkpt>
      <trkpt lat="44.64417" lon="5.65955">
        <ele>1581.99</ele>
        <time>2015-06-25T12:29:51Z</time>
      </trkpt>
      <trkpt lat="44.64405" lon="5.65959">
        <ele>1580.54</ele>
        <time>2015-06-25T12:30:06Z</time>
      </trkpt>
      <trkpt lat="44.64397" lon="5.65962">
        <ele>1579.58</ele>
        <time>2015-06-25T12:30:15Z</time>
      </trkpt>
      <trkpt lat="44.64385" lon="5.65966">
        <ele>1577.66</ele>
        <time>2015-06-25T12:30:31Z</time>
      </trkpt>
      <trkpt lat="44.64382" lon="5.65967">
        <ele>1576.7</ele>
        <time>2015-06-25T12:30:35Z</time>
      </trkpt>
      <trkpt lat="44.64377" lon="5.6597">
        <ele>1575.74</ele>
        <time>2015-06-25T12:30:42Z</time>
      </trkpt>
      <trkpt lat="44.64366" lon="5.65972">
        <ele>1572.85</ele>
        <time>2015-06-25T12:30:57Z</time>
      </trkpt>
      <trkpt lat="44.64357" lon="5.65969">
        <ele>1569.01</ele>
        <time>2015-06-25T12:31:10Z</time>
      </trkpt>
      <trkpt lat="44.6435" lon="5.65971">
        <ele>1568.05</ele>
        <time>2015-06-25T12:31:17Z</time>
      </trkpt>
      <trkpt lat="44.64335" lon="5.65971">
        <ele>1564.68</ele>
        <time>2015-06-25T12:31:33Z</time>
      </trkpt>
      <trkpt lat="44.64329" lon="5.65971">
        <ele>1563.24</ele>
        <time>2015-06-25T12:31:44Z</time>
      </trkpt>
      <trkpt lat="44.64316" lon="5.6598">
        <ele>1560.36</ele>
        <time>2015-06-25T12:32:00Z</time>
      </trkpt>
      <trkpt lat="44.64312" lon="5.65984">
        <ele>1559.88</ele>
        <time>2015-06-25T12:32:16Z</time>
      </trkpt>
      <trkpt lat="44.64309" lon="5.65983">
        <ele>1559.4</ele>
        <time>2015-06-25T12:32:36Z</time>
      </trkpt>
      <trkpt lat="44.64302" lon="5.65986">
        <ele>1557.95</ele>
        <time>2015-06-25T12:32:49Z</time>
      </trkpt>
      <trkpt lat="44.64297" lon="5.65989">
        <ele>1556.99</ele>
        <time>2015-06-25T12:33:01Z</time>
      </trkpt>
      <trkpt lat="44.64289" lon="5.65996">
        <ele>1555.07</ele>
        <time>2015-06-25T12:33:16Z</time>
      </trkpt>
      <trkpt lat="44.64283" lon="5.65998">
        <ele>1553.63</ele>
        <time>2015-06-25T12:33:28Z</time>
      </trkpt>
      <trkpt lat="44.64279" lon="5.65999">
        <ele>1552.19</ele>
        <time>2015-06-25T12:33:46Z</time>
      </trkpt>
      <trkpt lat="44.64272" lon="5.65998">
        <ele>1549.78</ele>
        <time>2015-06-25T12:34:01Z</time>
      </trkpt>
      <trkpt lat="44.64265" lon="5.65996">
        <ele>1547.86</ele>
        <time>2015-06-25T12:34:15Z</time>
      </trkpt>
      <trkpt lat="44.6426" lon="5.65997">
        <ele>1545.46</ele>
        <time>2015-06-25T12:34:27Z</time>
      </trkpt>
      <trkpt lat="44.64254" lon="5.65997">
        <ele>1543.53</ele>
        <time>2015-06-25T12:34:39Z</time>
      </trkpt>
      <trkpt lat="44.64248" lon="5.65997">
        <ele>1541.61</ele>
        <time>2015-06-25T12:34:56Z</time>
      </trkpt>
      <trkpt lat="44.64249" lon="5.65994">
        <ele>1540.65</ele>
        <time>2015-06-25T12:35:09Z</time>
      </trkpt>
      <trkpt lat="44.64241" lon="5.65996">
        <ele>1538.73</ele>
        <time>2015-06-25T12:35:22Z</time>
      </trkpt>
      <trkpt lat="44.64238" lon="5.65997">
        <ele>1536.8</ele>
        <time>2015-06-25T12:35:38Z</time>
      </trkpt>
      <trkpt lat="44.64231" lon="5.6599">
        <ele>1533.44</ele>
        <time>2015-06-25T12:35:52Z</time>
      </trkpt>
      <trkpt lat="44.64223" lon="5.6599">
        <ele>1530.56</ele>
        <time>2015-06-25T12:36:05Z</time>
      </trkpt>
      <trkpt lat="44.64214" lon="5.6599">
        <ele>1528.15</ele>
        <time>2015-06-25T12:36:21Z</time>
      </trkpt>
      <trkpt lat="44.6421" lon="5.6599">
        <ele>1526.23</ele>
        <time>2015-06-25T12:36:28Z</time>
      </trkpt>
      <trkpt lat="44.642" lon="5.65989">
        <ele>1523.35</ele>
        <time>2015-06-25T12:36:42Z</time>
      </trkpt>
      <trkpt lat="44.64193" lon="5.65985">
        <ele>1519.98</ele>
        <time>2015-06-25T12:36:59Z</time>
      </trkpt>
      <trkpt lat="44.64185" lon="5.65986">
        <ele>1517.58</ele>
        <time>2015-06-25T12:37:13Z</time>
      </trkpt>
      <trkpt lat="44.64174" lon="5.65988">
        <ele>1515.18</ele>
        <time>2015-06-25T12:37:30Z</time>
      </trkpt>
      <trkpt lat="44.64164" lon="5.65984">
        <ele>1511.81</ele>
        <time>2015-06-25T12:37:46Z</time>
      </trkpt>
      <trkpt lat="44.64156" lon="5.65982">
        <ele>1509.41</ele>
        <time>2015-06-25T12:37:59Z</time>
      </trkpt>
      <trkpt lat="44.64148" lon="5.65982">
        <ele>1507.48</ele>
        <time>2015-06-25T12:38:11Z</time>
      </trkpt>
      <trkpt lat="44.64141" lon="5.65982">
        <ele>1506.04</ele>
        <time>2015-06-25T12:38:28Z</time>
      </trkpt>
      <trkpt lat="44.64136" lon="5.65982">
        <ele>1505.56</ele>
        <time>2015-06-25T12:38:34Z</time>
      </trkpt>
      <trkpt lat="44.64126" lon="5.6598">
        <ele>1502.68</ele>
        <time>2015-06-25T12:38:47Z</time>
      </trkpt>
      <trkpt lat="44.64119" lon="5.6598">
        <ele>1500.76</ele>
        <time>2015-06-25T12:39:01Z</time>
      </trkpt>
      <trkpt lat="44.6411" lon="5.65976">
        <ele>1497.87</ele>
        <time>2015-06-25T12:39:15Z</time>
      </trkpt>
      <trkpt lat="44.64104" lon="5.65975">
        <ele>1494.99</ele>
        <time>2015-06-25T12:39:30Z</time>
      </trkpt>
      <trkpt lat="44.64095" lon="5.65972">
        <ele>1492.1</ele>
        <time>2015-06-25T12:39:50Z</time>
      </trkpt>
      <trkpt lat="44.64089" lon="5.65969">
        <ele>1488.74</ele>
        <time>2015-06-25T12:40:02Z</time>
      </trkpt>
      <trkpt lat="44.6408" lon="5.65976">
        <ele>1486.82</ele>
        <time>2015-06-25T12:40:16Z</time>
      </trkpt>
      <trkpt lat="44.64071" lon="5.65977">
        <ele>1483.93</ele>
        <time>2015-06-25T12:40:32Z</time>
      </trkpt>
      <trkpt lat="44.64072" lon="5.65969">
        <ele>1481.53</ele>
        <time>2015-06-25T12:40:46Z</time>
      </trkpt>
      <trkpt lat="44.64073" lon="5.65957">
        <ele>1478.16</ele>
        <time>2015-06-25T12:41:01Z</time>
      </trkpt>
      <trkpt lat="44.6407" lon="5.65947">
        <ele>1476.24</ele>
        <time>2015-06-25T12:41:15Z</time>
      </trkpt>
      <trkpt lat="44.64063" lon="5.65944">
        <ele>1473.36</ele>
        <time>2015-06-25T12:41:27Z</time>
      </trkpt>
      <trkpt lat="44.64052" lon="5.65943">
        <ele>1469.99</ele>
        <time>2015-06-25T12:41:42Z</time>
      </trkpt>
      <trkpt lat="44.64043" lon="5.65941">
        <ele>1467.11</ele>
        <time>2015-06-25T12:41:56Z</time>
      </trkpt>
      <trkpt lat="44.64035" lon="5.65937">
        <ele>1464.23</ele>
        <time>2015-06-25T12:42:09Z</time>
      </trkpt>
      <trkpt lat="44.6403" lon="5.6593">
        <ele>1460.86</ele>
        <time>2015-06-25T12:42:22Z</time>
      </trkpt>
      <trkpt lat="44.64022" lon="5.65919">
        <ele>1457.5</ele>
        <time>2015-06-25T12:42:40Z</time>
      </trkpt>
      <trkpt lat="44.64016" lon="5.65906">
        <ele>1454.61</ele>
        <time>2015-06-25T12:42:53Z</time>
      </trkpt>
      <trkpt lat="44.64006" lon="5.65892">
        <ele>1451.25</ele>
        <time>2015-06-25T12:43:04Z</time>
      </trkpt>
      <trkpt lat="44.63999" lon="5.65887">
        <ele>1449.32</ele>
        <time>2015-06-25T12:43:18Z</time>
      </trkpt>
      <trkpt lat="44.63987" lon="5.65877">
        <ele>1445.96</ele>
        <time>2015-06-25T12:43:35Z</time>
      </trkpt>
      <trkpt lat="44.63978" lon="5.65867">
        <ele>1445</ele>
        <time>2015-06-25T12:43:49Z</time>
      </trkpt>
      <trkpt lat="44.6398" lon="5.65863">
        <ele>1444.52</ele>
        <time>2015-06-25T12:43:54Z</time>
      </trkpt>
      <trkpt lat="44.63987" lon="5.65859">
        <ele>1444.52</ele>
        <time>2015-06-25T12:44:07Z</time>
      </trkpt>
      <trkpt lat="44.63984" lon="5.65856">
        <ele>1444.04</ele>
        <time>2015-06-25T12:44:48Z</time>
      </trkpt>
      <trkpt lat="44.63978" lon="5.65865">
        <ele>1444.52</ele>
        <time>2015-06-25T12:45:00Z</time>
      </trkpt>
      <trkpt lat="44.63974" lon="5.65866">
        <ele>1444.04</ele>
        <time>2015-06-25T12:45:05Z</time>
      </trkpt>
      <trkpt lat="44.63963" lon="5.6587">
        <ele>1443.56</ele>
        <time>2015-06-25T12:45:19Z</time>
      </trkpt>
      <trkpt lat="44.63958" lon="5.6587">
        <ele>1442.6</ele>
        <time>2015-06-25T12:45:33Z</time>
      </trkpt>
      <trkpt lat="44.63958" lon="5.65869">
        <ele>1442.6</ele>
        <time>2015-06-25T12:46:00Z</time>
      </trkpt>
      <trkpt lat="44.63962" lon="5.65871">
        <ele>1442.11</ele>
        <time>2015-06-25T12:46:23Z</time>
      </trkpt>
      <trkpt lat="44.6396" lon="5.65869">
        <ele>1441.63</ele>
        <time>2015-06-25T12:46:55Z</time>
      </trkpt>
      <trkpt lat="44.63958" lon="5.65869">
        <ele>1441.63</ele>
        <time>2015-06-25T12:47:26Z</time>
      </trkpt>
      <trkpt lat="44.63954" lon="5.65871">
        <ele>1441.63</ele>
        <time>2015-06-25T12:47:57Z</time>
      </trkpt>
      <trkpt lat="44.63945" lon="5.65864">
        <ele>1440.19</ele>
        <time>2015-06-25T12:48:09Z</time>
      </trkpt>
      <trkpt lat="44.63944" lon="5.65864">
        <ele>1440.19</ele>
        <time>2015-06-25T12:48:27Z</time>
      </trkpt>
      <trkpt lat="44.63949" lon="5.65864">
        <ele>1440.19</ele>
        <time>2015-06-25T12:48:38Z</time>
      </trkpt>
      <trkpt lat="44.63951" lon="5.65866">
        <ele>1440.67</ele>
        <time>2015-06-25T12:48:41Z</time>
      </trkpt>
      <trkpt lat="44.63958" lon="5.65871">
        <ele>1441.15</ele>
        <time>2015-06-25T12:48:53Z</time>
      </trkpt>
      <trkpt lat="44.63959" lon="5.6587">
        <ele>1441.15</ele>
        <time>2015-06-25T12:49:13Z</time>
      </trkpt>
      <trkpt lat="44.63956" lon="5.6587">
        <ele>1441.15</ele>
        <time>2015-06-25T12:49:37Z</time>
      </trkpt>
      <trkpt lat="44.63959" lon="5.65868">
        <ele>1441.15</ele>
        <time>2015-06-25T12:50:00Z</time>
      </trkpt>
      <trkpt lat="44.63955" lon="5.65869">
        <ele>1440.67</ele>
        <time>2015-06-25T12:50:25Z</time>
      </trkpt>
      <trkpt lat="44.63956" lon="5.65871">
        <ele>1440.67</ele>
        <time>2015-06-25T12:50:50Z</time>
      </trkpt>
      <trkpt lat="44.63958" lon="5.6587">
        <ele>1440.67</ele>
        <time>2015-06-25T12:51:20Z</time>
      </trkpt>
      <trkpt lat="44.63957" lon="5.65871">
        <ele>1440.67</ele>
        <time>2015-06-25T12:51:49Z</time>
      </trkpt>
      <trkpt lat="44.63958" lon="5.65872">
        <ele>1440.67</ele>
        <time>2015-06-25T12:52:14Z</time>
      </trkpt>
      <trkpt lat="44.63955" lon="5.65872">
        <ele>1440.67</ele>
        <time>2015-06-25T12:52:42Z</time>
      </trkpt>
      <trkpt lat="44.63956" lon="5.65871">
        <ele>1440.67</ele>
        <time>2015-06-25T12:53:16Z</time>
      </trkpt>
      <trkpt lat="44.63956" lon="5.65869">
        <ele>1440.19</ele>
        <time>2015-06-25T12:53:37Z</time>
      </trkpt>
      <trkpt lat="44.63956" lon="5.65868">
        <ele>1440.19</ele>
        <time>2015-06-25T12:54:02Z</time>
      </trkpt>
      <trkpt lat="44.63956" lon="5.65873">
        <ele>1440.19</ele>
        <time>2015-06-25T12:54:32Z</time>
      </trkpt>
      <trkpt lat="44.63958" lon="5.65873">
        <ele>1440.19</ele>
        <time>2015-06-25T12:55:00Z</time>
      </trkpt>
      <trkpt lat="44.63958" lon="5.65874">
        <ele>1440.19</ele>
        <time>2015-06-25T12:55:22Z</time>
      </trkpt>
      <trkpt lat="44.63961" lon="5.65872">
        <ele>1440.19</ele>
        <time>2015-06-25T12:55:37Z</time>
      </trkpt>
      <trkpt lat="44.63961" lon="5.65871">
        <ele>1440.19</ele>
        <time>2015-06-25T12:55:58Z</time>
      </trkpt>
      <trkpt lat="44.63957" lon="5.65876">
        <ele>1439.23</ele>
        <time>2015-06-25T12:56:18Z</time>
      </trkpt>
      <trkpt lat="44.63958" lon="5.65875">
        <ele>1438.75</ele>
        <time>2015-06-25T12:56:31Z</time>
      </trkpt>
      <trkpt lat="44.63958" lon="5.65878">
        <ele>1438.75</ele>
        <time>2015-06-25T12:56:46Z</time>
      </trkpt>
      <trkpt lat="44.63957" lon="5.65879">
        <ele>1438.27</ele>
        <time>2015-06-25T12:57:07Z</time>
      </trkpt>
      <trkpt lat="44.63954" lon="5.65884">
        <ele>1437.31</ele>
        <time>2015-06-25T12:57:25Z</time>
      </trkpt>
      <trkpt lat="44.63948" lon="5.65894">
        <ele>1434.42</ele>
        <time>2015-06-25T12:57:38Z</time>
      </trkpt>
      <trkpt lat="44.63945" lon="5.659">
        <ele>1431.54</ele>
        <time>2015-06-25T12:57:51Z</time>
      </trkpt>
      <trkpt lat="44.6394" lon="5.65909">
        <ele>1429.14</ele>
        <time>2015-06-25T12:58:05Z</time>
      </trkpt>
      <trkpt lat="44.63935" lon="5.65917">
        <ele>1425.77</ele>
        <time>2015-06-25T12:58:19Z</time>
      </trkpt>
      <trkpt lat="44.63933" lon="5.65928">
        <ele>1422.89</ele>
        <time>2015-06-25T12:58:31Z</time>
      </trkpt>
      <trkpt lat="44.63929" lon="5.65933">
        <ele>1420.97</ele>
        <time>2015-06-25T12:58:43Z</time>
      </trkpt>
      <trkpt lat="44.63925" lon="5.65941">
        <ele>1418.56</ele>
        <time>2015-06-25T12:58:56Z</time>
      </trkpt>
      <trkpt lat="44.6392" lon="5.65944">
        <ele>1415.2</ele>
        <time>2015-06-25T12:59:11Z</time>
      </trkpt>
      <trkpt lat="44.63913" lon="5.65949">
        <ele>1411.83</ele>
        <time>2015-06-25T12:59:23Z</time>
      </trkpt>
      <trkpt lat="44.63911" lon="5.65958">
        <ele>1409.91</ele>
        <time>2015-06-25T12:59:37Z</time>
      </trkpt>
      <trkpt lat="44.63908" lon="5.65968">
        <ele>1407.03</ele>
        <time>2015-06-25T12:59:52Z</time>
      </trkpt>
      <trkpt lat="44.63905" lon="5.65972">
        <ele>1404.62</ele>
        <time>2015-06-25T13:00:07Z</time>
      </trkpt>
      <trkpt lat="44.639" lon="5.6598">
        <ele>1401.74</ele>
        <time>2015-06-25T13:00:20Z</time>
      </trkpt>
      <trkpt lat="44.63898" lon="5.65988">
        <ele>1399.82</ele>
        <time>2015-06-25T13:00:33Z</time>
      </trkpt>
      <trkpt lat="44.63893" lon="5.65998">
        <ele>1397.41</ele>
        <time>2015-06-25T13:00:46Z</time>
      </trkpt>
      <trkpt lat="44.63889" lon="5.66006">
        <ele>1394.53</ele>
        <time>2015-06-25T13:01:02Z</time>
      </trkpt>
      <trkpt lat="44.63887" lon="5.66012">
        <ele>1392.13</ele>
        <time>2015-06-25T13:01:16Z</time>
      </trkpt>
      <trkpt lat="44.63883" lon="5.66018">
        <ele>1389.72</ele>
        <time>2015-06-25T13:01:30Z</time>
      </trkpt>
      <trkpt lat="44.63879" lon="5.66021">
        <ele>1387.32</ele>
        <time>2015-06-25T13:01:41Z</time>
      </trkpt>
      <trkpt lat="44.63876" lon="5.66022">
        <ele>1385.4</ele>
        <time>2015-06-25T13:01:55Z</time>
      </trkpt>
      <trkpt lat="44.63873" lon="5.66025">
        <ele>1382.51</ele>
        <time>2015-06-25T13:02:06Z</time>
      </trkpt>
      <trkpt lat="44.63868" lon="5.6603">
        <ele>1380.11</ele>
        <time>2015-06-25T13:02:17Z</time>
      </trkpt>
      <trkpt lat="44.63865" lon="5.66032">
        <ele>1378.19</ele>
        <time>2015-06-25T13:02:30Z</time>
      </trkpt>
      <trkpt lat="44.63865" lon="5.66033">
        <ele>1378.67</ele>
        <time>2015-06-25T13:02:46Z</time>
      </trkpt>
      <trkpt lat="44.63858" lon="5.66036">
        <ele>1377.71</ele>
        <time>2015-06-25T13:03:02Z</time>
      </trkpt>
      <trkpt lat="44.63861" lon="5.66039">
        <ele>1376.75</ele>
        <time>2015-06-25T13:03:21Z</time>
      </trkpt>
      <trkpt lat="44.63859" lon="5.66035">
        <ele>1376.75</ele>
        <time>2015-06-25T13:03:37Z</time>
      </trkpt>
      <trkpt lat="44.6386" lon="5.66038">
        <ele>1376.75</ele>
        <time>2015-06-25T13:03:57Z</time>
      </trkpt>
      <trkpt lat="44.63851" lon="5.66042">
        <ele>1374.34</ele>
        <time>2015-06-25T13:04:12Z</time>
      </trkpt>
      <trkpt lat="44.63846" lon="5.66047">
        <ele>1371.94</ele>
        <time>2015-06-25T13:04:28Z</time>
      </trkpt>
      <trkpt lat="44.63843" lon="5.66044">
        <ele>1371.46</ele>
        <time>2015-06-25T13:04:40Z</time>
      </trkpt>
      <trkpt lat="44.63839" lon="5.6604">
        <ele>1368.09</ele>
        <time>2015-06-25T13:04:53Z</time>
      </trkpt>
      <trkpt lat="44.63834" lon="5.66049">
        <ele>1364.73</ele>
        <time>2015-06-25T13:05:07Z</time>
      </trkpt>
      <trkpt lat="44.63827" lon="5.66053">
        <ele>1362.33</ele>
        <time>2015-06-25T13:05:21Z</time>
      </trkpt>
      <trkpt lat="44.63822" lon="5.66054">
        <ele>1359.92</ele>
        <time>2015-06-25T13:05:36Z</time>
      </trkpt>
      <trkpt lat="44.63817" lon="5.66057">
        <ele>1358.48</ele>
        <time>2015-06-25T13:05:51Z</time>
      </trkpt>
      <trkpt lat="44.63815" lon="5.66058">
        <ele>1357.04</ele>
        <time>2015-06-25T13:05:59Z</time>
      </trkpt>
      <trkpt lat="44.63811" lon="5.66051">
        <ele>1353.67</ele>
        <time>2015-06-25T13:06:12Z</time>
      </trkpt>
      <trkpt lat="44.63808" lon="5.66042">
        <ele>1350.79</ele>
        <time>2015-06-25T13:06:26Z</time>
      </trkpt>
      <trkpt lat="44.63805" lon="5.66037">
        <ele>1347.91</ele>
        <time>2015-06-25T13:06:40Z</time>
      </trkpt>
      <trkpt lat="44.63803" lon="5.6603">
        <ele>1345.98</ele>
        <time>2015-06-25T13:06:53Z</time>
      </trkpt>
      <trkpt lat="44.63798" lon="5.66031">
        <ele>1343.1</ele>
        <time>2015-06-25T13:07:07Z</time>
      </trkpt>
      <trkpt lat="44.63791" lon="5.66034">
        <ele>1340.22</ele>
        <time>2015-06-25T13:07:22Z</time>
      </trkpt>
      <trkpt lat="44.63788" lon="5.6603">
        <ele>1338.29</ele>
        <time>2015-06-25T13:07:35Z</time>
      </trkpt>
      <trkpt lat="44.63784" lon="5.66022">
        <ele>1334.93</ele>
        <time>2015-06-25T13:07:47Z</time>
      </trkpt>
      <trkpt lat="44.63777" lon="5.66026">
        <ele>1332.52</ele>
        <time>2015-06-25T13:08:01Z</time>
      </trkpt>
      <trkpt lat="44.63771" lon="5.66032">
        <ele>1329.16</ele>
        <time>2015-06-25T13:08:16Z</time>
      </trkpt>
      <trkpt lat="44.63765" lon="5.66034">
        <ele>1326.28</ele>
        <time>2015-06-25T13:08:29Z</time>
      </trkpt>
      <trkpt lat="44.63757" lon="5.66036">
        <ele>1322.91</ele>
        <time>2015-06-25T13:08:42Z</time>
      </trkpt>
      <trkpt lat="44.63751" lon="5.66039">
        <ele>1320.99</ele>
        <time>2015-06-25T13:08:54Z</time>
      </trkpt>
      <trkpt lat="44.63745" lon="5.66042">
        <ele>1319.07</ele>
        <time>2015-06-25T13:09:12Z</time>
      </trkpt>
      <trkpt lat="44.63744" lon="5.66036">
        <ele>1316.66</ele>
        <time>2015-06-25T13:09:25Z</time>
      </trkpt>
      <trkpt lat="44.6374" lon="5.6603">
        <ele>1314.26</ele>
        <time>2015-06-25T13:09:39Z</time>
      </trkpt>
      <trkpt lat="44.63738" lon="5.66022">
        <ele>1312.34</ele>
        <time>2015-06-25T13:09:54Z</time>
      </trkpt>
      <trkpt lat="44.63735" lon="5.66021">
        <ele>1310.9</ele>
        <time>2015-06-25T13:10:06Z</time>
      </trkpt>
      <trkpt lat="44.63732" lon="5.66021">
        <ele>1308.97</ele>
        <time>2015-06-25T13:10:26Z</time>
      </trkpt>
      <trkpt lat="44.63727" lon="5.66012">
        <ele>1306.57</ele>
        <time>2015-06-25T13:10:40Z</time>
      </trkpt>
      <trkpt lat="44.63722" lon="5.66005">
        <ele>1303.69</ele>
        <time>2015-06-25T13:10:55Z</time>
      </trkpt>
      <trkpt lat="44.63717" lon="5.66005">
        <ele>1301.76</ele>
        <time>2015-06-25T13:11:09Z</time>
      </trkpt>
      <trkpt lat="44.63714" lon="5.66004">
        <ele>1298.88</ele>
        <time>2015-06-25T13:11:21Z</time>
      </trkpt>
      <trkpt lat="44.63708" lon="5.65999">
        <ele>1296.48</ele>
        <time>2015-06-25T13:11:35Z</time>
      </trkpt>
      <trkpt lat="44.63704" lon="5.65991">
        <ele>1294.07</ele>
        <time>2015-06-25T13:11:51Z</time>
      </trkpt>
      <trkpt lat="44.63704" lon="5.65994">
        <ele>1293.59</ele>
        <time>2015-06-25T13:12:20Z</time>
      </trkpt>
      <trkpt lat="44.63704" lon="5.65991">
        <ele>1292.63</ele>
        <time>2015-06-25T13:12:40Z</time>
      </trkpt>
      <trkpt lat="44.63701" lon="5.65997">
        <ele>1292.63</ele>
        <time>2015-06-25T13:13:08Z</time>
      </trkpt>
      <trkpt lat="44.63701" lon="5.65995">
        <ele>1292.15</ele>
        <time>2015-06-25T13:13:40Z</time>
      </trkpt>
      <trkpt lat="44.63697" lon="5.65995">
        <ele>1291.67</ele>
        <time>2015-06-25T13:14:03Z</time>
      </trkpt>
      <trkpt lat="44.63691" lon="5.65999">
        <ele>1288.78</ele>
        <time>2015-06-25T13:14:18Z</time>
      </trkpt>
      <trkpt lat="44.63687" lon="5.66">
        <ele>1285.9</ele>
        <time>2015-06-25T13:14:32Z</time>
      </trkpt>
      <trkpt lat="44.63681" lon="5.65998">
        <ele>1283.02</ele>
        <time>2015-06-25T13:14:45Z</time>
      </trkpt>
      <trkpt lat="44.63673" lon="5.66007">
        <ele>1279.65</ele>
        <time>2015-06-25T13:14:58Z</time>
      </trkpt>
      <trkpt lat="44.63669" lon="5.66009">
        <ele>1278.21</ele>
        <time>2015-06-25T13:15:02Z</time>
      </trkpt>
      <trkpt lat="44.6366" lon="5.66009">
        <ele>1274.85</ele>
        <time>2015-06-25T13:15:14Z</time>
      </trkpt>
      <trkpt lat="44.63654" lon="5.66014">
        <ele>1273.88</ele>
        <time>2015-06-25T13:15:29Z</time>
      </trkpt>
      <trkpt lat="44.63648" lon="5.66013">
        <ele>1271.96</ele>
        <time>2015-06-25T13:15:35Z</time>
      </trkpt>
      <trkpt lat="44.63645" lon="5.66003">
        <ele>1269.08</ele>
        <time>2015-06-25T13:15:46Z</time>
      </trkpt>
      <trkpt lat="44.63642" lon="5.65999">
        <ele>1267.64</ele>
        <time>2015-06-25T13:15:50Z</time>
      </trkpt>
      <trkpt lat="44.63639" lon="5.65997">
        <ele>1265.71</ele>
        <time>2015-06-25T13:16:03Z</time>
      </trkpt>
      <trkpt lat="44.63636" lon="5.65989">
        <ele>1264.27</ele>
        <time>2015-06-25T13:16:23Z</time>
      </trkpt>
      <trkpt lat="44.63629" lon="5.65984">
        <ele>1261.39</ele>
        <time>2015-06-25T13:16:41Z</time>
      </trkpt>
      <trkpt lat="44.63626" lon="5.65974">
        <ele>1258.98</ele>
        <time>2015-06-25T13:16:56Z</time>
      </trkpt>
      <trkpt lat="44.63615" lon="5.65968">
        <ele>1256.1</ele>
        <time>2015-06-25T13:17:13Z</time>
      </trkpt>
      <trkpt lat="44.63613" lon="5.65966">
        <ele>1253.22</ele>
        <time>2015-06-25T13:17:27Z</time>
      </trkpt>
      <trkpt lat="44.63602" lon="5.65966">
        <ele>1250.81</ele>
        <time>2015-06-25T13:17:46Z</time>
      </trkpt>
      <trkpt lat="44.63597" lon="5.65959">
        <ele>1247.45</ele>
        <time>2015-06-25T13:18:00Z</time>
      </trkpt>
      <trkpt lat="44.6359" lon="5.65949">
        <ele>1244.08</ele>
        <time>2015-06-25T13:18:16Z</time>
      </trkpt>
      <trkpt lat="44.63584" lon="5.65942">
        <ele>1241.68</ele>
        <time>2015-06-25T13:18:31Z</time>
      </trkpt>
      <trkpt lat="44.63578" lon="5.65934">
        <ele>1238.8</ele>
        <time>2015-06-25T13:18:46Z</time>
      </trkpt>
      <trkpt lat="44.63571" lon="5.65927">
        <ele>1235.91</ele>
        <time>2015-06-25T13:18:59Z</time>
      </trkpt>
      <trkpt lat="44.63566" lon="5.65918">
        <ele>1233.03</ele>
        <time>2015-06-25T13:19:13Z</time>
      </trkpt>
      <trkpt lat="44.63562" lon="5.65909">
        <ele>1230.14</ele>
        <time>2015-06-25T13:19:29Z</time>
      </trkpt>
      <trkpt lat="44.63558" lon="5.65904">
        <ele>1227.74</ele>
        <time>2015-06-25T13:19:44Z</time>
      </trkpt>
      <trkpt lat="44.63554" lon="5.65893">
        <ele>1225.34</ele>
        <time>2015-06-25T13:19:57Z</time>
      </trkpt>
      <trkpt lat="44.63548" lon="5.65883">
        <ele>1221.97</ele>
        <time>2015-06-25T13:20:13Z</time>
      </trkpt>
      <trkpt lat="44.63542" lon="5.65873">
        <ele>1218.61</ele>
        <time>2015-06-25T13:20:28Z</time>
      </trkpt>
      <trkpt lat="44.63539" lon="5.65863">
        <ele>1216.69</ele>
        <time>2015-06-25T13:20:43Z</time>
      </trkpt>
      <trkpt lat="44.63534" lon="5.65856">
        <ele>1215.24</ele>
        <time>2015-06-25T13:20:58Z</time>
      </trkpt>
      <trkpt lat="44.63534" lon="5.65848">
        <ele>1213.8</ele>
        <time>2015-06-25T13:21:10Z</time>
      </trkpt>
      <trkpt lat="44.63533" lon="5.65834">
        <ele>1212.36</ele>
        <time>2015-06-25T13:21:27Z</time>
      </trkpt>
      <trkpt lat="44.63536" lon="5.6582">
        <ele>1210.92</ele>
        <time>2015-06-25T13:21:41Z</time>
      </trkpt>
      <trkpt lat="44.63543" lon="5.65813">
        <ele>1210.92</ele>
        <time>2015-06-25T13:21:55Z</time>
      </trkpt>
      <trkpt lat="44.63552" lon="5.65802">
        <ele>1207.55</ele>
        <time>2015-06-25T13:22:12Z</time>
      </trkpt>
      <trkpt lat="44.6356" lon="5.65791">
        <ele>1206.11</ele>
        <time>2015-06-25T13:22:29Z</time>
      </trkpt>
      <trkpt lat="44.63564" lon="5.6578">
        <ele>1204.19</ele>
        <time>2015-06-25T13:22:40Z</time>
      </trkpt>
      <trkpt lat="44.63565" lon="5.65769">
        <ele>1203.23</ele>
        <time>2015-06-25T13:22:51Z</time>
      </trkpt>
      <trkpt lat="44.63567" lon="5.65755">
        <ele>1202.75</ele>
        <time>2015-06-25T13:23:03Z</time>
      </trkpt>
      <trkpt lat="44.63571" lon="5.65743">
        <ele>1202.75</ele>
        <time>2015-06-25T13:23:15Z</time>
      </trkpt>
      <trkpt lat="44.63572" lon="5.65735">
        <ele>1203.23</ele>
        <time>2015-06-25T13:23:33Z</time>
      </trkpt>
      <trkpt lat="44.63576" lon="5.65726">
        <ele>1203.23</ele>
        <time>2015-06-25T13:23:46Z</time>
      </trkpt>
      <trkpt lat="44.63578" lon="5.65715">
        <ele>1201.79</ele>
        <time>2015-06-25T13:24:02Z</time>
      </trkpt>
      <trkpt lat="44.6358" lon="5.65706">
        <ele>1198.9</ele>
        <time>2015-06-25T13:24:15Z</time>
      </trkpt>
      <trkpt lat="44.63583" lon="5.65699">
        <ele>1198.42</ele>
        <time>2015-06-25T13:24:31Z</time>
      </trkpt>
      <trkpt lat="44.63589" lon="5.65696">
        <ele>1199.86</ele>
        <time>2015-06-25T13:24:46Z</time>
      </trkpt>
      <trkpt lat="44.6359" lon="5.65686">
        <ele>1197.94</ele>
        <time>2015-06-25T13:25:01Z</time>
      </trkpt>
      <trkpt lat="44.63587" lon="5.65675">
        <ele>1196.02</ele>
        <time>2015-06-25T13:25:16Z</time>
      </trkpt>
      <trkpt lat="44.63582" lon="5.65661">
        <ele>1195.06</ele>
        <time>2015-06-25T13:25:30Z</time>
      </trkpt>
      <trkpt lat="44.63584" lon="5.65647">
        <ele>1196.5</ele>
        <time>2015-06-25T13:25:45Z</time>
      </trkpt>
      <trkpt lat="44.63584" lon="5.65644">
        <ele>1196.98</ele>
        <time>2015-06-25T13:25:47Z</time>
      </trkpt>
      <trkpt lat="44.63584" lon="5.6564">
        <ele>1196.98</ele>
        <time>2015-06-25T13:25:50Z</time>
      </trkpt>
      <trkpt lat="44.63583" lon="5.65629">
        <ele>1197.94</ele>
        <time>2015-06-25T13:26:00Z</time>
      </trkpt>
      <trkpt lat="44.63584" lon="5.65616">
        <ele>1198.42</ele>
        <time>2015-06-25T13:26:14Z</time>
      </trkpt>
      <trkpt lat="44.63593" lon="5.65608">
        <ele>1201.3</ele>
        <time>2015-06-25T13:26:30Z</time>
      </trkpt>
      <trkpt lat="44.63601" lon="5.65599">
        <ele>1203.71</ele>
        <time>2015-06-25T13:26:44Z</time>
      </trkpt>
      <trkpt lat="44.63609" lon="5.65589">
        <ele>1205.63</ele>
        <time>2015-06-25T13:27:00Z</time>
      </trkpt>
      <trkpt lat="44.63617" lon="5.65587">
        <ele>1206.11</ele>
        <time>2015-06-25T13:27:13Z</time>
      </trkpt>
      <trkpt lat="44.63632" lon="5.65587">
        <ele>1204.67</ele>
        <time>2015-06-25T13:27:29Z</time>
      </trkpt>
      <trkpt lat="44.63642" lon="5.65578">
        <ele>1203.23</ele>
        <time>2015-06-25T13:27:45Z</time>
      </trkpt>
      <trkpt lat="44.6365" lon="5.6557">
        <ele>1202.75</ele>
        <time>2015-06-25T13:27:58Z</time>
      </trkpt>
      <trkpt lat="44.63658" lon="5.65559">
        <ele>1201.79</ele>
        <time>2015-06-25T13:28:12Z</time>
      </trkpt>
      <trkpt lat="44.63658" lon="5.65556">
        <ele>1201.3</ele>
        <time>2015-06-25T13:28:29Z</time>
      </trkpt>
      <trkpt lat="44.63658" lon="5.65561">
        <ele>1201.79</ele>
        <time>2015-06-25T13:28:43Z</time>
      </trkpt>
      <trkpt lat="44.63653" lon="5.65567">
        <ele>1201.79</ele>
        <time>2015-06-25T13:28:58Z</time>
      </trkpt>
      <trkpt lat="44.63647" lon="5.65579">
        <ele>1202.27</ele>
        <time>2015-06-25T13:29:10Z</time>
      </trkpt>
      <trkpt lat="44.63641" lon="5.65585">
        <ele>1202.75</ele>
        <time>2015-06-25T13:29:24Z</time>
      </trkpt>
      <trkpt lat="44.63641" lon="5.65586">
        <ele>1203.23</ele>
        <time>2015-06-25T13:29:48Z</time>
      </trkpt>
      <trkpt lat="44.63646" lon="5.65588">
        <ele>1203.23</ele>
        <time>2015-06-25T13:30:09Z</time>
      </trkpt>
      <trkpt lat="44.63654" lon="5.65586">
        <ele>1203.23</ele>
        <time>2015-06-25T13:30:32Z</time>
      </trkpt>
      <trkpt lat="44.63658" lon="5.65587">
        <ele>1202.75</ele>
        <time>2015-06-25T13:30:55Z</time>
      </trkpt>
      <trkpt lat="44.63648" lon="5.65582">
        <ele>1202.27</ele>
        <time>2015-06-25T13:31:21Z</time>
      </trkpt>
      <trkpt lat="44.6364" lon="5.65582">
        <ele>1202.75</ele>
        <time>2015-06-25T13:31:50Z</time>
      </trkpt>
      <trkpt lat="44.63631" lon="5.65582">
        <ele>1202.27</ele>
        <time>2015-06-25T13:32:30Z</time>
      </trkpt>
      <trkpt lat="44.63636" lon="5.65584">
        <ele>1202.75</ele>
        <time>2015-06-25T13:32:58Z</time>
      </trkpt>
      <trkpt lat="44.63639" lon="5.65583">
        <ele>1202.75</ele>
        <time>2015-06-25T13:33:36Z</time>
      </trkpt>
      <trkpt lat="44.6364" lon="5.65584">
        <ele>1202.27</ele>
        <time>2015-06-25T13:34:12Z</time>
      </trkpt>
      <trkpt lat="44.6364" lon="5.65585">
        <ele>1203.23</ele>
        <time>2015-06-25T13:34:36Z</time>
      </trkpt>
      <trkpt lat="44.6364" lon="5.65589">
        <ele>1203.71</ele>
        <time>2015-06-25T13:34:56Z</time>
      </trkpt>
      <trkpt lat="44.63637" lon="5.65596">
        <ele>1206.11</ele>
        <time>2015-06-25T13:35:08Z</time>
      </trkpt>
      <trkpt lat="44.63631" lon="5.65599">
        <ele>1207.07</ele>
        <time>2015-06-25T13:35:26Z</time>
      </trkpt>
      <trkpt lat="44.63625" lon="5.65589">
        <ele>1206.11</ele>
        <time>2015-06-25T13:35:41Z</time>
      </trkpt>
      <trkpt lat="44.63626" lon="5.65584">
        <ele>1204.19</ele>
        <time>2015-06-25T13:36:09Z</time>
      </trkpt>
      <trkpt lat="44.63632" lon="5.65588">
        <ele>1202.27</ele>
        <time>2015-06-25T13:36:24Z</time>
      </trkpt>
      <trkpt lat="44.63643" lon="5.65583">
        <ele>1201.79</ele>
        <time>2015-06-25T13:36:46Z</time>
      </trkpt>
      <trkpt lat="44.63643" lon="5.65578">
        <ele>1201.79</ele>
        <time>2015-06-25T13:37:01Z</time>
      </trkpt>
      <trkpt lat="44.63649" lon="5.65567">
        <ele>1200.34</ele>
        <time>2015-06-25T13:37:13Z</time>
      </trkpt>
      <trkpt lat="44.63657" lon="5.65557">
        <ele>1199.86</ele>
        <time>2015-06-25T13:37:29Z</time>
      </trkpt>
      <trkpt lat="44.63655" lon="5.6555">
        <ele>1200.34</ele>
        <time>2015-06-25T13:37:50Z</time>
      </trkpt>
      <trkpt lat="44.63656" lon="5.65552">
        <ele>1199.86</ele>
        <time>2015-06-25T13:38:13Z</time>
      </trkpt>
      <trkpt lat="44.63657" lon="5.65556">
        <ele>1199.38</ele>
        <time>2015-06-25T13:38:39Z</time>
      </trkpt>
      <trkpt lat="44.63654" lon="5.65548">
        <ele>1199.86</ele>
        <time>2015-06-25T13:39:02Z</time>
      </trkpt>
      <trkpt lat="44.6366" lon="5.65544">
        <ele>1197.46</ele>
        <time>2015-06-25T13:39:18Z</time>
      </trkpt>
      <trkpt lat="44.63668" lon="5.65541">
        <ele>1200.82</ele>
        <time>2015-06-25T13:39:30Z</time>
      </trkpt>
      <trkpt lat="44.6367" lon="5.65533">
        <ele>1201.79</ele>
        <time>2015-06-25T13:39:36Z</time>
      </trkpt>
      <trkpt lat="44.63679" lon="5.65523">
        <ele>1201.3</ele>
        <time>2015-06-25T13:39:52Z</time>
      </trkpt>
      <trkpt lat="44.63688" lon="5.65509">
        <ele>1202.27</ele>
        <time>2015-06-25T13:40:07Z</time>
      </trkpt>
      <trkpt lat="44.63694" lon="5.65504">
        <ele>1201.3</ele>
        <time>2015-06-25T13:40:14Z</time>
      </trkpt>
      <trkpt lat="44.63695" lon="5.65488">
        <ele>1198.9</ele>
        <time>2015-06-25T13:40:28Z</time>
      </trkpt>
      <trkpt lat="44.6369" lon="5.6548">
        <ele>1197.94</ele>
        <time>2015-06-25T13:40:41Z</time>
      </trkpt>
      <trkpt lat="44.63683" lon="5.65473">
        <ele>1199.86</ele>
        <time>2015-06-25T13:40:57Z</time>
      </trkpt>
      <trkpt lat="44.63676" lon="5.65465">
        <ele>1202.27</ele>
        <time>2015-06-25T13:41:11Z</time>
      </trkpt>
      <trkpt lat="44.63669" lon="5.65454">
        <ele>1202.75</ele>
        <time>2015-06-25T13:41:24Z</time>
      </trkpt>
      <trkpt lat="44.63663" lon="5.65451">
        <ele>1202.27</ele>
        <time>2015-06-25T13:41:32Z</time>
      </trkpt>
      <trkpt lat="44.6365" lon="5.65444">
        <ele>1201.79</ele>
        <time>2015-06-25T13:41:46Z</time>
      </trkpt>
      <trkpt lat="44.63637" lon="5.65441">
        <ele>1200.82</ele>
        <time>2015-06-25T13:42:01Z</time>
      </trkpt>
      <trkpt lat="44.63622" lon="5.65438">
        <ele>1199.38</ele>
        <time>2015-06-25T13:42:16Z</time>
      </trkpt>
      <trkpt lat="44.63606" lon="5.65438">
        <ele>1197.46</ele>
        <time>2015-06-25T13:42:32Z</time>
      </trkpt>
      <trkpt lat="44.63595" lon="5.65441">
        <ele>1195.54</ele>
        <time>2015-06-25T13:42:47Z</time>
      </trkpt>
      <trkpt lat="44.63588" lon="5.65441">
        <ele>1194.58</ele>
        <time>2015-06-25T13:42:54Z</time>
      </trkpt>
      <trkpt lat="44.63571" lon="5.65444">
        <ele>1192.65</ele>
        <time>2015-06-25T13:43:12Z</time>
      </trkpt>
      <trkpt lat="44.63558" lon="5.65447">
        <ele>1191.21</ele>
        <time>2015-06-25T13:43:26Z</time>
      </trkpt>
      <trkpt lat="44.63543" lon="5.65449">
        <ele>1190.25</ele>
        <time>2015-06-25T13:43:41Z</time>
      </trkpt>
      <trkpt lat="44.6353" lon="5.6545">
        <ele>1188.33</ele>
        <time>2015-06-25T13:43:57Z</time>
      </trkpt>
      <trkpt lat="44.63524" lon="5.6546">
        <ele>1186.88</ele>
        <time>2015-06-25T13:44:06Z</time>
      </trkpt>
      <trkpt lat="44.63513" lon="5.65465">
        <ele>1184.96</ele>
        <time>2015-06-25T13:44:22Z</time>
      </trkpt>
      <trkpt lat="44.63502" lon="5.65468">
        <ele>1184.48</ele>
        <time>2015-06-25T13:44:36Z</time>
      </trkpt>
      <trkpt lat="44.6349" lon="5.65476">
        <ele>1182.56</ele>
        <time>2015-06-25T13:44:52Z</time>
      </trkpt>
      <trkpt lat="44.63489" lon="5.65483">
        <ele>1182.08</ele>
        <time>2015-06-25T13:44:57Z</time>
      </trkpt>
      <trkpt lat="44.6349" lon="5.65487">
        <ele>1182.08</ele>
        <time>2015-06-25T13:45:00Z</time>
      </trkpt>
      <trkpt lat="44.63492" lon="5.65507">
        <ele>1180.64</ele>
        <time>2015-06-25T13:45:15Z</time>
      </trkpt>
      <trkpt lat="44.63489" lon="5.65524">
        <ele>1179.19</ele>
        <time>2015-06-25T13:45:31Z</time>
      </trkpt>
      <trkpt lat="44.63488" lon="5.65525">
        <ele>1178.23</ele>
        <time>2015-06-25T13:45:33Z</time>
      </trkpt>
      <trkpt lat="44.63484" lon="5.65539">
        <ele>1177.27</ele>
        <time>2015-06-25T13:45:48Z</time>
      </trkpt>
      <trkpt lat="44.63483" lon="5.65547">
        <ele>1176.31</ele>
        <time>2015-06-25T13:45:55Z</time>
      </trkpt>
      <trkpt lat="44.63484" lon="5.65553">
        <ele>1176.31</ele>
        <time>2015-06-25T13:46:00Z</time>
      </trkpt>
      <trkpt lat="44.63486" lon="5.65557">
        <ele>1175.83</ele>
        <time>2015-06-25T13:46:05Z</time>
      </trkpt>
      <trkpt lat="44.6349" lon="5.65566">
        <ele>1175.35</ele>
        <time>2015-06-25T13:46:12Z</time>
      </trkpt>
      <trkpt lat="44.63495" lon="5.65579">
        <ele>1174.39</ele>
        <time>2015-06-25T13:46:25Z</time>
      </trkpt>
      <trkpt lat="44.63504" lon="5.65595">
        <ele>1173.91</ele>
        <time>2015-06-25T13:46:39Z</time>
      </trkpt>
      <trkpt lat="44.63504" lon="5.65601">
        <ele>1173.91</ele>
        <time>2015-06-25T13:46:43Z</time>
      </trkpt>
      <trkpt lat="44.63488" lon="5.65606">
        <ele>1171.98</ele>
        <time>2015-06-25T13:46:59Z</time>
      </trkpt>
      <trkpt lat="44.63485" lon="5.65605">
        <ele>1171.98</ele>
        <time>2015-06-25T13:47:09Z</time>
      </trkpt>
    </trkseg>
  </trk>
</gpx>